A Fire Weather Index for personal weather stations

(See below the table for background)
Legend:
Low (0-210)
Very High (490 - 630)

Moderate (210 - 350)
Extreme (630+)

High (350 - 490)


52.2
Date Temp. (°C) Wind Speed (km/h) Rain (mm) RH Days since Rain pwsFWI
Prediction is active (including today!), values are above red line.
31/10/21 17,0 33,0 2,0 0,75 0 114,7
30/10/21 15,0 20,0 3,7 0,77 0 117,2
29/10/21 17,0 23,0 0,0 0,62 5 127,3
28/10/21 17,0 20,0 0,0 0,69 4 103,3
27/10/21 17,0 25,0 0,0 0,74 3 78,3
26/10/21 17,5 12,0 0,0 0,67 2 52,2
25/10/21 16,8 10,0 0,0 0,72 1 35,4
24/10/21 17,6 7,0 0,3 0,54 0 23,7
23/10/21 17,0 9,0 0,0 0,69 1 21,8
22/10/21 12,7 15,0 3,3 0,75 0 27,4
21/10/21 14,6 20,0 13,2 0,74 0 40,8
20/10/21 18,2 18,0 14,9 0,75 0 60,8
19/10/21 19,6 11,0 2,8 0,73 0 74,3
18/10/21 17,2 8,0 0,0 0,68 3 75,3
17/10/21 16,4 8,0 0,0 0,60 2 59,5
16/10/21 18,6 6,0 0,0 0,49 1 59,3
15/10/21 18,0 11,0 0,8 0,57 0 71,8
14/10/21 17,9 11,0 0,8 0,71 0 59,3
13/10/21 15,1 5,0 0,0 0,72 1 64,7
12/10/21 15,6 10,0 10,8 0,75 0 66,7
11/10/21 18,2 8,0 0,0 0,62 1 59,9
10/10/21 19,2 6,0 0,5 0,00 0 46,2
09/10/21 19,6 4,0 0,0 0,62 2 49,9
08/10/21 20,8 6,0 0,0 0,57 1 13,6
07/10/21 18,9 4,0 0,9 0,72 0 4,9
06/10/21 13,8 13,0 20,3 0,77 0 3,1
05/10/21 18,1 14,0 4,2 0,67 0 23,9
04/10/21 20,6 13,0 0,0 0,55 1 29,3
03/10/21 16,7 14,0 22,5 0,75 0 25,8
02/10/21 18,0 13,0 3,0 0,69 0 29,7
01/10/21 18,7 13,0 3,3 0,63 0 56,3
30/09/21 15,5 12,0 0,0 0,66 1 88,1
29/09/21 15,2 11,0 9,4 0,69 0 107,1
28/09/21 21,3 9,0 0,0 0,53 1 126,5
27/09/21 21,2 12,0 3,3 0,70 0 138,4
26/09/21 25,9 9,0 0,0 0,59 11 153,5
25/09/21 27,6 7,0 0,0 0,48 10 157,1
24/09/21 24,2 12,0 0,0 0,58 9 144,4
23/09/21 20,8 12,0 0,0 0,62 8 139,0
22/09/21 25,3 7,0 0,0 0,44 7 138,7
21/09/21 23,2 4,0 0,0 0,42 6 134,4
20/09/21 21,8 10,0 0,0 0,44 5 131,3
19/09/21 25,0 5,0 0,0 0,52 4 115,6
18/09/21 26,7 7,0 0,0 0,47 3 118,4
17/09/21 26,0 7,0 0,0 0,51 2 108,2
16/09/21 25,2 7,0 0,0 0,51 1 67,5
15/09/21 22,0 7,0 0,3 0,70 0 61,3
14/09/21 26,1 5,0 0,8 0,57 0 89,1
13/09/21 23,8 7,0 0,0 0,54 2 114,0
12/09/21 24,1 7,0 0,0 0,60 1 127,8
11/09/21 21,9 10,0 6,6 0,74 0 138,8
10/09/21 26,0 11,0 18,2 0,67 0 175,0
09/09/21 30,0 9,0 0,3 0,49 0 189,8
08/09/21 32,2 6,0 0,0 0,35 9 199,5
07/09/21 31,5 6,0 0,0 0,39 8 188,1
06/09/21 28,6 5,0 0,0 0,38 7 168,1
05/09/21 29,1 7,0 0,0 0,42 6 177,7
04/09/21 25,5 8,0 0,0 0,56 5 183,0
03/09/21 29,0 9,0 0,0 0,45 4 167,5
02/09/21 25,8 8,0 0,0 0,49 3 174,0
01/09/21 21,1 7,0 0,0 0,58 2 181,2
31/08/21 25,0 12,0 0,0 0,54 1 183,6
30/08/21 25,5 13,0 0,3 0,54 0 185,3
29/08/21 17,6 8,0 0,4 0,74 0 191,4
28/08/21 24,5 16,0 0,0 0,52 1 184,1
27/08/21 22,8 13,0 0,8 0,51 0 136,0
26/08/21 21,6 9,0 0,3 0,61 0 100,7
25/08/21 26,9 9,0 0,0 0,41 2 107,6
24/08/21 26,0 12,0 0,0 0,44 1 81,1
23/08/21 23,6 12,0 2,0 0,62 0 65,8
22/08/21 25,3 8,0 2,7 0,62 0 62,3
21/08/21 28,7 5,0 5,2 0,49 0 59,2
20/08/21 25,6 9,0 0,0 0,61 1 104,7
19/08/21 19,8 9,0 0,3 0,71 0 124,3
18/08/21 21,6 10,0 0,6 0,66 0 144,3
17/08/21 17,4 10,0 3,8 0,73 0 172,1
16/08/21 18,9 9,0 1,9 0,60 0 215,8
15/08/21 30,0 11,0 0,0 0,45 5 213,0
14/08/21 28,2 10,0 0,0 0,43 4 196,8
13/08/21 25,6 10,0 0,0 0,51 3 152,3
12/08/21 29,8 9,0 0,0 0,47 2 119,2
11/08/21 28,8 9,0 0,0 0,42 1 78,3
10/08/21 24,2 11,0 1,1 0,61 0 88,0
09/08/21 24,1 14,0 0,0 0,57 1 101,3
08/08/21 23,4 16,0 1,9 0,52 0 103,4
07/08/21 26,5 12,0 9,9 0,45 0 122,5
06/08/21 25,7 17,0 1,6 0,52 0 134,2
05/08/21 29,6 8,0 0,0 0,41 1 108,3
04/08/21 27,9 6,0 1,0 0,44 0 68,3
03/08/21 24,3 6,0 0,0 0,53 1 44,1
02/08/21 24,8 8,0 0,6 0,48 0 68,8
01/08/21 22,7 9,0 1,6 0,60 0 9,9
31/07/21 23,9 13,0 3,3 0,57 0 16,5
30/07/21 26,1 15,0 2,2 0,51 0 24,8
29/07/21 24,7 14,0 2,2 0,45 0 23,9
28/07/21 24,0 16,0 0,4 0,55 0 83,1
27/07/21 24,5 10,0 13,5 0,69 0 64,1
26/07/21 25,9 12,0 1,7 0,65 0 116,4
25/07/21 30,9 8,0 2,2 0,47 0 157,4
24/07/21 22,6 11,0 8,5 0,67 0 181,3
23/07/21 27,8 10,0 0,0 0,46 7 241,2
22/07/21 22,4 6,0 0,0 0,46 6 269,5
21/07/21 30,8 8,0 0,0 0,37 5 268,5
20/07/21 28,2 8,0 0,0 0,41 4 205,3
19/07/21 27,8 9,0 0,0 0,46 3 168,3
18/07/21 32,0 11,0 0,0 0,43 2 131,1
17/07/21 30,2 14,0 0,0 0,42 1 112,7
16/07/21 23,9 8,0 0,4 0,63 0 92,5
15/07/21 18,6 10,0 60,2 0,75 0 45,7
14/07/21 20,0 9,0 2,4 0,74 0 91,1
13/07/21 22,2 10,0 5,2 0,73 0 117,8
12/07/21 30,1 9,0 0,0 0,45 2 153,2
11/07/21 29,2 7,0 0,0 0,42 1 207,8
10/07/21 27,6 10,0 5,3 0,47 0 122,1
09/07/21 28,2 10,0 0,0 0,43 3 112,0
08/07/21 29,0 6,0 0,0 0,43 2 67,6
07/07/21 26,6 11,0 0,0 0,50 1 59,1
06/07/21 24,8 20,0 0,4 0,48 0 89,9
05/07/21 23,5 7,0 5,1 0,61 0 25,1
04/07/21 25,6 12,0 4,1 0,63 0 65,5
03/07/21 28,2 6,0 2,2 0,50 0 77,7
02/07/21 27,2 6,0 0,0 0,54 1 52,0
01/07/21 16,7 5,0 0,4 0,73 0 65,3
30/06/21 17,5 6,0 7,1 0,74 0 62,3
29/06/21 28,3 9,0 0,0 0,55 1 79,9
28/06/21 29,3 4,0 0,5 0,53 0 84,6
27/06/21 32,5 10,0 9,4 0,42 0 119,7
26/06/21 30,1 6,0 0,0 0,43 1 70,3
25/06/21 21,5 11,0 1,4 0,61 0 51,2
24/06/21 23,6 7,0 0,0 0,54 2 42,2
23/06/21 21,4 9,0 0,0 0,53 1 22,5
22/06/21 22,4 11,0 1,0 0,47 0 120,1
21/06/21 20,2 11,0 10,5 0,72 0 160,3
20/06/21 28,6 11,0 3,6 0,48 0 229,6
19/06/21 25,8 10,0 1,9 0,60 0 289,9
18/06/21 36,3 14,0 28,6 0,36 0 355,3
17/06/21 35,5 12,0 0,0 0,36 13 372,6
16/06/21 36,1 8,0 0,0 0,30 12 316,5
15/06/21 29,5 10,0 0,0 0,37 11 303,4
14/06/21 33,9 9,0 0,0 0,27 10 292,0
13/06/21 29,2 8,0 0,0 0,34 9 277,3
12/06/21 26,0 10,0 0,0 0,40 8 280,6
11/06/21 30,2 7,0 0,0 0,44 7 281,0
10/06/21 32,0 8,0 0,0 0,28 6 260,1
09/06/21 30,5 7,0 0,0 0,32 5 190,8
08/06/21 31,0 9,0 0,0 0,31 4 193,8
07/06/21 28,8 9,0 0,0 0,34 3 237,8
06/06/21 27,3 9,0 0,0 0,36 2 244,0
05/06/21 22,0 7,0 0,0 0,63 1 275,3
04/06/21 31,6 8,0 9,1 0,40 0 321,4
03/06/21 29,6 11,0 0,0 0,50 6 356,5
02/06/21 34,0 12,0 0,0 0,21 5 341,2
01/06/21 31,1 8,0 0,0 0,25 4 247,9
31/05/21 28,9 11,0 0,0 0,31 3 192,8
30/05/21 27,2 9,0 0,0 0,29 2 131,5
29/05/21 24,7 12,0 0,0 0,41 1 84,5
28/05/21 23,2 9,0 0,3 0,39 0 80,1
27/05/21 14,4 8,0 0,0 0,68 1 9,4
26/05/21 18,8 11,0 1,9 0,54 0 11,0
25/05/21 16,9 12,0 3,1 0,60 0 37,5
24/05/21 18,9 13,0 8,3 0,53 0 37,1
23/05/21 18,7 16,0 0,3 0,41 0 68,9
22/05/21 15,6 19,0 10,2 0,56 0 38,1
21/05/21 18,8 21,0 2,8 0,42 0 54,6
20/05/21 19,2 12,0 0,0 0,47 1 29,2
19/05/21 17,8 14,0 2,7 0,59 0 34,0
18/05/21 20,2 8,0 1,1 0,44 0 33,0
17/05/21 17,2 11,0 4,1 0,60 0 69,6
16/05/21 18,5 13,0 7,2 0,50 0 82,5
15/05/21 15,6 11,0 6,0 0,66 0 77,7
14/05/21 21,7 8,0 0,0 0,46 1 74,3
13/05/21 25,0 8,0 1,4 0,35 0 67,4
12/05/21 22,1 13,0 0,8 0,44 0 51,0
11/05/21 21,9 5,0 0,0 0,53 1 13,3
10/05/21 24,2 18,0 1,5 0,40 0 32,5
09/05/21 27,8 16,0 1,7 0,42 0 34,6
08/05/21 19,3 19,0 1,4 0,51 0 62,1
07/05/21 16,4 11,0 1,8 0,40 0 73,2
06/05/21 14,7 8,0 1,7 0,46 0 85,5
05/05/21 13,3 12,0 5,8 0,48 0 92,6
04/05/21 14,4 23,0 5,2 0,48 0 99,3
03/05/21 18,2 15,0 0,0 0,34 3 145,9
02/05/21 15,2 10,0 0,0 0,43 2 137,5
01/05/21 16,2 8,0 0,0 0,41 1 152,8
30/04/21 13,9 7,0 0,5 0,64 0 162,0
29/04/21 12,1 9,0 2,8 0,50 0 199,6
28/04/21 22,6 15,0 0,0 0,31 9 234,9
27/04/21 21,2 9,0 0,0 0,25 8 203,4
26/04/21 18,6 12,0 0,0 0,30 7 203,2
25/04/21 16,6 12,0 0,0 0,39 6 183,6
24/04/21 18,5 14,0 0,0 0,34 5 164,7
23/04/21 19,0 12,0 0,0 0,38 4 146,7
22/04/21 17,1 11,0 0,0 0,39 3 141,9
21/04/21 18,5 16,0 0,0 0,49 2 148,8
20/04/21 21,1 6,0 0,0 0,42 1 131,5
19/04/21 14,8 8,0 0,5 0,64 0 144,0
18/04/21 19,6 8,0 0,0 0,39 6 160,9
17/04/21 16,8 12,0 0,0 0,37 5 137,7
16/04/21 16,7 13,0 0,0 0,31 4 126,4
15/04/21 13,9 10,0 0,0 0,42 3 72,8
14/04/21 14,6 15,0 0,0 0,38 2 81,3
13/04/21 14,6 10,0 0,0 0,38 1 73,8
12/04/21 11,9 13,0 1,1 0,47 0 37,5
11/04/21 10,8 15,0 0,8 0,52 0 70,9
10/04/21 9,6 11,0 13,3 0,65 0 55,3
09/04/21 16,6 13,0 0,0 0,43 1 62,0
08/04/21 13,4 13,0 0,3 0,39 0 59,6
07/04/21 7,7 13,0 11,6 0,62 0 52,9
06/04/21 6,9 11,0 7,1 0,73 0 94,2
05/04/21 8,4 20,0 1,9 0,44 0 156,2
04/04/21 10,2 9,0 0,0 0,61 8 200,6
03/04/21 15,8 13,0 0,0 0,43 7 255,3
02/04/21 10,1 14,0 0,0 0,59 6 268,2
01/04/21 20,0 17,0 0,0 0,46 5 253,1
31/03/21 29,8 8,0 0,0 0,23 4 209,2
30/03/21 28,6 8,0 0,0 0,22 3 175,4
29/03/21 24,3 14,0 0,0 0,24 2 158,7
28/03/21 15,9 22,0 0,0 0,49 1 109,7
27/03/21 11,9 17,0 3,6 0,47 0 86,8
26/03/21 17,1 18,0 2,3 0,44 0 106,3
25/03/21 16,2 10,0 0,0 0,49 4 102,4
24/03/21 19,7 12,0 0,0 0,40 3 109,3
23/03/21 16,8 9,0 0,0 0,52 2 75,4
22/03/21 9,8 7,0 0,0 0,64 1 66,8
21/03/21 10,0 13,0 0,3 0,61 0 50,8
20/03/21 14,2 6,0 0,0 0,40 2 40,3
19/03/21 13,4 15,0 0,0 0,42 1 27,7
18/03/21 10,1 9,0 1,4 0,75 0 2,8
17/03/21 9,5 13,0 0,3 0,71 0 8,9
16/03/21 8,3 6,0 7,4 0,77 0 1,0
15/03/21 10,6 13,0 4,1 0,61 0 6,5
14/03/21 11,6 10,0 6,1 0,60 0 3,6
13/03/21 11,9 22,0 6,4 0,56 0 19,9
12/03/21 9,5 20,0 4,1 0,71 0 32,7
11/03/21 15,2 28,4 1,4 0,52 0 64,4
10/03/21 11,4 19,5 2,8 0,56 0 75,3
09/03/21 10,2 9,6 2,5 0,68 0 71,7
08/03/21 14,3 6,0 0,0 0,44 4 86,5
07/03/21 11,8 10,2 0,0 0,47 3 88,3
06/03/21 12,1 9,5 0,0 0,44 2 82,2
05/03/21 11,4 12,7 0,0 0,33 1 80,5
04/03/21 5,6 9,5 0,8 0,76 0 61,8
03/03/21 19,2 6,7 0,0 0,51 6 84,2
02/03/21 20,0 5,0 0,0 0,41 5 68,6
01/03/21 12,8 9,0 0,0 0,63 4 102,7
28/02/21 14,2 10,8 0,0 0,59 3 138,4
27/02/21 11,9 5,5 0,0 0,66 2 144,7
26/02/21 15,1 11,3 0,0 0,47 1 169,6
25/02/21 19,5 8,5 3,8 0,51 0 182,6
24/02/21 22,3 15,4 0,0 0,41 6 190,8
23/02/21 20,8 19,4 0,0 0,51 5 129,4
22/02/21 18,4 9,3 0,0 0,45 4 96,2
21/02/21 21,6 10,8 0,0 0,44 3 73,6
20/02/21 19,3 11,0 0,0 0,49 2 41,5
19/02/21 12,3 13,1 0,0 0,69 1 36,9
18/02/21 14,3 12,2 5,8 0,58 0 35,3
17/02/21 14,2 14,4 0,0 0,69 1 36,1
16/02/21 12,1 12,1 2,4 0,70 0 25,7
15/02/21 5,3 13,5 1,9 0,51 0 31,2
14/02/21 7,6 7,9 0,0 0,40 1 31,4
13/02/21 3,2 6,9 0,4 0,49 0 23,5
12/02/21 1,1 10,6 0,0 0,62 1 22,3
11/02/21 4,3 6,5 4,3 0,59 0 23,7
10/02/21 2,8 10,2 0,6 0,69 0 26,0
09/02/21 1,6 11,9 1,0 0,69 0 26,7
08/02/21 -3,1 14,2 0,0 0,78 2 18,2
07/02/21 -0,4 15,0 0,0 0,82 1 19,7
06/02/21 7,1 13,8 0,9 0,80 0 16,7
05/02/21 12,1 7,0 0,0 0,77 1 16,2
04/02/21 9,9 9,7 0,5 0,77 0 16,7
03/02/21 9,8 11,8 9,4 0,79 0 7,3
02/02/21 10,5 8,0 11,3 0,79 0 12,7
01/02/21 4,0 3,7 0,8 0,81 0 11,3
31/01/21 6,2 6,4 0,3 0,66 0 10,1
30/01/21 6,6 11,4 0,4 0,73 0 6,0
29/01/21 10,5 14,5 9,8 0,78 0 2,7
28/01/21 8,5 5,9 15,4 0,81 0 0,8
27/01/21 6,7 12,0 2,3 0,76 0 2,8
26/01/21 9,6 9,1 1,7 0,64 0 3,9
25/01/21 8,4 9,6 1,4 0,72 0 20,3
24/01/21 6,3 8,4 5,7 0,75 0 1,3
23/01/21 6,0 9,2 5,6 0,80 0 5,8
22/01/21 8,6 9,7 2,4 0,75 0 7,4
21/01/21 12,2 25,6 8,0 0,66 0 17,3
20/01/21 10,6 18,9 0,0 0,64 1 29,9
19/01/21 10,5 21,1 12,1 0,78 0 18,2
18/01/21 6,6 11,5 0,0 0,79 1 19,3
17/01/21 8,8 5,9 4,2 0,77 0 11,1
16/01/21 2,6 10,3 0,0 0,71 2 11,6
15/01/21 2,6 7,5 0,0 0,78 1 10,8
14/01/21 4,5 6,8 0,3 0,76 0 9,6
13/01/21 7,8 8,0 0,5 0,76 0 8,7
12/01/21 8,4 15,3 15,4 0,71 0 10,1
11/01/21 6,6 15,0 2,5 0,80 0 12,7
10/01/21 8,1 7,7 0,3 0,72 0 13,1
09/01/21 7,5 5,1 0,3 0,79 0 8,4
08/01/21 4,8 5,9 8,0 0,80 0 10,9
07/01/21 4,3 5,5 5,2 0,81 0 12,9
06/01/21 3,8 9,1 0,0 0,80 1 15,5
05/01/21 3,6 10,4 0,9 0,80 0 13,4
04/01/21 4,0 13,3 1,3 0,80 0 12,3
03/01/21 4,2 10,7 0,0 0,77 1 11,2
02/01/21 4,9 6,3 0,4 0,81 0 8,3
01/01/21 6,4 6,0 0,8 0,81 0 4,0
31/12/20 5,6 5,3 0,0 0,81 1 2,8
30/12/20 6,2 8,4 2,5 0,81 0 5,7
29/12/20 5,3 10,0 1,6 0,81 0 14,3
28/12/20 5,2 6,5 1,0 0,81 0 6,4
27/12/20 6,0 21,8 10,2 0,81 0 15,2
26/12/20 5,8 19,2 1,1 0,80 0 7,7
25/12/20 8,2 7,4 0,0 0,74 1 12,4
24/12/20 9,3 17,1 5,0 0,79 0 25,7
23/12/20 12,5 11,0 8,5 0,78 0 29,6
22/12/20 13,5 17,8 7,1 0,78 0 31,3
21/12/20 12,5 13,0 9,1 0,80 0 33,7
20/12/20 11,4 11,7 0,0 0,77 1 32,2
19/12/20 12,2 14,2 0,3 0,75 0 24,0
18/12/20 13,2 12,2 0,3 0,73 0 19,7
17/12/20 12,0 14,3 1,9 0,75 0 14,7
16/12/20 10,6 7,3 0,6 0,79 0 9,7
15/12/20 10,7 7,1 1,7 0,80 0 9,2
14/12/20 11,4 10,8 5,2 0,78 0 11,4
13/12/20 9,5 11,7 0,3 0,79 0 10,1
12/12/20 9,7 5,7 1,6 0,81 0 8,4
11/12/20 5,2 7,0 2,2 0,81 0 10,0
10/12/20 5,0 4,1 0,0 0,79 3 17,4
09/12/20 3,3 7,2 0,0 0,83 2 28,0
08/12/20 5,4 2,6 0,0 0,81 1 28,6
07/12/20 4,0 9,5 0,6 0,82 0 29,3
06/12/20 4,4 5,7 0,0 0,81 5 28,9
05/12/20 7,1 10,6 0,0 0,74 4 26,1
04/12/20 8,6 16,3 0,0 0,64 3 21,4
03/12/20 6,6 9,4 0,0 0,81 2 11,8
02/12/20 7,6 6,3 0,0 0,80 1 11,2
01/12/20 10,0 11,7 8,3 0,76 0 12,1
30/11/20 7,2 12,4 3,3 0,82 0 19,1
29/11/20 4,4 5,5 0,0 0,80 2 25,0
28/11/20 9,6 7,5 0,0 0,75 1 27,1
27/11/20 8,5 2,9 0,5 0,80 0 21,7
26/11/20 10,0 4,5 0,5 0,80 0 30,5
25/11/20 11,3 9,4 0,0 0,72 2 35,7
24/11/20 12,3 8,6 0,0 0,75 1 27,7
23/11/20 13,0 5,4 0,4 0,69 0 43,9
22/11/20 11,3 11,2 1,4 0,80 0 50,8
21/11/20 10,5 16,0 0,0 0,75 1 62,0
20/11/20 12,0 5,5 0,3 0,65 0 50,9
19/11/20 14,1 12,8 2,7 0,71 0 51,4
18/11/20 18,1 13,1 0,0 0,57 1 51,6
17/11/20 13,4 13,3 0,3 0,78 0 27,3
16/11/20 12,4 17,6 0,5 0,74 0 22,7
15/11/20 16,0 19,5 3,9 0,71 0 27,3
14/11/20 16,2 10,8 1,4 0,74 0 30,0
13/11/20 13,4 8,0 0,8 0,79 0 26,7
12/11/20 14,7 12,2 1,9 0,73 0 32,1
11/11/20 13,7 6,4 0,0 0,78 2 35,4
10/11/20 20,4 5,2 0,0 0,70 1 35,5
09/11/20 20,1 5,4 0,3 0,69 0 34,3
08/11/20 13,6 2,6 0,0 0,78 4 57,0
07/11/20 17,8 3,3 0,0 0,62 3 54,3
06/11/20 15,8 3,7 0,0 0,49 2 48,2
05/11/20 16,1 4,2 0,0 0,64 1 40,4
04/11/20 16,0 5,0 0,4 0,60 0 45,0
03/11/20 15,7 17,4 1,0 0,57 0 37,8
02/11/20 20,6 21,2 3,6 0,66 0 28,6
01/11/20 17,8 14,9 4,7 0,77 0 18,1
31/10/20 19,0 11,1 1,9 0,60 0 39,1
30/10/20 16,4 13,0 0,9 0,77 0 29,3
29/10/20 13,1 12,4 4,7 0,77 0 36,8
28/10/20 14,6 15,1 8,8 0,73 0 50,8
27/10/20 12,3 13,2 2,5 0,74 0 70,7
26/10/20 15,6 14,3 0,3 0,64 0 46,3
25/10/20 16,0 17,1 3,6 0,73 0 43,0
24/10/20 16,4 14,8 0,3 0,74 0 45,7
23/10/20 20,2 9,7 0,0 0,70 2 38,0
22/10/20 20,0 11,6 0,0 0,64 1 47,2
21/10/20 21,6 23,3 6,9 0,61 0 52,6
20/10/20 15,0 8,7 0,0 0,78 1 49,2
19/10/20 17,0 6,7 0,6 0,57 0 53,1
18/10/20 12,9 7,1 0,0 0,78 6 55,1
17/10/20 14,4 3,9 0,0 0,65 5 53,1
16/10/20 12,8 9,4 0,0 0,63 4 47,6
15/10/20 13,8 10,1 0,0 0,65 3 36,4
14/10/20 13,8 10,7 0,0 0,66 2 24,2
13/10/20 15,8 5,7 0,0 0,65 1 11,8
12/10/20 16,6 4,0 0,3 0,76 0 3,6
11/10/20 16,6 7,2 2,4 0,69 0 4,2
10/10/20 15,4 13,7 4,2 0,67 0 7,9
09/10/20 18,5 7,7 1,1 0,65 0 31,7
08/10/20 16,8 15,5 5,2 0,79 0 4,1
07/10/20 17,1 9,9 4,6 0,70 0 13,1
06/10/20 18,6 14,7 4,4 0,63 0 11,6
05/10/20 15,8 12,1 2,8 0,77 0 5,0
04/10/20 17,1 16,3 0,5 0,59 0 26,0
03/10/20 15,0 7,7 6,0 0,82 0 1,6
02/10/20 16,0 8,8 0,9 0,77 0 7,3
01/10/20 15,3 10,4 7,4 0,83 0 2,0
30/09/20 20,4 7,8 2,0 0,73 0 5,0
29/09/20 23,3 6,7 2,4 0,48 0 9,9
28/09/20 13,6 5,6 4,2 0,84 0 1,4
27/09/20 15,8 15,0 8,5 0,77 0 28,9
26/09/20 19,8 11,4 5,2 0,52 0 61,4
25/09/20 17,1 14,9 16,5 0,61 0 112,7
24/09/20 21,4 16,2 3,3 0,48 0 156,2
23/09/20 24,8 15,0 8,3 0,51 0 184,6
22/09/20 28,0 4,9 0,0 0,33 13 227,2
21/09/20 29,0 5,2 0,0 0,32 12 262,7
20/09/20 27,7 10,2 0,0 0,31 11 286,7
19/09/20 28,4 5,8 0,0 0,34 10 268,0
18/09/20 25,7 8,6 0,0 0,39 9 276,4
17/09/20 23,3 12,5 0,0 0,37 8 265,8
16/09/20 27,8 16,1 0,0 0,49 7 242,1
15/09/20 36,5 5,9 0,0 0,26 6 207,5
14/09/20 34,2 4,8 0,0 0,33 5 181,8
13/09/20 29,2 8,6 0,0 0,44 4 154,4
12/09/20 23,5 9,4 0,0 0,54 3 150,9
11/09/20 25,8 6,1 0,0 0,45 2 151,4
10/09/20 25,6 6,8 0,0 0,38 1 151,6
09/09/20 26,6 8,2 0,3 0,50 0 153,6
08/09/20 19,7 7,4 0,0 0,76 3 128,1
07/09/20 26,2 9,1 0,0 0,41 2 145,1
06/09/20 23,5 8,2 0,0 0,44 1 140,0
05/09/20 23,3 7,9 0,3 0,48 0 149,3
04/09/20 24,8 10,0 0,6 0,51 0 150,1
03/09/20 24,2 12,6 2,2 0,63 0 161,4
02/09/20 27,3 5,9 0,0 0,39 3 150,3
01/09/20 24,8 9,6 0,0 0,46 2 147,7
31/08/20 24,7 10,6 0,0 0,44 1 114,3
30/08/20 20,9 16,4 0,8 0,70 0 115,8
29/08/20 22,8 11,4 0,4 0,56 0 135,1
28/08/20 24,8 14,4 3,8 0,50 0 166,4
27/08/20 24,8 8,5 0,3 0,54 0 143,9
26/08/20 19,4 22,8 1,9 0,64 0 268,5
25/08/20 22,6 18,0 0,4 0,60 0 284,2
24/08/20 25,6 12,3 0,4 0,46 0 316,0
23/08/20 24,2 13,2 0,9 0,54 0 320,7
22/08/20 26,6 16,8 1,1 0,48 0 372,5
21/08/20 33,2 19,2 0,0 0,33 2 344,1
20/08/20 31,4 7,9 0,0 0,53 1 212,5
19/08/20 32,9 11,7 0,3 0,39 0 231,7
18/08/20 29,0 10,4 0,0 0,42 1 228,8
17/08/20 31,4 10,9 0,3 0,42 0 226,0
16/08/20 34,8 13,6 1,4 0,42 0 280,1
15/08/20 31,1 10,0 1,6 0,51 0 319,1
14/08/20 31,2 12,2 0,0 0,51 3 363,5
13/08/20 32,2 11,7 0,0 0,40 2 410,2
12/08/20 33,3 7,1 0,0 0,36 1 396,6
11/08/20 34,0 9,6 0,5 0,33 0 405,0
10/08/20 33,4 8,7 0,0 0,32 9 417,8
09/08/20 34,4 8,0 0,0 0,27 8 384,5
08/08/20 36,2 10,9 0,0 0,22 7 361,0
07/08/20 34,5 6,6 0,0 0,24 6 286,3
06/08/20 32,1 7,7 0,0 0,24 5 262,4
05/08/20 30,3 11,0 0,0 0,24 4 273,8
04/08/20 25,6 6,6 0,0 0,34 3 249,3
03/08/20 25,1 10,2 0,0 0,37 2 252,9
02/08/20 24,4 8,0 0,0 0,42 1 252,8
01/08/20 27,6 8,0 0,9 0,46 0 250,1
31/07/20 38,8 6,5 0,0 0,24 4 222,2
30/07/20 31,8 7,6 0,0 0,32 3 153,0
29/07/20 26,3 8,1 0,0 0,40 2 130,9
28/07/20 25,0 11,4 0,0 0,42 1 154,3
27/07/20 27,9 6,8 0,8 0,48 0 142,0
26/07/20 26,0 12,5 1,9 0,45 0 181,9
25/07/20 24,1 12,6 2,8 0,67 0 220,8
24/07/20 25,5 9,8 0,0 0,57 8 256,9
23/07/20 30,5 10,0 0,0 0,34 7 270,3
22/07/20 25,2 7,7 0,0 0,38 6 230,4
21/07/20 26,2 10,3 0,0 0,38 5 198,8
20/07/20 25,2 12,7 0,0 0,39 4 186,4
19/07/20 29,4 8,7 0,0 0,43 3 135,9
18/07/20 31,4 8,0 0,0 0,43 2 133,1
17/07/20 26,8 6,0 0,0 0,56 1 129,2
16/07/20 19,7 7,3 3,8 0,72 0 136,9
15/07/20 26,6 8,2 0,0 0,44 1 133,2
14/07/20 20,8 7,5 2,3 0,64 0 106,9
13/07/20 29,6 6,9 0,0 0,32 2 102,3
12/07/20 26,3 9,2 0,0 0,38 1 94,8
11/07/20 24,4 7,7 0,3 0,52 0 93,6
10/07/20 22,6 9,8 1,6 0,53 0 147,5
09/07/20 21,0 12,9 2,7 0,78 0 141,9
08/07/20 19,6 6,6 5,3 0,61 0 187,3
07/07/20 23,3 9,6 0,0 0,41 1 135,9
06/07/20 21,5 14,3 0,5 0,47 0 151,1
05/07/20 26,2 17,4 0,9 0,46 0 63,8
04/07/20 19,6 15,1 4,6 0,66 0 60,8
03/07/20 26,3 12,7 0,0 0,44 1 150,9
02/07/20 25,4 11,1 6,6 0,50 0 113,4
01/07/20 23,6 12,6 18,4 0,58 0 111,6
30/06/20 23,0 20,5 6,1 0,53 0 168,3
29/06/20 21,2 16,3 0,0 0,40 1 224,8
28/06/20 23,0 14,8 0,3 0,37 0 215,7
27/06/20 25,6 14,9 2,8 0,48 0 218,1
26/06/20 33,8 16,2 45,3 0,31 0 292,5
25/06/20 32,2 7,6 0,0 0,33 7 290,7
24/06/20 35,0 9,1 0,0 0,28 6 281,1
23/06/20 32,4 6,3 0,0 0,33 5 206,6
22/06/20 27,9 6,3 0,0 0,38 4 164,6
21/06/20 29,2 12,5 0,0 0,40 3 134,3
20/06/20 26,2 8,0 0,0 0,44 2 97,5
19/06/20 26,5 10,8 0,0 0,46 1 66,1
18/06/20 28,8 9,1 3,9 0,42 0 45,6
17/06/20 28,9 13,6 25,8 0,43 0 45,3
16/06/20 27,6 8,9 22,5 0,48 0 53,1
15/06/20 28,5 5,8 0,0 0,45 1 56,5
14/06/20 22,4 6,9 1,6 0,59 0 67,4
13/06/20 30,0 6,8 1,4 0,41 0 97,4
12/06/20 30,9 11,0 12,2 0,34 0 102,0
11/06/20 22,2 7,2 0,0 0,56 3 83,5
10/06/20 20,0 6,6 0,0 0,55 2 65,5
09/06/20 21,1 11,4 0,0 0,49 1 50,7
08/06/20 20,6 9,7 0,5 0,56 0 58,6
07/06/20 20,9 12,7 2,8 0,46 0 116,1
06/06/20 19,4 16,6 2,2 0,37 0 186,5
05/06/20 15,2 11,5 8,5 0,64 0 234,9
04/06/20 17,4 9,9 1,9 0,65 0 297,5
03/06/20 27,2 8,5 0,0 0,38 10 357,2
02/06/20 33,3 8,0 0,0 0,25 9 387,8
01/06/20 30,6 9,7 0,0 0,25 8 389,8
31/05/20 26,5 13,7 0,0 0,29 7 380,7
30/05/20 28,8 10,2 0,0 0,25 6 354,7
29/05/20 27,4 10,5 0,0 0,26 5 293,2
28/05/20 26,0 14,6 0,0 0,29 4 281,3
27/05/20 26,5 14,1 0,0 0,34 3 210,8
26/05/20 29,1 9,9 0,0 0,30 2 192,3
25/05/20 26,0 10,3 0,0 0,39 1 172,7
24/05/20 15,9 13,5 1,6 0,59 0 176,6
23/05/20 20,1 14,1 0,0 0,31 1 217,7
22/05/20 27,0 13,4 1,4 0,37 0 238,6
21/05/20 28,9 8,4 0,0 0,30 10 247,0
20/05/20 25,7 9,1 0,0 0,38 9 227,9
19/05/20 24,7 8,9 0,0 0,33 8 228,8
18/05/20 27,3 9,1 0,0 0,24 7 225,0
17/05/20 23,7 9,6 0,0 0,33 6 189,1
16/05/20 20,3 9,8 0,0 0,39 5 208,0
15/05/20 19,7 9,6 0,0 0,35 4 245,6
14/05/20 18,7 13,0 0,0 0,30 3 285,0
13/05/20 16,3 15,4 0,0 0,40 2 294,2
12/05/20 16,0 7,2 0,0 0,42 1 299,4
11/05/20 15,8 23,6 0,3 0,32 0 324,6
10/05/20 26,1 18,4 0,8 0,46 0 308,0
09/05/20 29,9 10,5 0,0 0,22 7 292,2
08/05/20 28,0 8,5 0,0 0,23 6 246,0
07/05/20 26,7 7,6 0,0 0,24 5 171,9
06/05/20 23,4 9,6 0,0 0,25 4 130,5
05/05/20 19,9 12,8 0,0 0,31 3 138,0
04/05/20 22,0 12,9 0,0 0,35 2 126,2
03/05/20 21,0 7,6 0,0 0,37 1 116,2
02/05/20 18,0 13,9 5,8 0,49 0 144,8
01/05/20 16,4 15,5 1,6 0,56 0 172,6
30/04/20 20,6 15,6 0,5 0,34 0 177,9
29/04/20 21,2 11,3 0,0 0,47 11 183,2
28/04/20 15,1 9,3 0,0 0,64 10 192,9
27/04/20 23,7 9,7 0,0 0,23 9 229,8
26/04/20 18,9 8,4 0,0 0,32 8 234,8
25/04/20 15,3 8,5 0,0 0,39 7 257,9
24/04/20 23,2 10,8 0,0 0,28 6 272,3
23/04/20 26,2 7,6 0,0 0,21 5 245,1
22/04/20 22,5 11,8 0,0 0,23 4 237,4
21/04/20 20,0 14,2 0,0 0,25 3 229,3
20/04/20 20,8 12,8 0,0 0,22 2 200,1
19/04/20 17,9 11,5 0,0 0,29 1 165,4
18/04/20 18,2 8,6 0,3 0,50 0 172,0
17/04/20 18,8 12,1 0,0 0,35 11 200,7
16/04/20 23,8 9,1 0,0 0,21 10 193,2
15/04/20 18,1 7,2 0,0 0,28 9 187,2
14/04/20 10,7 10,6 0,0 0,44 8 204,4
13/04/20 14,4 18,7 0,0 0,33 7 219,7
12/04/20 25,5 7,7 0,0 0,29 6 212,8
11/04/20 21,7 7,0 0,0 0,24 5 237,3
10/04/20 21,0 11,4 0,0 0,34 4 253,9
09/04/20 20,9 12,0 0,0 0,33 3 242,4
08/04/20 26,2 6,2 0,0 0,25 2 220,9
07/04/20 21,8 9,9 0,0 0,32 1 203,6
06/04/20 24,6 13,2 0,4 0,25 0 186,9
05/04/20 22,7 10,4 0,0 0,21 16 173,6
04/04/20 20,8 7,7 0,0 0,29 15 148,7
03/04/20 14,2 9,4 0,0 0,37 14 172,3
02/04/20 13,3 10,2 0,0 0,51 13 203,0
01/04/20 16,1 8,3 0,0 0,36 12 223,9
31/03/20 14,3 13,4 0,0 0,27 11 246,4
30/03/20 13,2 13,8 0,0 0,49 10 243,8
29/03/20 12,1 27,6 0,0 0,34 9 243,5
28/03/20 17,3 19,0 0,0 0,32 8 214,6
27/03/20 18,4 13,1 0,0 0,33 7 183,5
26/03/20 15,6 16,2 0,0 0,25 6 166,5
25/03/20 16,2 10,4 0,0 0,21 5 122,6
24/03/20 19,4 5,9 0,0 0,17 4 105,7
23/03/20 13,4 10,2 0,0 0,25 3 112,3
22/03/20 13,2 10,4 0,0 0,34 2 118,7
21/03/20 13,1 12,3 0,0 0,43 1 104,6
20/03/20 10,2 14,4 2,2 0,60 0 104,2
19/03/20 16,8 11,4 0,0 0,67 5 120,0
18/03/20 18,4 14,0 0,0 0,50 4 120,6
17/03/20 17,5 12,3 0,0 0,37 3 90,0
16/03/20 15,2 6,2 0,0 0,64 2 58,1
15/03/20 13,0 15,7 0,0 0,69 1 49,4
14/03/20 14,3 12,5 0,3 0,56 0 46,2
13/03/20 12,2 15,2 0,5 0,63 0 28,3
12/03/20 12,8 20,3 3,9 0,44 0 47,2
11/03/20 15,3 16,1 9,3 0,75 0 35,1
10/03/20 13,0 18,9 18,3 0,84 0 33,4
09/03/20 12,4 13,4 1,0 0,68 0 30,4
08/03/20 10,0 17,9 1,9 0,77 0 37,8
07/03/20 13,2 12,7 0,0 0,53 1 19,1
06/03/20 10,0 10,4 3,6 0,74 0 24,1
05/03/20 7,3 8,0 16,0 0,86 0 21,6
04/03/20 12,0 10,2 2,0 0,60 0 26,5
03/03/20 11,7 13,7 0,0 0,61 1 38,7
02/03/20 8,8 8,0 11,7 0,80 0 22,0
01/03/20 11,2 19,1 0,0 0,59 1 25,6
29/02/20 13,2 22,1 2,3 0,61 0 13,1
28/02/20 8,0 17,0 7,2 0,70 0 7,4
27/02/20 3,6 10,8 0,0 0,87 1 7,0
26/02/20 10,7 10,1 17,4 0,77 0 17,6
25/02/20 10,7 11,3 0,0 0,87 1 4,8
24/02/20 11,6 22,7 5,2 0,77 0 16,6
23/02/20 12,4 23,8 23,4 0,73 0 18,0
22/02/20 11,0 19,9 2,2 0,66 0 20,7
21/02/20 9,6 16,5 0,0 0,70 1 12,8
20/02/20 10,8 19,4 6,1 0,72 0 24,2
19/02/20 10,0 17,9 8,5 0,61 0 35,0
18/02/20 10,3 16,7 1,4 0,69 0 26,0
17/02/20 12,0 19,3 1,7 0,61 0 44,7
16/02/20 17,2 33,9 11,1 0,67 0 48,8
15/02/20 13,6 21,7 0,0 0,71 1 35,2
14/02/20 11,4 11,3 0,5 0,68 0 24,4
13/02/20 10,8 14,1 8,0 0,78 0 26,8
12/02/20 9,3 14,9 0,3 0,58 0 32,9
11/02/20 8,1 16,5 1,4 0,61 0 27,8
10/02/20 11,5 28,5 6,6 0,59 0 37,5
09/02/20 12,8 34,8 8,3 0,71 0 36,9
08/02/20 11,6 13,4 0,5 0,74 0 27,0
07/02/20 12,2 7,2 0,3 0,57 0 17,5
06/02/20 9,4 5,2 0,0 0,79 2 10,7
05/02/20 12,0 7,3 0,0 0,70 1 15,4
04/02/20 7,7 10,5 4,5 0,76 0 10,9
03/02/20 11,8 13,6 3,6 0,72 0 21,9
02/02/20 12,4 13,4 4,1 0,78 0 12,5
01/02/20 12,6 18,7 2,0 0,71 0 24,5
31/01/20 12,5 17,9 0,3 0,84 0 24,6
30/01/20 11,6 19,2 2,8 0,79 0 22,7
29/01/20 8,5 12,5 0,3 0,70 0 18,2
28/01/20 7,9 19,9 7,1 0,71 0 15,6
27/01/20 10,0 18,2 6,9 0,85 0 14,4
26/01/20 12,2 12,2 0,3 0,77 0 12,9
25/01/20 3,1 5,5 0,0 0,89 1 7,3
24/01/20 3,1 6,2 0,3 0,89 0 13,5
23/01/20 8,2 4,5 0,0 0,84 1 21,2
22/01/20 5,2 5,1 0,3 0,92 0 29,7
21/01/20 1,9 5,3 0,4 0,91 0 36,7
20/01/20 6,6 5,8 0,0 0,88 1 37,0
19/01/20 9,5 12,2 0,3 0,72 0 49,2
18/01/20 9,4 10,7 0,3 0,69 0 51,0
17/01/20 10,3 17,7 0,0 0,75 1 51,7
16/01/20 12,3 11,2 0,5 0,76 0 46,0
15/01/20 12,1 22,5 2,5 0,69 0 41,7
14/01/20 12,4 24,1 5,0 0,79 0 31,9
13/01/20 10,4 17,1 0,0 0,77 1 18,4
12/01/20 9,9 17,0 0,3 0,82 0 12,4
11/01/20 7,6 13,9 0,0 0,78 1 20,3
10/01/20 11,3 12,3 5,5 0,84 0 17,6
09/01/20 13,0 19,0 2,5 0,87 0 23,5
08/01/20 12,7 13,8 1,3 0,86 0 22,6
07/01/20 8,4 15,0 0,0 0,85 1 23,2
06/01/20 9,7 10,7 0,9 0,69 0 18,3
05/01/20 7,7 8,3 0,0 0,83 1 14,5
04/01/20 8,6 10,2 0,5 0,83 0 25,4
03/01/20 10,3 14,3 2,8 0,87 0 26,4
02/01/20 7,2 12,0 0,0 0,90 4 29,3
01/01/20 3,4 5,9 0,0 0,88 3 28,5
31/12/19 8,3 4,7 0,0 0,70 2 26,4
30/12/19 10,0 12,7 0,0 0,52 1 22,4
29/12/19 5,0 6,3 0,4 0,77 0 6,4
28/12/19 6,2 4,1 0,3 0,85 0 3,9
27/12/19 7,9 7,5 0,3 0,83 0 2,7
26/12/19 6,0 6,8 3,8 0,87 0 8,5
25/12/19 9,6 8,0 1,7 0,85 0 9,1
24/12/19 11,3 14,5 2,5 0,81 0 20,6
23/12/19 9,2 10,6 1,7 0,85 0 23,7
22/12/19 9,4 9,6 9,6 0,85 0 23,0
21/12/19 9,5 16,1 0,3 0,80 0 24,3
20/12/19 12,8 15,1 1,7 0,72 0 20,4
19/12/19 15,4 9,8 0,3 0,73 0 16,7
18/12/19 10,6 10,2 0,3 0,81 0 4,9
17/12/19 16,0 18,1 1,1 0,67 0 10,8
16/12/19 8,5 8,1 1,0 0,86 0 2,5
15/12/19 9,8 18,0 5,6 0,73 0 13,5
14/12/19 7,8 19,5 5,7 0,73 0 3,7
13/12/19 6,8 12,3 9,9 0,88 0 1,0
12/12/19 7,4 15,2 1,7 0,81 0 10,4
11/12/19 7,7 15,4 3,7 0,75 0 4,0
10/12/19 7,4 17,9 0,3 0,74 0 11,7
09/12/19 8,4 22,9 7,1 0,79 0 7,3
08/12/19 11,4 23,6 1,7 0,74 0 13,2
07/12/19 10,1 15,0 0,0 0,80 1 15,0
06/12/19 9,3 20,2 7,9 0,90 0 9,6
05/12/19 3,7 15,1 0,4 0,91 0 9,8
04/12/19 9,6 3,9 0,3 0,83 0 12,2
03/12/19 6,8 6,1 0,0 0,90 1 7,1
02/12/19 9,8 5,0 0,8 0,86 0 9,4
01/12/19 3,6 6,9 0,4 0,87 0 12,8
30/11/19 9,9 3,4 0,3 0,79 0 16,1
29/11/19 10,8 6,1 0,0 0,71 1 19,6
28/11/19 10,2 17,3 11,3 0,88 0 18,7
27/11/19 12,3 19,0 8,5 0,82 0 28,9
26/11/19 12,0 10,6 1,0 0,83 0 27,4
25/11/19 13,8 6,8 0,3 0,78 0 26,1
24/11/19 12,9 6,6 0,0 0,78 2 23,3
23/11/19 8,5 6,3 0,0 0,79 1 18,0
22/11/19 13,4 10,1 0,6 0,72 0 18,1
21/11/19 5,3 5,7 0,0 0,83 1 12,4
20/11/19 9,6 6,2 0,3 0,75 0 13,4
19/11/19 9,3 7,8 1,1 0,78 0 15,2
18/11/19 7,5 7,5 6,6 0,88 0 10,3
17/11/19 9,6 7,3 0,0 0,77 1 10,7
16/11/19 7,3 5,3 0,3 0,82 0 5,7
15/11/19 6,4 11,4 0,0 0,83 1 9,1
14/11/19 8,1 8,1 0,3 0,80 0 7,9
13/11/19 10,6 11,5 9,9 0,84 0 11,9
12/11/19 9,4 15,2 2,2 0,73 0 9,2
11/11/19 8,2 15,3 8,0 0,79 0 11,3
10/11/19 13,3 3,8 0,3 0,62 0 9,0
09/11/19 11,6 14,5 1,1 0,72 0 10,1
08/11/19 14,0 6,2 0,3 0,70 0 10,5
07/11/19 10,7 12,3 5,7 0,85 0 6,2
06/11/19 14,2 4,6 0,6 0,69 0 4,6
05/11/19 12,1 7,8 2,7 0,83 0 12,0
04/11/19 14,2 10,0 2,0 0,82 0 17,7
03/11/19 13,6 9,5 8,3 0,77 0 31,1
02/11/19 16,3 18,9 5,2 0,65 0 50,5
01/11/19 13,2 8,5 4,3 0,80 0 44,9
31/10/19 13,4 6,9 0,0 0,52 4 92,8
30/10/19 11,6 5,1 0,0 0,67 3 102,6
29/10/19 14,7 9,6 0,0 0,56 2 129,4
28/10/19 17,1 8,9 0,0 0,61 1 123,1
27/10/19 17,6 18,6 2,8 0,62 0 132,1
26/10/19 22,3 18,4 0,0 0,53 3 111,6
25/10/19 18,6 13,6 0,0 0,64 2 66,9
24/10/19 22,3 15,1 0,0 0,60 1 42,2
23/10/19 19,6 6,4 0,5 0,70 0 8,7
22/10/19 17,2 9,5 0,0 0,75 1 10,3
21/10/19 16,3 11,3 5,2 0,79 0 2,9
20/10/19 13,3 7,5 0,6 0,88 0 10,6
19/10/19 15,8 10,2 6,6 0,78 0 2,7
18/10/19 16,2 21,0 1,9 0,62 0 22,5
17/10/19 19,5 9,8 1,1 0,67 0 26,1
16/10/19 14,7 12,6 7,6 0,84 0 21,0
15/10/19 17,6 8,9 0,6 0,78 0 18,7
14/10/19 23,3 6,6 5,2 0,71 0 31,7
13/10/19 25,4 17,5 5,5 0,58 0 53,1
12/10/19 17,0 13,4 0,3 0,79 0 37,2
11/10/19 16,4 15,7 1,1 0,76 0 33,4
10/10/19 17,9 13,4 1,7 0,59 0 47,1
09/10/19 15,5 15,8 0,8 0,69 0 26,4
08/10/19 16,5 11,1 5,0 0,78 0 9,1
07/10/19 12,8 7,4 1,1 0,84 0 1,7
06/10/19 11,2 6,8 13,7 0,82 0 1,1
05/10/19 15,6 8,1 0,0 0,67 1 10,5
04/10/19 16,9 10,4 13,2 0,81 0 2,5
03/10/19 17,0 7,3 1,9 0,76 0 3,4
02/10/19 16,6 14,0 3,5 0,65 0 34,4
01/10/19 19,4 12,7 21,2 0,80 0 3,8
30/09/19 18,9 13,1 2,0 0,65 0 35,1
29/09/19 16,7 16,7 11,6 0,82 0 3,8
28/09/19 18,4 16,8 1,5 0,74 0 9,2
27/09/19 20,0 15,4 0,6 0,65 0 25,1
26/09/19 19,2 13,4 12,1 0,87 0 37,5
25/09/19 19,0 11,6 7,4 0,75 0 59,2
24/09/19 18,4 10,0 8,3 0,72 0 77,3
23/09/19 20,9 9,1 2,5 0,64 0 120,6
22/09/19 27,5 12,1 5,7 0,40 0 156,6
21/09/19 26,3 7,2 0,0 0,29 8 156,5
20/09/19 21,3 6,5 0,0 0,39 7 153,3
19/09/19 18,8 8,2 0,0 0,48 6 160,2
18/09/19 19,4 16,1 0,0 0,46 5 168,5
17/09/19 19,1 12,2 0,0 0,51 4 163,3
16/09/19 17,7 10,0 0,0 0,76 3 135,9
15/09/19 25,0 8,2 0,0 0,37 2 151,3
14/09/19 23,8 7,3 0,0 0,35 1 145,3
13/09/19 22,7 10,3 0,4 0,51 0 141,8
12/09/19 25,6 11,1 0,3 0,52 0 131,1
11/09/19 17,2 13,8 2,7 0,75 0 141,1
10/09/19 24,2 7,1 0,0 0,39 4 138,4
09/09/19 21,6 9,1 0,0 0,41 3 111,3
08/09/19 22,0 9,1 0,0 0,47 2 110,0
07/09/19 20,8 8,5 0,0 0,59 1 113,6
06/09/19 21,8 13,8 0,3 0,47 0 117,7
05/09/19 19,0 12,6 1,4 0,61 0 90,4
04/09/19 22,2 15,4 4,5 0,57 0 132,3
03/09/19 21,7 11,0 0,0 0,52 3 117,6
02/09/19 24,5 7,9 0,0 0,38 2 135,9
01/09/19 21,6 7,7 0,0 0,44 1 180,4
31/08/19 31,7 10,0 1,9 0,34 0 238,9
30/08/19 26,2 8,6 0,0 0,40 1 262,2
29/08/19 23,2 10,1 4,5 0,49 0 288,6
28/08/19 30,0 10,2 0,5 0,46 0 314,8
27/08/19 36,0 9,1 0,0 0,30 8 313,7
26/08/19 34,5 7,9 0,0 0,41 7 275,9
25/08/19 34,4 6,7 0,0 0,27 6 261,5
24/08/19 33,0 6,7 0,0 0,29 5 252,2
23/08/19 28,4 8,4 0,0 0,37 4 203,4
22/08/19 27,9 8,2 0,0 0,39 3 161,6
21/08/19 27,1 8,6 0,0 0,37 2 163,1
20/08/19 25,5 10,1 0,0 0,43 1 149,1
19/08/19 24,3 14,5 0,6 0,49 0 110,6
18/08/19 22,5 9,4 4,1 0,68 0 74,0
17/08/19 21,6 13,7 5,5 0,76 0 71,4
16/08/19 25,5 12,8 0,4 0,52 0 109,4
15/08/19 23,9 10,9 1,0 0,60 0 155,3
14/08/19 25,2 12,3 3,8 0,46 0 64,8
13/08/19 20,9 11,7 13,7 0,64 0 102,1
12/08/19 25,1 11,1 1,8 0,49 0 166,8
11/08/19 24,5 13,4 0,0 0,47 2 193,7
10/08/19 26,4 21,2 0,0 0,41 1 282,7
09/08/19 25,5 10,2 9,0 0,62 0 233,1
08/08/19 27,2 12,8 0,0 0,44 6 259,7
07/08/19 26,4 13,7 0,0 0,43 5 207,1
06/08/19 26,2 11,3 0,0 0,44 4 181,6
05/08/19 28,0 10,9 0,0 0,42 3 176,3
04/08/19 30,2 5,7 0,0 0,41 2 211,2
03/08/19 26,4 8,8 0,0 0,52 1 212,9
02/08/19 24,1 11,3 4,4 0,61 0 196,1
01/08/19 23,6 11,4 0,0 0,56 3 185,9
31/07/19 22,5 15,8 0,0 0,55 2 155,8
30/07/19 30,1 15,1 0,0 0,35 1 203,8
29/07/19 28,9 6,4 0,3 0,38 0 236,2
28/07/19 19,2 9,4 3,1 0,85 0 271,5
27/07/19 22,8 8,0 8,0 0,77 0 334,9
26/07/19 40,8 16,0 24,1 0,26 0 417,8
25/07/19 41,9 6,9 0,0 0,22 5 336,5
24/07/19 41,1 9,6 0,0 0,22 4 295,6
23/07/19 36,4 7,1 0,0 0,26 3 222,0
22/07/19 30,2 11,5 0,0 0,36 2 185,5
21/07/19 25,6 7,0 0,0 0,44 1 170,5
20/07/19 27,8 9,1 6,9 0,52 0 172,5
19/07/19 27,1 10,3 0,0 0,35 6 186,4
18/07/19 25,3 13,0 0,0 0,47 5 137,5
17/07/19 28,4 6,1 0,0 0,40 4 92,2
16/07/19 25,1 6,8 0,0 0,46 3 106,0
15/07/19 19,8 8,8 0,0 0,56 2 105,0
14/07/19 19,6 10,3 0,0 0,60 1 123,2
13/07/19 24,3 13,6 2,0 0,54 0 143,8
12/07/19 22,7 9,3 7,4 0,58 0 178,2
11/07/19 26,3 10,7 0,0 0,41 1 172,1
10/07/19 22,6 7,0 0,3 0,39 0 176,9
09/07/19 22,9 9,9 0,0 0,33 3 196,2
08/07/19 18,3 10,0 0,0 0,49 2 209,5
07/07/19 21,5 13,7 0,0 0,34 1 247,2
06/07/19 26,9 12,2 1,4 0,43 0 258,6
05/07/19 26,6 10,2 0,0 0,31 15 286,6
04/07/19 25,5 9,1 0,0 0,33 14 303,3
03/07/19 22,6 14,4 0,0 0,35 13 307,6
02/07/19 25,0 13,6 0,0 0,30 12 307,9
01/07/19 24,8 9,4 0,0 0,42 11 299,0
30/06/19 27,6 8,1 0,0 0,37 10 356,4
29/06/19 35,5 7,4 0,0 0,22 9 369,8
28/06/19 26,7 9,6 0,0 0,33 8 356,1
27/06/19 25,5 13,9 0,0 0,42 7 348,8
26/06/19 27,4 13,8 0,0 0,48 6 328,8
25/06/19 36,8 11,3 0,0 0,34 5 303,5
24/06/19 34,6 7,4 0,0 0,36 4 182,1
23/06/19 32,3 8,6 0,0 0,35 3 162,2
22/06/19 26,1 9,4 0,0 0,39 2 158,3
21/06/19 23,4 9,4 0,0 0,38 1 160,5
20/06/19 22,3 11,3 0,3 0,54 0 112,1
19/06/19 28,6 14,7 6,1 0,45 0 105,2
18/06/19 29,2 6,4 0,0 0,36 3 87,2
17/06/19 29,4 9,6 0,0 0,35 2 53,0
16/06/19 24,5 12,4 0,0 0,45 1 68,1
15/06/19 21,6 10,3 7,4 0,56 0 7,8
14/06/19 26,9 11,1 1,1 0,39 0 58,1
13/06/19 20,6 17,1 2,7 0,52 0 54,0
12/06/19 17,7 11,8 27,8 0,63 0 40,1
11/06/19 22,5 8,0 0,0 0,42 1 60,4
10/06/19 26,0 12,2 9,1 0,46 0 48,9
09/06/19 24,2 9,3 0,0 0,39 1 35,2
08/06/19 19,8 25,6 1,4 0,45 0 54,7
07/06/19 25,9 13,9 2,4 0,01 0 197,0
06/06/19 20,7 11,8 15,4 0,41 0 210,0
05/06/19 17,8 14,3 18,2 0,65 0 229,2
04/06/19 26,1 21,0 11,8 0,42 0 293,3
03/06/19 22,0 8,8 0,0 0,52 1 300,3
02/06/19 34,0 16,4 0,5 0,26 0 243,6
01/06/19 31,2 8,2 0,0 0,36 4 118,8
31/05/19 22,7 8,6 0,0 0,50 3 113,2
30/05/19 25,3 13,0 0,0 0,48 2 112,2
29/05/19 22,5 9,9 0,0 0,38 1 150,3
28/05/19 18,4 11,3 7,8 0,49 0 171,1
27/05/19 20,7 8,8 2,2 0,40 0 205,3
26/05/19 23,4 14,4 0,4 0,48 0 212,8
25/05/19 22,5 7,4 0,0 0,41 6 182,4
24/05/19 25,2 10,4 0,0 0,26 5 157,6
23/05/19 24,8 9,9 0,0 0,24 4 138,9
22/05/19 22,6 7,7 0,0 0,30 3 101,7
21/05/19 17,8 11,9 0,0 0,58 2 111,3
20/05/19 15,6 6,9 0,0 0,73 1 127,9
19/05/19 23,8 9,3 1,4 0,55 0 168,6
18/05/19 24,4 8,6 0,0 0,40 8 206,5
17/05/19 15,0 7,6 0,0 0,58 7 207,1
16/05/19 20,9 12,3 0,0 0,34 6 237,2
15/05/19 20,8 10,2 0,0 0,24 5 196,1
14/05/19 19,9 11,4 0,0 0,32 4 157,1
13/05/19 19,3 12,6 0,0 0,25 3 120,2
12/05/19 17,8 12,7 0,0 0,36 2 98,9
11/05/19 18,1 15,1 0,0 0,33 1 64,9
10/05/19 17,8 8,3 1,5 0,52 0 58,6
09/05/19 20,8 11,9 2,0 0,50 0 65,1
08/05/19 16,2 11,8 1,7 0,61 0 77,1
07/05/19 18,4 8,8 0,0 0,41 1 82,2
06/05/19 12,4 8,9 2,4 0,51 0 83,1
05/05/19 14,2 16,1 0,6 0,45 0 86,6
04/05/19 12,4 17,1 3,4 0,45 0 106,9
03/05/19 13,9 10,0 0,9 0,43 0 113,8
02/05/19 15,8 9,0 0,5 0,61 0 95,7
01/05/19 18,4 7,7 0,0 0,46 3 122,4
30/04/19 14,4 8,8 0,0 0,66 2 103,8
29/04/19 20,2 12,7 0,0 0,41 1 93,0
28/04/19 18,8 9,6 0,9 0,51 0 90,4
27/04/19 15,2 15,1 2,4 0,46 0 139,5
26/04/19 20,6 12,7 0,0 0,41 1 180,0
25/04/19 19,7 13,5 1,9 0,50 0 224,8
24/04/19 27,5 17,2 7,8 0,31 0 294,3
23/04/19 24,2 8,5 0,0 0,34 15 331,8
22/04/19 28,9 8,5 0,0 0,18 14 305,4
21/04/19 27,8 9,2 0,0 0,22 13 287,2
20/04/19 27,3 11,5 0,0 0,20 12 253,4
19/04/19 26,3 10,8 0,0 0,24 11 215,9
18/04/19 25,4 11,2 0,0 0,29 10 183,6
17/04/19 17,9 4,9 0,0 0,58 9 156,3
16/04/19 23,3 9,3 0,0 0,28 8 176,8
15/04/19 20,1 7,2 0,0 0,39 7 174,6
14/04/19 14,1 14,2 0,0 0,34 6 187,9
13/04/19 10,6 15,2 0,0 0,36 5 121,9
12/04/19 11,3 15,4 0,0 0,39 4 139,4
11/04/19 14,8 13,5 0,0 0,34 3 127,1
10/04/19 15,1 16,9 0,0 0,36 2 118,7
09/04/19 16,7 16,7 0,0 0,45 1 124,6
08/04/19 23,5 7,4 6,1 0,45 0 96,6
07/04/19 24,0 11,2 0,0 0,35 4 92,8
06/04/19 19,1 5,8 0,0 0,46 3 75,6
05/04/19 16,6 10,3 0,0 0,42 2 88,0
04/04/19 14,0 6,2 0,0 0,54 1 85,8
03/04/19 12,6 11,2 3,6 0,64 0 98,5
02/04/19 19,4 15,8 4,7 0,50 0 117,4
01/04/19 18,5 10,3 0,0 0,38 7 117,2
31/03/19 15,0 15,4 0,0 0,48 6 98,6
30/03/19 21,2 7,2 0,0 0,41 5 90,2
29/03/19 22,1 5,6 0,0 0,43 4 85,8
28/03/19 14,5 5,2 0,0 0,59 3 78,0
27/03/19 14,5 6,9 0,0 0,54 2 95,5
26/03/19 12,5 7,2 0,0 0,54 1 95,2
25/03/19 11,1 17,9 0,8 0,58 0 92,1
24/03/19 14,2 9,6 0,0 0,42 6 87,6
23/03/19 14,0 9,9 0,0 0,68 5 68,6
22/03/19 21,4 8,1 0,0 0,38 4 57,5
21/03/19 17,0 7,0 0,0 0,59 3 30,9
20/03/19 13,8 8,8 0,0 0,73 2 18,8
19/03/19 13,0 7,1 0,0 0,56 1 10,3
18/03/19 12,0 11,4 1,9 0,46 0 8,6
17/03/19 11,3 22,0 5,2 0,56 0 8,6
16/03/19 12,0 20,3 9,4 0,67 0 6,3
15/03/19 14,4 17,6 8,0 0,75 0 4,8
14/03/19 12,5 17,4 9,9 0,63 0 6,2
13/03/19 9,5 19,6 6,6 0,76 0 3,7
12/03/19 11,2 25,5 3,6 0,50 0 16,9
11/03/19 9,5 11,9 2,4 0,59 0 22,9
10/03/19 12,6 24,1 10,5 0,71 0 23,9
09/03/19 13,0 18,8 1,9 0,58 0 28,9
08/03/19 11,6 17,4 2,4 0,54 0 28,0
07/03/19 11,2 22,1 14,9 0,68 0 33,5
06/03/19 13,7 14,0 0,6 0,61 0 27,2
05/03/19 12,7 15,8 1,3 0,51 0 21,5
04/03/19 12,8 25,5 4,5 0,61 0 48,2
03/03/19 12,7 21,0 9,9 0,77 0 48,7
02/03/19 12,0 12,9 0,6 0,72 0 62,8
01/03/19 9,4 10,7 3,2 0,74 0 77,4
28/02/19 13,3 16,8 2,3 0,70 0 89,2
27/02/19 20,2 8,0 0,0 0,38 6 90,9
26/02/19 20,5 3,5 0,0 0,38 5 77,6
25/02/19 19,8 6,2 0,0 0,34 4 79,8
24/02/19 17,7 6,8 0,0 0,22 3 73,1
23/02/19 14,4 5,1 0,0 0,56 2 65,8
22/02/19 13,7 4,7 0,0 0,77 1 76,4
21/02/19 13,7 10,2 0,3 0,65 0 91,6
20/02/19 13,1 10,5 0,0 0,57 8 105,1
19/02/19 11,6 11,5 0,0 0,58 7 100,2
18/02/19 16,0 8,0 0,0 0,48 6 93,1
17/02/19 17,1 9,2 0,0 0,47 5 83,6
16/02/19 15,4 11,7 0,0 0,52 4 70,3
15/02/19 18,1 6,3 0,0 0,36 3 43,1
14/02/19 14,4 6,4 0,0 0,54 2 49,9
13/02/19 10,0 10,0 0,0 0,71 1 14,7
12/02/19 9,4 10,0 0,3 0,72 0 31,2
11/02/19 8,9 8,6 0,9 0,66 0 31,3
10/02/19 9,8 16,3 24,1 0,77 0 30,1
09/02/19 11,4 24,7 0,3 0,63 0 27,1
08/02/19 10,0 19,4 5,2 0,80 0 8,8
07/02/19 10,6 23,4 5,2 0,64 0 9,6
06/02/19 7,0 11,5 2,5 0,84 0 4,3
05/02/19 6,4 11,7 0,0 0,89 1 4,3
04/02/19 4,4 16,5 1,7 0,78 0 6,1
03/02/19 7,2 5,9 0,0 0,74 1 7,1
02/02/19 3,2 8,5 5,5 0,92 0 3,4
01/02/19 4,4 6,1 3,1 0,88 0 3,6
31/01/19 0,4 6,8 0,0 0,90 1 4,0
30/01/19 2,6 7,4 0,9 0,80 0 2,2
29/01/19 4,8 9,7 1,7 0,78 0 3,7
28/01/19 7,2 15,6 10,2 0,66 0 5,4
27/01/19 7,5 16,8 7,4 0,81 0 7,6
26/01/19 8,6 15,9 1,2 0,84 0 10,9
25/01/19 5,0 11,7 1,4 0,84 0 12,9
24/01/19 1,6 6,1 0,3 0,78 0 13,5
23/01/19 1,4 8,4 1,6 0,80 0 13,7
22/01/19 -0,1 13,5 0,0 0,78 4 15,6
21/01/19 4,0 6,1 0,0 0,74 3 11,0
20/01/19 3,3 5,8 0,0 0,64 2 13,1
19/01/19 3,6 6,7 0,0 0,79 1 3,2
18/01/19 3,1 5,8 0,3 0,90 0 6,5
17/01/19 5,9 10,4 7,8 0,81 0 6,8
16/01/19 7,4 16,3 1,9 0,78 0 9,3
15/01/19 8,0 13,1 0,3 0,80 0 5,6
14/01/19 7,7 11,0 5,2 0,77 0 11,7
13/01/19 9,6 14,7 10,4 0,83 0 11,9
12/01/19 8,3 12,7 2,5 0,83 0 12,3
11/01/19 8,6 8,2 2,4 0,88 0 12,8
10/01/19 5,6 6,6 1,1 0,79 0 15,1
09/01/19 7,3 14,7 0,8 0,67 0 16,2
08/01/19 9,6 14,1 2,5 0,72 0 13,6
07/01/19 9,5 14,1 2,5 0,84 0 18,6
06/01/19 7,4 4,6 0,3 0,81 0 15,9
05/01/19 7,7 6,0 0,8 0,83 0 16,5
04/01/19 5,7 6,0 0,3 0,79 0 14,4
03/01/19 7,2 5,1 0,0 0,74 2 21,4
02/01/19 7,2 11,4 0,0 0,70 1 19,4
01/01/19 9,0 11,5 1,4 0,70 0 18,4
31/12/18 10,2 7,5 0,3 0,87 0 15,7
30/12/18 9,4 9,1 1,1 0,80 0 20,1
29/12/18 9,7 14,6 0,6 0,79 0 21,0
28/12/18 3,6 7,2 0,0 0,85 4 14,6
27/12/18 5,6 5,7 0,0 0,72 3 11,9
26/12/18 4,5 5,9 0,0 0,87 2 8,0
25/12/18 7,3 8,9 0,0 0,74 1 5,7
24/12/18 8,4 5,9 0,3 0,77 0 9,7
23/12/18 9,4 13,3 8,0 0,85 0 15,0
22/12/18 11,2 15,3 4,3 0,79 0 17,7
21/12/18 12,8 19,6 14,6 0,76 0 18,1
20/12/18 8,8 14,9 1,4 0,83 0 16,3
19/12/18 9,6 10,8 1,0 0,74 0 22,0
18/12/18 9,7 12,2 0,0 0,77 1 24,8
17/12/18 8,6 10,5 2,0 0,83 0 27,6
16/12/18 3,6 8,6 4,1 0,75 0 35,8
15/12/18 14,6 10,3 4,3 0,39 0 44,5
14/12/18 5,2 7,9 0,0 0,39 4 38,1
13/12/18 5,2 7,9 0,0 0,39 3 28,6
12/12/18 5,2 7,9 0,0 0,39 2 19,0
11/12/18 5,2 7,9 0,0 0,39 1 9,5
10/12/18 6,2 7,9 3,3 0,39 0 10,9
09/12/18 10,5 14,3 8,9 0,38 0 13,9
08/12/18 11,0 18,7 8,6 0,32 0 17,5
07/12/18 11,8 21,7 13,5 0,37 0 19,0
06/12/18 12,8 13,3 1,5 0,50 0 16,2
05/12/18 8,9 8,0 0,5 0,65 0 14,8
04/12/18 9,3 7,5 2,3 0,69 0 2,7
03/12/18 13,2 12,6 4,8 0,67 0 6,3
02/12/18 13,8 12,7 11,2 0,70 0 5,9
01/12/18 8,8 12,7 2,0 0,81 0 4,7
30/11/18 12,0 12,6 0,8 0,76 0 12,8
29/11/18 10,9 13,4 7,1 0,78 0 9,1
28/11/18 9,6 11,9 2,8 0,85 0 12,4
27/11/18 5,4 5,7 0,0 0,81 1 13,5
26/11/18 6,6 7,9 3,0 0,83 0 14,7
25/11/18 4,4 9,0 0,0 0,84 6 28,2
24/11/18 4,5 7,2 0,0 0,82 5 34,8
23/11/18 9,9 5,3 0,0 0,71 4 42,4
22/11/18 5,8 4,9 0,0 0,75 3 43,9
21/11/18 6,6 5,5 0,0 0,74 2 43,2
20/11/18 5,0 15,4 0,0 0,67 1 45,3
19/11/18 7,6 16,5 0,8 0,71 0 40,8
18/11/18 7,8 10,2 0,0 0,50 4 51,4
17/11/18 9,9 7,1 0,0 0,64 3 23,1
16/11/18 9,6 4,8 0,0 0,78 2 15,8
15/11/18 14,2 5,1 0,0 0,64 1 12,3
14/11/18 13,2 7,1 0,5 0,75 0 9,8
13/11/18 13,6 16,1 0,0 0,67 1 31,3
12/11/18 11,4 6,7 6,1 0,86 0 14,6
11/11/18 13,6 11,9 4,3 0,76 0 30,5
10/11/18 12,8 12,0 4,3 0,78 0 35,9
09/11/18 13,0 6,2 0,0 0,76 2 39,6
08/11/18 14,8 7,7 0,0 0,64 1 38,6
07/11/18 14,5 12,0 1,8 0,64 0 47,6
06/11/18 20,1 5,8 0,0 0,55 4 44,4
05/11/18 14,9 6,1 0,0 0,71 3 42,0
04/11/18 14,0 5,7 0,0 0,69 2 24,2
03/11/18 10,7 5,9 0,0 0,71 1 25,1
02/11/18 12,1 9,6 0,5 0,55 0 35,0
01/11/18 12,6 8,9 2,3 0,71 0 11,3
31/10/18 12,8 10,8 0,0 0,66 1 19,3
30/10/18 8,6 17,7 25,2 0,84 0 18,8
29/10/18 6,7 14,7 0,0 0,74 2 26,2
28/10/18 8,5 15,4 0,0 0,55 1 45,1
27/10/18 12,8 7,8 5,6 0,61 0 56,1
26/10/18 12,5 12,0 4,3 0,72 0 66,4
25/10/18 14,2 8,9 0,0 0,68 1 68,9
24/10/18 16,9 7,2 0,5 0,73 0 68,3
23/10/18 15,1 10,1 0,0 0,65 6 79,5
22/10/18 16,6 12,9 0,0 0,50 5 99,8
21/10/18 17,9 4,5 0,0 0,54 4 104,7
20/10/18 15,8 4,2 0,0 0,58 3 120,1
19/10/18 17,2 6,0 0,0 0,59 2 131,3
18/10/18 21,0 8,0 0,0 0,68 1 138,1
12/10/18 24,8 11,6 0,8 0,54 0 155,6
11/10/18 25,6 8,7 0,0 0,47 5 151,2
10/10/18 24,7 6,8 0,0 0,41 4 142,2
09/10/18 21,1 6,2 0,0 0,40 3 133,7
08/10/18 18,7 7,2 0,0 0,44 2 125,8
07/10/18 16,0 17,6 0,0 0,51 1 126,9
06/10/18 23,3 8,7 0,5 0,52 0 94,6
05/10/18 23,3 7,1 0,0 0,45 3 88,4
04/10/18 19,2 10,3 0,0 0,62 2 81,3
03/10/18 17,2 6,2 0,0 0,52 1 99,8
02/10/18 17,9 11,6 0,5 0,59 0 124,0
01/10/18 14,3 9,8 3,8 0,50 0 140,9
30/09/18 19,0 6,3 0,0 0,47 6 148,0
29/09/18 17,4 6,8 0,0 0,40 5 132,3
28/09/18 18,2 15,5 0,0 0,43 4 115,1
27/09/18 23,7 10,0 0,0 0,37 3 77,3
26/09/18 20,8 9,5 0,0 0,39 2 39,5
25/09/18 17,6 4,1 0,0 0,45 1 62,4
24/09/18 16,6 8,7 1,3 0,46 0 123,5
23/09/18 11,1 10,1 13,5 0,81 0 190,5
22/09/18 17,2 12,8 3,3 0,61 0 241,5
21/09/18 20,1 23,6 6,6 0,43 0 285,6
20/09/18 26,4 13,6 0,0 0,44 7 294,6
19/09/18 26,1 16,5 0,0 0,44 6 267,3
18/09/18 27,5 16,6 0,0 0,39 5 231,1
17/09/18 27,6 8,7 0,0 0,33 4 155,9
16/09/18 24,8 8,9 0,0 0,41 3 183,8
15/09/18 20,8 9,8 0,0 0,52 2 176,3
14/09/18 21,2 9,4 0,0 0,45 1 198,2
13/09/18 21,5 9,0 0,8 0,41 0 197,8
12/09/18 19,1 11,3 1,5 0,74 0 177,1
11/09/18 27,5 16,9 0,0 0,42 4 174,6
10/09/18 23,0 10,0 0,0 0,53 3 136,6
09/09/18 26,6 11,4 0,0 0,42 2 131,8
08/09/18 20,5 10,4 0,0 0,47 1 98,1
07/09/18 19,2 10,5 3,3 0,46 0 123,7
06/09/18 22,2 8,1 4,8 0,65 0 151,4
05/09/18 26,4 11,5 0,8 0,56 0 167,6
04/09/18 27,0 6,9 0,0 0,54 5 158,3
03/09/18 22,6 7,1 0,0 0,66 4 114,2
02/09/18 25,0 10,7 0,0 0,40 3 119,7
01/09/18 23,3 9,1 0,0 0,37 2 78,2
31/08/18 21,5 8,0 0,0 0,42 1 44,4
30/08/18 21,6 7,1 0,5 0,44 0 40,2
29/08/18 20,8 9,4 11,9 0,64 0 55,0
28/08/18 22,6 7,2 0,0 0,50 1 50,5
27/08/18 20,6 14,5 2,8 0,55 0 71,3
26/08/18 21,4 14,4 1,3 0,42 0 103,7
25/08/18 18,0 9,6 5,3 0,57 0 101,4
24/08/18 20,6 10,8 0,0 0,43 1 139,3
23/08/18 25,2 11,3 2,8 0,54 0 156,0
22/08/18 27,2 7,6 0,0 0,53 5 113,5
21/08/18 27,8 7,1 0,0 0,49 4 126,2
20/08/18 23,4 6,4 0,0 0,64 3 126,9
19/08/18 26,8 12,1 0,0 0,50 2 112,6
18/08/18 23,7 12,0 0,0 0,56 1 100,0
17/08/18 25,5 6,6 16,0 0,42 0 144,2
16/08/18 27,6 10,1 0,0 0,47 2 137,9
15/08/18 24,0 10,7 0,0 0,55 1 97,4
14/08/18 24,8 7,5 2,8 0,51 0 79,3
13/08/18 22,8 9,9 4,8 0,50 0 81,5
12/08/18 31,0 10,8 0,0 0,30 1 143,3
11/08/18 24,0 8,0 3,3 0,41 0 144,6
10/08/18 24,3 13,1 1,8 0,39 0 204,9
09/08/18 23,2 17,0 3,3 0,56 0 248,9
08/08/18 29,0 12,4 10,4 0,35 0 301,2
07/08/18 38,3 7,1 0,0 0,22 10 338,7
06/08/18 37,2 5,9 0,0 0,25 9 304,4
05/08/18 30,0 9,4 0,0 0,37 8 303,6
04/08/18 32,5 8,3 0,0 0,42 7 326,1
03/08/18 34,8 6,8 0,0 0,31 6 337,6
02/08/18 34,2 6,9 0,0 0,34 5 284,5
01/08/18 32,2 6,5 0,0 0,34 4 328,5
31/07/18 30,0 10,9 0,0 0,39 3 358,2
30/07/18 36,0 9,0 0,0 0,31 2 364,7
29/07/18 29,3 10,3 0,0 0,29 1 335,5
28/07/18 29,3 11,0 2,8 0,31 0 346,2
27/07/18 40,4 7,7 0,0 0,19 40 390,8
26/07/18 40,0 6,5 0,0 0,25 39 324,7
25/07/18 34,3 8,7 0,0 0,32 38 290,9
24/07/18 34,8 6,3 0,0 0,35 37 261,1
23/07/18 34,4 5,8 0,0 0,36 36 250,3
22/07/18 30,7 6,0 0,0 0,33 35 250,9
21/07/18 30,4 5,2 0,0 0,36 34 283,0
20/07/18 29,2 7,3 0,0 0,34 33 306,5
19/07/18 29,7 6,2 0,0 0,32 32 308,0
18/07/18 29,7 6,4 0,0 0,33 31 307,9
17/07/18 29,6 8,3 0,0 0,39 30 307,6
16/07/18 33,6 8,8 0,0 0,25 29 299,7
15/07/18 32,7 7,3 0,0 0,26 28 250,4
14/07/18 30,5 6,8 0,0 0,30 27 225,0
13/07/18 29,6 6,9 0,0 0,37 26 236,6
12/07/18 29,2 7,5 0,0 0,40 25 243,4
11/07/18 25,8 9,6 0,0 0,45 24 245,8
10/07/18 21,8 8,1 0,0 0,52 23 255,5
09/07/18 26,0 8,3 0,0 0,48 22 285,8
08/07/18 29,5 9,8 0,0 0,33 21 330,4
07/07/18 29,8 7,7 0,0 0,32 20 351,8
06/07/18 30,6 7,2 0,0 0,37 19 373,0
05/07/18 29,6 8,5 0,0 0,35 18 417,3
04/07/18 31,3 8,7 0,0 0,35 17 443,5
03/07/18 33,0 9,9 0,0 0,25 16 473,6
02/07/18 31,2 10,8 0,0 0,22 15 452,1
01/07/18 32,0 8,8 0,0 0,21 14 419,3
30/06/18 32,4 11,1 0,0 0,21 13 397,9
29/06/18 31,8 11,1 0,0 0,30 12 333,4
28/06/18 32,0 12,1 0,0 0,28 11 279,4
27/06/18 30,4 9,9 0,0 0,37 10 206,1
26/06/18 27,6 9,3 0,0 0,35 9 169,8
25/06/18 26,8 10,3 0,0 0,37 8 160,8
24/06/18 22,1 8,0 0,0 0,49 7 123,9
23/06/18 24,3 5,2 0,0 0,37 6 117,7
22/06/18 16,8 6,2 0,0 0,56 5 112,8
21/06/18 19,5 7,4 0,0 0,44 4 138,1
20/06/18 30,5 7,1 0,0 0,41 3 140,7
19/06/18 22,0 5,4 0,0 0,66 2 135,9
18/06/18 21,8 8,1 0,0 0,61 1 157,4
17/06/18 19,9 8,0 0,5 0,57 0 168,4
16/06/18 27,0 8,2 0,0 0,37 14 214,3
15/06/18 27,2 5,1 0,0 0,39 13 217,0
14/06/18 23,0 11,9 0,0 0,51 12 223,3
13/06/18 24,0 9,0 0,0 0,40 11 207,0
12/06/18 22,2 11,1 0,0 0,52 10 211,5
11/06/18 27,0 11,6 0,0 0,42 9 240,8
10/06/18 28,4 9,7 0,0 0,46 8 219,8
09/06/18 28,4 7,7 0,0 0,50 7 210,2
08/06/18 25,1 7,0 0,0 0,61 6 209,3
07/06/18 31,8 6,8 0,0 0,41 5 204,1
06/06/18 31,9 8,9 0,0 0,30 4 165,4
05/06/18 25,2 8,9 0,0 0,51 3 105,6
04/06/18 27,4 8,9 0,0 0,51 2 112,7
03/06/18 27,4 8,2 0,0 0,50 1 125,4
02/06/18 22,5 6,9 0,5 0,65 0 154,7
01/06/18 22,9 4,8 1,8 0,77 0 169,5
31/05/18 30,9 8,4 5,3 0,48 0 220,1
30/05/18 32,6 6,1 0,0 0,40 2 242,3
29/05/18 32,4 9,0 0,0 0,48 1 205,3
28/05/18 32,6 9,3 0,8 0,34 0 158,9
27/05/18 28,9 6,0 0,0 0,48 3 101,7
26/05/18 33,1 6,2 0,0 0,35 2 111,0
25/05/18 30,9 6,2 0,0 0,40 1 102,8
24/05/18 25,0 7,2 2,5 0,55 0 84,4
23/05/18 26,8 9,5 7,9 0,46 0 104,9
22/05/18 28,5 7,6 1,5 0,39 0 131,9
21/05/18 29,5 6,1 0,0 0,30 5 151,3
20/05/18 27,6 7,1 0,0 0,36 4 179,2
19/05/18 14,8 5,0 0,0 0,67 3 200,3
18/05/18 18,6 8,4 0,0 0,48 2 193,7
17/05/18 20,2 7,7 0,0 0,42 1 202,4
16/05/18 23,6 11,6 0,5 0,52 0 195,4
15/05/18 28,0 11,8 0,0 0,28 2 165,1
14/05/18 29,3 10,5 0,0 0,35 1 124,5
13/05/18 18,6 5,1 1,3 0,54 0 112,1
12/05/18 28,3 5,2 0,0 0,29 2 148,8
11/05/18 23,2 4,6 0,0 0,42 1 163,4
10/05/18 20,5 6,7 1,5 0,45 0 197,3
09/05/18 28,9 4,9 0,0 0,37 8 226,4
08/05/18 32,4 5,1 0,0 0,21 7 218,2
07/05/18 30,1 6,3 0,0 0,26 6 217,2
06/05/18 30,8 6,6 0,0 0,25 5 137,4
05/05/18 25,9 8,7 0,0 0,29 4 131,7
04/05/18 22,4 8,4 0,0 0,34 3 50,4
03/05/18 19,0 6,3 0,0 0,37 2 35,1
02/05/18 21,2 11,8 0,0 0,34 1 75,2
01/05/18 18,5 11,4 11,2 0,31 0 46,2
30/04/18 14,7 14,0 21,9 0,64 0 61,3
29/04/18 13,7 11,7 16,5 0,83 0 71,4
28/04/18 17,5 9,6 0,0 0,59 2 93,2
27/04/18 19,7 6,7 0,0 0,37 1 130,9
26/04/18 16,8 11,9 3,8 0,39 0 152,5
25/04/18 17,0 9,7 0,5 0,45 0 177,4
24/04/18 18,0 8,5 0,0 0,61 2 211,1
23/04/18 19,9 8,6 0,0 0,45 1 229,8
22/04/18 30,5 9,6 0,5 0,35 0 240,5
21/04/18 26,1 6,4 0,0 0,35 6 208,1
20/04/18 29,9 6,4 0,0 0,28 5 163,0
19/04/18 32,6 7,1 0,0 0,25 4 139,3
18/04/18 28,7 5,9 0,0 0,28 3 93,2
17/04/18 24,3 8,8 0,0 0,37 2 65,3
16/04/18 18,7 7,6 0,0 0,51 1 24,2
15/04/18 19,7 8,2 5,6 0,59 0 18,8
14/04/18 19,8 5,4 7,1 0,51 0 37,3
13/04/18 16,3 6,3 0,0 0,69 2 60,9
12/04/18 15,8 7,2 0,0 0,75 1 93,3
11/04/18 15,2 5,0 6,1 0,85 0 111,7
10/04/18 22,2 8,5 9,9 0,41 0 119,8
09/04/18 20,0 8,9 0,0 0,53 4 114,8
08/04/18 26,2 6,1 0,0 0,38 3 94,3
07/04/18 25,9 10,0 0,0 0,39 2 81,6
06/04/18 18,3 9,6 0,0 0,38 1 39,9
05/04/18 12,4 10,6 3,8 0,48 0 21,8
04/04/18 16,2 10,8 4,6 0,63 0 21,2
03/04/18 17,2 12,5 1,5 0,65 0 36,9
02/04/18 15,1 9,9 0,0 0,59 1 14,9
01/04/18 7,9 4,9 4,1 0,81 0 1,0
31/03/18 14,4 6,2 14,2 0,58 0 12,7
30/03/18 17,1 8,9 2,8 0,42 0 33,8
29/03/18 13,5 8,8 0,5 0,47 0 49,8
28/03/18 9,3 7,3 8,6 0,88 0 47,6
27/03/18 11,8 8,8 2,3 0,52 0 52,7
26/03/18 13,8 5,7 0,0 0,45 4 57,3
25/03/18 15,7 7,2 0,0 0,46 3 68,5
24/03/18 14,8 6,8 0,0 0,49 2 66,2
23/03/18 9,7 13,3 0,0 0,64 1 60,8
22/03/18 11,4 6,6 2,8 0,71 0 57,1
21/03/18 9,6 6,0 0,0 0,55 1 55,5
20/03/18 10,4 13,9 0,5 0,37 0 48,1
19/03/18 6,1 10,9 0,0 0,39 3 38,3
18/03/18 2,8 9,7 0,0 0,50 2 15,5
17/03/18 1,2 13,8 0,0 0,66 1 16,5
16/03/18 7,7 8,4 2,8 0,86 0 10,5
15/03/18 11,6 8,0 6,6 0,64 0 11,9
14/03/18 14,8 6,4 0,0 0,57 1 10,2
13/03/18 9,0 9,8 7,6 0,89 0 0,8
12/03/18 14,9 10,0 6,1 0,68 0 3,6
11/03/18 16,5 10,4 1,8 0,73 0 10,2
10/03/18 16,6 8,3 2,5 0,71 0 18,7
09/03/18 13,4 6,8 2,8 0,58 0 18,5
08/03/18 9,3 12,9 4,1 0,67 0 19,1
07/03/18 10,5 8,4 2,0 0,77 0 23,2
06/03/18 11,7 7,9 0,0 0,77 2 32,9
05/03/18 13,0 9,0 0,0 0,66 1 33,8
04/03/18 12,1 10,4 2,8 0,66 0 37,5
03/03/18 2,7 5,3 2,8 0,74 0 42,8
02/03/18 0,4 9,7 0,0 0,46 15 67,0
01/03/18 1,5 11,8 0,0 0,37 14 70,5
28/02/18 -1,2 11,9 0,0 0,47 13 67,8
27/02/18 1,9 11,2 0,0 0,44 12 70,1
26/02/18 1,3 13,0 0,0 0,47 11 66,3
25/02/18 2,6 10,4 0,0 0,33 10 60,1
24/02/18 5,2 11,0 0,0 0,43 9 51,2
23/02/18 4,9 9,5 0,0 0,49 8 42,4
22/02/18 6,2 11,6 0,0 0,53 7 37,7
21/02/18 6,3 7,9 0,0 0,60 6 32,0
20/02/18 6,8 5,7 0,0 0,64 5 24,9
19/02/18 5,7 5,4 0,0 0,77 4 30,2
18/02/18 8,5 5,8 0,0 0,74 3 38,0
17/02/18 8,7 4,6 0,0 0,55 2 38,7
16/02/18 9,5 5,5 0,0 0,57 1 33,0
15/02/18 10,0 10,9 4,8 0,67 0 39,4
14/02/18 7,3 11,5 0,0 0,56 2 42,1
13/02/18 8,0 11,0 0,0 0,53 1 33,5
12/02/18 6,6 6,4 0,5 0,60 0 27,9
11/02/18 8,1 13,1 4,6 0,63 0 31,2
10/02/18 7,6 10,8 0,5 0,62 0 30,1
09/02/18 3,6 11,2 0,5 0,71 0 27,4
08/02/18 6,0 5,3 0,0 0,72 6 30,4
07/02/18 3,1 8,4 0,0 0,50 5 26,6
06/02/18 2,0 8,5 0,0 0,74 4 24,5
05/02/18 5,0 8,2 0,0 0,71 3 15,1
04/02/18 3,4 12,1 0,0 0,69 2 12,6
03/02/18 5,2 9,8 0,0 0,88 1 5,8
02/02/18 6,7 7,3 4,6 0,85 0 8,6
01/02/18 6,6 11,0 1,0 0,75 0 12,9
31/01/18 9,4 14,8 10,9 0,84 0 10,1
30/01/18 7,9 5,5 0,5 0,77 0 11,0
29/01/18 11,3 13,2 3,3 0,74 0 12,9
28/01/18 11,9 11,7 0,8 0,85 0 16,2
27/01/18 8,0 12,2 1,5 0,77 0 16,9
26/01/18 7,0 4,9 0,5 0,93 0 13,9
25/01/18 10,0 7,4 0,5 0,85 0 13,2
24/01/18 14,8 18,9 1,3 0,73 0 19,1
23/01/18 11,4 12,8 1,0 0,77 0 10,5
22/01/18 9,2 7,0 1,0 0,84 0 8,2
21/01/18 5,6 7,9 2,3 0,88 0 6,4
20/01/18 4,2 5,8 3,3 0,90 0 6,1
19/01/18 7,0 9,6 5,3 0,81 0 9,4
18/01/18 10,5 19,4 7,1 0,64 0 15,7
17/01/18 6,7 9,5 0,8 0,70 0 10,2
16/01/18 7,6 10,2 2,8 0,71 0 8,5
15/01/18 7,6 13,8 9,7 0,85 0 6,9
14/01/18 7,0 5,7 0,8 0,77 0 6,7
13/01/18 7,5 4,3 0,0 0,82 3 10,2
12/01/18 6,2 3,2 0,0 0,93 2 12,7
11/01/18 8,5 4,4 0,0 0,92 1 13,5
10/01/18 8,2 6,0 4,3 0,91 0 10,1
09/01/18 6,5 4,9 0,0 0,87 3 12,5
08/01/18 4,5 8,8 0,0 0,79 2 10,3
07/01/18 4,4 12,9 0,0 0,76 1 6,2
06/01/18 6,5 8,6 0,5 0,87 0 2,2
05/01/18 9,3 10,9 7,6 0,77 0 2,0
04/01/18 11,3 16,2 1,3 0,69 0 6,7
03/01/18 11,1 16,2 10,9 0,70 0 4,3
02/01/18 8,7 12,0 4,3 0,84 0 2,2
01/01/18 9,0 15,7 8,4 0,78 0 2,6
31/12/17 14,0 17,8 15,5 0,79 0 4,0
30/12/17 12,6 12,2 3,3 0,82 0 8,0
29/12/17 6,4 11,0 5,3 0,83 0 10,6
28/12/17 5,7 7,6 2,8 0,71 0 14,3
27/12/17 7,6 9,9 6,1 0,84 0 13,3
26/12/17 7,9 15,3 1,3 0,77 0 16,4
25/12/17 8,8 11,8 0,0 0,82 3 15,7
24/12/17 10,7 11,2 0,0 0,84 2 11,7
23/12/17 10,0 8,9 0,0 0,87 1 9,6
22/12/17 9,6 3,5 2,0 0,96 0 5,9
21/12/17 10,3 3,5 0,5 0,95 0 5,7
20/12/17 9,0 3,6 1,3 0,92 0 6,9
19/12/17 7,6 5,7 0,0 0,85 1 6,3
18/12/17 8,5 8,8 1,0 0,82 0 4,7
17/12/17 5,7 10,6 4,3 0,90 0 1,0
16/12/17 6,5 4,5 2,8 0,83 0 2,5
15/12/17 5,2 7,0 0,5 0,90 0 1,2
14/12/17 6,0 12,2 6,1 0,85 0 5,9
13/12/17 6,6 11,9 15,5 0,87 0 5,8
12/12/17 3,2 9,4 8,6 0,91 0 5,2
11/12/17 2,5 8,1 0,0 0,85 1 12,5
10/12/17 5,2 19,4 13,2 0,84 0 13,7
09/12/17 4,5 11,3 0,5 0,75 0 13,6
08/12/17 6,2 9,3 3,3 0,69 0 12,1
07/12/17 7,2 14,8 7,9 0,74 0 12,4
06/12/17 9,6 9,1 0,0 0,77 2 12,7
05/12/17 7,6 6,0 0,0 0,83 1 6,7
04/12/17 9,1 5,3 1,0 0,86 0 4,0
03/12/17 4,2 7,0 0,5 0,95 0 4,7
02/12/17 0,0 5,1 0,0 0,94 2 3,8
01/12/17 2,8 6,8 0,0 0,91 1 2,4
30/11/17 4,1 5,3 3,8 0,92 0 0,8
29/11/17 4,3 4,0 0,0 0,93 1 1,5
28/11/17 7,5 7,1 0,5 0,84 0 2,4
27/11/17 8,7 14,9 12,2 0,85 0 14,7
26/11/17 7,6 9,2 1,8 0,79 0 15,1
25/11/17 7,6 5,9 2,0 0,76 0 14,5
24/11/17 10,3 4,6 6,6 0,81 0 18,4
23/11/17 15,0 18,2 4,6 0,68 0 27,6
22/11/17 14,7 12,6 0,0 0,69 1 21,6
21/11/17 12,4 10,2 3,3 0,87 0 9,5
20/11/17 11,8 8,7 7,1 0,87 0 9,8
19/11/17 10,7 5,3 1,0 0,66 0 12,8
18/11/17 8,8 9,0 2,3 0,77 0 16,5
17/11/17 11,4 2,6 0,0 0,58 1 9,2
16/11/17 10,1 6,1 1,5 0,93 0 8,2
15/11/17 10,9 4,9 0,5 0,91 0 17,2
14/11/17 9,8 8,0 0,8 0,79 0 22,2
13/11/17 11,2 6,7 0,5 0,66 0 25,3
12/11/17 7,5 5,3 6,1 0,84 0 22,9
11/11/17 9,3 5,8 1,0 0,82 0 26,3
10/11/17 12,9 8,9 0,0 0,64 1 24,8
09/11/17 11,7 7,3 1,0 0,69 0 14,3
08/11/17 8,1 4,8 0,0 0,90 2 13,2
07/11/17 10,6 3,7 0,0 0,67 1 14,8
06/11/17 11,8 4,1 0,8 0,65 0 19,7
05/11/17 11,4 8,4 3,8 0,75 0 24,1
04/11/17 14,5 9,3 1,5 0,79 0 30,5
03/11/17 14,6 4,6 0,0 0,80 1 28,3
02/11/17 13,9 4,5 0,5 0,74 0 30,3
01/11/17 15,4 6,8 0,0 0,62 3 37,0
31/10/17 12,1 7,8 0,0 0,75 2 29,2
30/10/17 12,6 5,4 0,0 0,62 1 28,7
29/10/17 14,9 9,0 1,8 0,62 0 27,5
28/10/17 14,8 7,9 0,5 0,77 0 27,9
27/10/17 15,7 5,6 0,5 0,63 0 15,6
26/10/17 16,4 4,7 0,5 0,87 0 28,2
25/10/17 16,5 9,3 0,0 0,83 1 26,9
24/10/17 16,8 7,3 1,3 0,92 0 33,0
23/10/17 15,5 6,6 0,5 0,73 0 46,9
22/10/17 12,5 12,0 17,5 0,77 0 49,7
21/10/17 18,5 11,2 1,0 0,58 0 65,3
20/10/17 17,6 13,3 4,1 0,69 0 67,3
19/10/17 22,5 5,9 0,0 0,63 4 73,5
18/10/17 22,2 4,7 0,0 0,65 3 71,1
17/10/17 18,3 5,4 0,0 0,72 2 80,3
16/10/17 26,4 6,5 0,0 0,59 1 85,1
15/10/17 24,6 5,3 0,5 0,58 0 71,5
14/10/17 22,0 6,2 0,0 0,68 2 63,8
13/10/17 20,1 8,0 0,0 0,72 1 52,3
12/10/17 17,9 10,5 0,5 0,56 0 40,8
11/10/17 17,1 10,1 0,0 0,69 1 22,9
10/10/17 17,2 7,6 1,0 0,81 0 9,7
09/10/17 15,8 5,7 0,8 0,80 0 16,8
08/10/17 15,6 3,9 4,3 0,79 0 27,6
07/10/17 13,0 11,0 13,7 0,82 0 46,9
06/10/17 15,3 6,4 7,1 0,68 0 62,7
05/10/17 16,2 11,4 10,9 0,61 0 65,7
04/10/17 15,9 9,8 0,0 0,64 1 78,3
03/10/17 18,3 7,1 0,5 0,55 0 64,6
02/10/17 19,4 10,2 0,0 0,59 2 63,2
01/10/17 18,9 9,8 0,0 0,64 1 50,8
30/09/17 17,7 4,0 3,3 0,79 0 45,6
29/09/17 25,9 6,9 0,0 0,63 1 56,4
28/09/17 23,1 5,4 2,8 0,70 0 53,9
27/09/17 23,2 4,4 0,0 0,60 7 63,7
26/09/17 19,8 5,4 0,0 0,70 6 67,0
25/09/17 20,3 5,7 0,0 0,65 5 71,4
24/09/17 22,4 4,4 0,0 0,52 4 71,6
23/09/17 20,4 4,4 0,0 0,48 3 48,5
22/09/17 20,3 4,7 0,0 0,67 2 45,7
21/09/17 22,3 5,8 0,0 0,54 1 43,3
20/09/17 20,4 5,7 0,5 0,53 0 28,0
19/09/17 19,7 5,7 0,0 0,59 1 26,9
18/09/17 18,5 7,4 7,1 0,66 0 18,7
17/09/17 19,5 4,5 0,0 0,55 2 17,2
16/09/17 17,1 4,4 0,0 0,65 1 7,0
15/09/17 18,2 6,1 1,8 0,61 0 21,5
14/09/17 13,0 11,6 23,1 0,83 0 2,0
13/09/17 19,2 15,2 10,4 0,49 0 28,0
12/09/17 18,9 9,9 7,1 0,56 0 41,4
11/09/17 18,8 13,8 3,3 0,59 0 47,3
10/09/17 18,2 11,0 0,5 0,64 0 49,1
09/09/17 17,9 7,7 12,7 0,65 0 52,9
08/09/17 16,6 9,9 8,9 0,79 0 67,7
07/09/17 20,8 7,9 0,0 0,52 1 77,8
06/09/17 18,9 7,3 4,3 0,51 0 66,0
05/09/17 24,6 7,1 0,0 0,68 4 62,2
04/09/17 23,9 6,1 0,0 0,54 3 47,2
03/09/17 22,2 6,2 0,0 0,52 2 60,5
02/09/17 20,1 4,9 0,0 0,49 1 62,3
01/09/17 21,8 4,3 2,8 0,54 0 80,5
31/08/17 20,3 5,3 5,1 0,50 0 95,9
30/08/17 27,0 5,8 23,1 0,68 0 117,2
29/08/17 31,8 5,4 0,0 0,39 9 143,6
28/08/17 29,0 4,1 0,0 0,43 8 138,1
27/08/17 27,1 5,9 0,0 0,39 7 139,9
26/08/17 27,2 4,2 0,0 0,46 6 131,8
25/08/17 27,3 5,3 0,0 0,45 5 95,8
24/08/17 24,8 7,0 0,0 0,50 4 73,7
23/08/17 29,6 5,7 0,0 0,44 3 50,8
22/08/17 28,0 4,9 0,0 0,42 2 23,4
21/08/17 25,0 5,1 0,0 0,42 1 38,0
20/08/17 20,9 6,8 5,3 0,48 0 24,1
19/08/17 19,9 9,3 2,3 0,50 0 60,1
18/08/17 21,5 7,3 17,5 0,63 0 69,8
17/08/17 19,8 7,7 2,3 0,82 0 68,4
16/08/17 24,8 6,5 0,0 0,55 1 79,8
15/08/17 24,1 5,7 1,5 0,67 0 52,6
14/08/17 28,4 6,7 0,0 0,40 1 80,5
13/08/17 23,5 5,3 0,5 0,48 0 15,9
12/08/17 21,4 7,2 1,8 0,62 0 34,5
11/08/17 22,8 4,7 1,0 0,48 0 64,4
10/08/17 18,4 0,8 7,1 0,74 0 27,9
09/08/17 24,1 9,2 0,0 0,41 1 92,3
08/08/17 18,2 6,7 6,1 0,76 0 61,0
07/08/17 26,3 6,4 0,0 0,37 1 59,8
06/08/17 24,7 6,6 0,5 0,43 0 70,6
05/08/17 21,9 6,5 5,6 0,56 0 91,1
04/08/17 23,4 11,1 0,0 0,51 1 124,4
03/08/17 24,2 13,6 4,3 0,45 0 136,2
02/08/17 25,9 9,6 2,3 0,45 0 131,3
01/08/17 25,0 3,9 0,0 0,35 4 139,5
31/07/17 27,0 9,1 0,0 0,40 3 122,5
30/07/17 24,4 12,0 0,0 0,49 2 82,6
29/07/17 24,2 9,9 0,0 0,64 1 44,3
28/07/17 20,6 9,8 3,8 0,63 0 30,6
27/07/17 22,1 8,4 1,0 0,51 0 21,8
26/07/17 25,6 8,7 1,3 0,48 0 47,7
25/07/17 22,3 7,3 6,1 0,57 0 5,6
24/07/17 20,3 11,1 3,3 0,59 0 49,4
23/07/17 20,7 8,8 18,0 0,63 0 90,3
22/07/17 28,0 8,2 1,8 0,42 0 56,6
21/07/17 27,0 7,0 0,0 0,34 1 83,5
20/07/17 26,7 13,6 6,6 0,50 0 85,3
19/07/17 30,1 8,4 0,0 0,46 2 71,4
18/07/17 29,6 8,9 0,0 0,37 1 91,1
17/07/17 25,9 6,9 5,3 0,38 0 40,3
16/07/17 23,1 5,6 0,0 0,65 1 31,8
15/07/17 23,6 6,8 0,5 0,50 0 19,8
14/07/17 20,3 6,7 2,8 0,51 0 44,7
13/07/17 21,9 4,3 0,0 0,43 1 74,9
12/07/17 17,9 11,4 41,1 0,55 0 89,8
11/07/17 22,5 8,4 1,3 0,55 0 71,3
10/07/17 28,5 6,9 2,8 0,37 0 101,2
09/07/17 25,3 8,2 0,0 0,30 3 103,7
08/07/17 27,2 6,7 0,0 0,50 2 102,5
07/07/17 28,0 6,7 0,0 0,57 1 111,9
06/07/17 29,3 5,8 21,8 0,43 0 85,4
05/07/17 27,4 5,7 0,0 0,44 3 79,4
04/07/17 23,8 6,5 0,0 0,57 2 79,1
03/07/17 24,2 11,5 0,0 0,47 1 61,6
02/07/17 20,3 5,6 0,8 0,52 0 49,9
01/07/17 18,0 4,9 16,5 0,70 0 71,8
30/06/17 22,4 7,9 4,8 0,53 0 98,1
29/06/17 23,0 8,2 1,0 0,48 0 88,1
28/06/17 22,2 7,7 2,8 0,71 0 104,6
27/06/17 21,0 6,2 0,5 0,57 0 165,0
26/06/17 24,5 8,2 0,0 0,35 2 189,4
25/06/17 21,4 9,2 0,0 0,61 1 224,1
24/06/17 18,6 8,6 1,3 0,67 0 262,4
23/06/17 25,9 9,4 0,0 0,45 1 289,1
22/06/17 34,5 9,5 0,5 0,36 0 270,2
21/06/17 31,6 5,9 0,0 0,35 12 231,6
20/06/17 31,8 11,4 0,0 0,36 11 236,7
19/06/17 34,7 6,3 0,0 0,26 10 203,8
18/06/17 31,6 5,7 0,0 0,40 9 170,6
17/06/17 27,3 4,5 0,0 0,49 8 157,7
16/06/17 20,7 6,6 0,0 0,51 7 183,3
15/06/17 28,8 8,0 0,0 0,34 6 204,9
14/06/17 28,8 7,0 0,0 0,34 5 123,9
13/06/17 24,2 5,7 0,0 0,44 4 132,7
12/06/17 19,3 8,9 0,0 0,50 3 112,5
11/06/17 30,8 8,0 0,0 0,39 2 91,6
10/06/17 29,3 7,6 0,0 0,38 1 133,2
09/06/17 22,8 9,5 14,7 0,47 0 126,0
08/06/17 26,9 11,3 0,8 0,42 0 136,9
07/06/17 20,8 12,7 1,5 0,44 0 141,0
06/06/17 19,2 15,2 6,1 0,52 0 174,1
05/06/17 26,0 10,9 0,0 0,35 8 199,0
04/06/17 22,9 6,5 0,0 0,37 7 173,8
03/06/17 26,3 5,7 0,0 0,48 6 194,1
02/06/17 30,7 5,0 0,0 0,25 5 128,7
01/06/17 28,0 8,1 0,0 0,35 4 156,8
31/05/17 25,7 7,5 0,0 0,44 3 156,5
30/05/17 24,4 8,3 0,0 0,54 2 164,6
29/05/17 33,6 7,2 0,0 0,41 1 207,7
28/05/17 29,6 6,2 10,4 0,38 0 200,6
27/05/17 36,5 6,8 0,0 0,25 7 235,4
26/05/17 30,8 6,7 0,0 0,32 6 193,8
25/05/17 27,3 8,6 0,0 0,41 5 152,4
24/05/17 25,7 6,1 0,0 0,42 4 134,2
23/05/17 24,2 7,1 0,0 0,36 3 109,9
22/05/17 29,7 6,5 0,0 0,29 2 149,7
21/05/17 24,2 5,5 0,0 0,35 1 164,9
20/05/17 22,3 9,4 3,3 0,40 0 188,3
19/05/17 17,6 12,2 0,0 0,60 1 208,6
18/05/17 22,4 7,6 2,3 0,53 0 197,7
17/05/17 34,6 8,5 0,0 0,27 3 191,0
16/05/17 30,7 9,4 0,0 0,34 2 121,9
15/05/17 25,2 7,4 0,0 0,35 1 94,8
14/05/17 21,8 11,2 1,0 0,41 0 82,2
13/05/17 22,4 10,3 4,3 0,53 0 84,4
12/05/17 24,2 9,5 3,3 0,49 0 93,5
11/05/17 27,2 8,0 2,3 0,38 0 142,6
10/05/17 22,6 7,8 0,0 0,33 6 140,0
09/05/17 17,9 7,8 0,0 0,40 5 110,4
08/05/17 17,1 11,9 0,0 0,49 4 90,2
07/05/17 16,9 6,1 0,0 0,68 3 65,6
06/05/17 23,7 13,3 0,0 0,41 2 73,9
05/05/17 13,3 10,1 0,0 0,70 1 62,0
04/05/17 16,1 11,6 2,8 0,62 0 69,3
03/05/17 18,1 7,6 2,8 0,56 0 78,2
02/05/17 15,6 9,2 10,9 0,69 0 86,7
01/05/17 16,4 7,9 0,0 0,43 4 87,3
30/04/17 22,2 9,1 0,0 0,28 3 69,5
29/04/17 15,6 5,0 0,0 0,46 2 51,3
28/04/17 14,2 6,3 0,0 0,51 1 51,3
27/04/17 12,9 7,1 1,0 0,43 0 55,8
26/04/17 13,0 12,2 1,8 0,43 0 65,8
25/04/17 11,8 7,1 2,0 0,41 0 74,4
24/04/17 16,3 9,8 0,8 0,51 0 85,4
23/04/17 12,1 8,1 0,0 0,54 1 84,5
22/04/17 13,8 9,1 1,0 0,46 0 57,2
21/04/17 16,0 7,5 0,0 0,57 4 45,7
20/04/17 16,3 5,1 0,0 0,30 3 33,0
19/04/17 11,0 10,5 0,0 0,39 2 25,9
18/04/17 13,5 9,7 0,0 0,47 1 24,0
17/04/17 13,0 13,8 6,1 0,43 0 25,1
16/04/17 13,4 8,0 2,3 0,50 0 39,2
15/04/17 14,1 6,8 1,5 0,46 0 52,1
14/04/17 12,5 5,7 0,0 0,57 1 74,8
13/04/17 14,7 6,3 2,3 0,49 0 84,8
12/04/17 13,4 9,0 0,0 0,63 11 96,9
11/04/17 16,5 7,5 0,0 0,44 10 94,7
10/04/17 16,0 6,6 0,0 0,45 9 89,2
09/04/17 25,7 5,9 0,0 0,29 8 86,5
08/04/17 17,8 5,9 0,0 0,47 7 66,5
07/04/17 14,4 5,2 0,0 0,62 6 66,6
06/04/17 13,6 6,2 0,0 0,53 5 45,3
05/04/17 14,8 7,1 0,0 0,53 4 76,3
04/04/17 17,3 5,5 0,0 0,47 3 100,3
03/04/17 17,4 4,8 0,0 0,55 2 101,9
02/04/17 18,0 7,0 0,0 0,52 1 139,3
01/04/17 16,1 5,2 7,6 0,65 0 155,0
31/03/17 24,1 11,6 0,0 0,41 3 174,2
30/03/17 24,6 9,8 0,0 0,40 2 172,5
29/03/17 16,9 10,8 0,0 0,66 1 161,0
28/03/17 21,5 10,6 0,5 0,39 0 162,7
27/03/17 20,3 8,5 0,0 0,30 6 153,6
26/03/17 15,5 10,1 0,0 0,48 5 124,3
25/03/17 16,0 15,2 0,0 0,27 4 104,8
24/03/17 15,6 14,3 0,0 0,49 3 72,9
23/03/17 16,2 8,8 0,0 0,48 2 36,8
22/03/17 15,5 9,3 0,0 0,45 1 19,0
21/03/17 10,8 9,4 1,3 0,45 0 23,5
20/03/17 12,0 14,4 4,1 0,82 0 32,4
19/03/17 13,4 12,6 0,8 0,76 0 50,7
18/03/17 13,5 11,8 17,5 0,81 0 50,4
17/03/17 12,1 12,1 2,3 0,43 0 73,7
16/03/17 19,5 6,9 0,0 0,46 7 78,1
15/03/17 16,8 6,1 0,0 0,49 6 67,7
14/03/17 15,7 9,4 0,0 0,62 5 62,4
13/03/17 15,1 5,4 0,0 0,64 4 41,1
12/03/17 18,1 6,1 0,0 0,37 3 37,5
11/03/17 14,8 4,2 0,0 0,50 2 16,5
10/03/17 13,9 5,1 0,0 0,54 1 8,4
09/03/17 13,8 6,7 1,0 0,64 0 7,6
08/03/17 10,7 10,2 14,2 0,88 0 7,3
07/03/17 10,5 5,7 0,5 0,72 0 23,3
06/03/17 9,3 5,6 5,1 0,80 0 7,2
05/03/17 11,2 12,6 4,8 0,64 0 25,3
04/03/17 14,4 8,7 6,6 0,68 0 9,3
03/03/17 10,2 7,9 0,8 0,68 0 12,7
02/03/17 9,2 15,1 0,5 0,63 0 28,2
01/03/17 9,3 11,1 8,6 0,68 0 17,9
28/02/17 7,7 16,6 7,9 0,77 0 17,8
27/02/17 11,7 15,4 10,9 0,69 0 19,5
26/02/17 10,8 10,8 0,5 0,77 0 24,6
25/02/17 9,0 12,3 0,0 0,69 1 19,2
24/02/17 8,9 7,4 2,3 0,66 0 15,4
23/02/17 11,2 20,1 9,9 0,64 0 24,9
22/02/17 11,9 14,0 24,1 0,86 0 22,9
21/02/17 12,4 10,6 0,5 0,69 0 24,0
20/02/17 11,3 8,2 3,5 0,91 0 24,6
19/02/17 8,7 8,5 0,0 0,84 2 32,4
18/02/17 12,4 5,5 0,0 0,62 1 33,9
17/02/17 10,4 5,1 0,5 0,80 0 26,9
16/02/17 10,1 6,2 0,0 0,81 4 28,4
15/02/17 15,2 6,9 0,0 0,62 3 26,4
14/02/17 12,1 5,4 0,0 0,55 2 18,0
13/02/17 8,3 7,5 0,0 0,66 1 11,3
12/02/17 5,6 5,7 3,6 0,83 0 5,6
11/02/17 1,4 6,3 1,3 0,88 0 7,6
10/02/17 0,2 9,9 0,0 0,84 2 13,0
09/02/17 1,6 6,8 0,0 0,83 1 6,2
08/02/17 3,2 7,1 0,5 0,89 0 11,3
07/02/17 5,7 5,6 2,3 0,84 0 18,0
06/02/17 8,5 4,3 0,0 0,75 2 21,7
05/02/17 8,9 7,4 0,0 0,77 1 24,7
04/02/17 7,8 8,2 5,8 0,81 0 18,4
03/02/17 12,2 10,1 0,8 0,73 0 17,3
02/02/17 14,0 7,6 0,5 0,71 0 16,5
01/02/17 6,8 7,2 0,0 0,82 2 15,2
31/01/17 6,2 6,3 0,0 0,79 1 16,3
30/01/17 7,5 9,6 6,6 0,90 0 14,9
29/01/17 7,9 9,2 3,3 0,80 0 16,6
28/01/17 10,9 8,8 0,0 0,70 4 19,7
27/01/17 6,6 7,1 0,0 0,73 3 13,1
26/01/17 1,6 5,8 0,0 0,73 2 11,1
25/01/17 1,2 5,3 0,0 0,79 1 11,5
24/01/17 3,0 3,6 0,5 0,93 0 12,4
23/01/17 3,6 4,3 0,0 0,84 4 16,9
22/01/17 3,5 2,5 0,0 0,67 3 15,9
21/01/17 5,4 4,0 0,0 0,62 2 14,3
20/01/17 4,8 4,3 0,0 0,52 1 10,6
19/01/17 3,8 5,3 0,5 0,60 0 6,0
18/01/17 -0,3 4,4 0,0 0,83 3 5,6
17/01/17 0,5 4,5 0,0 0,82 2 3,7
16/01/17 1,0 4,9 0,0 0,89 1 10,0
15/01/17 3,5 3,6 1,8 0,91 0 8,5
14/01/17 4,4 7,2 3,8 0,80 0 9,5
13/01/17 4,7 8,4 19,3 0,80 0 9,2
12/01/17 8,1 10,2 17,5 0,72 0 12,9
11/01/17 10,0 11,6 0,5 0,71 0 13,4
10/01/17 6,8 8,6 3,8 0,93 0 10,3
09/01/17 5,7 8,0 2,8 0,95 0 16,0
08/01/17 5,6 1,3 3,3 0,94 0 17,9
07/01/17 1,3 8,0 0,5 0,76 0 19,7
06/01/17 0,6 6,6 0,0 0,70 2 19,9
05/01/17 4,1 7,6 0,0 0,63 1 16,9
04/01/17 7,0 9,8 0,8 0,70 0 11,9
03/01/17 5,9 9,1 0,5 0,87 0 6,2
02/01/17 5,3 7,1 0,0 0,85 1 5,8
01/01/17 0,8 8,9 1,0 0,93 0 5,0
31/12/16 2,0 6,7 0,5 0,95 0 4,2
30/12/16 3,2 4,6 0,5 0,91 0 3,7
29/12/16 0,2 2,3 0,0 0,93 3 6,1
28/12/16 5,2 4,7 0,0 0,91 2 4,9
27/12/16 9,4 5,4 0,0 0,83 1 3,2
26/12/16 11,6 10,9 1,5 0,63 0 5,5
25/12/16 11,6 11,2 1,8 0,88 0 3,0
24/12/16 9,1 11,8 1,5 0,80 0 5,6
23/12/16 8,4 12,0 1,3 0,87 0 5,5
22/12/16 7,0 6,3 4,8 0,93 0 4,9
21/12/16 7,1 9,7 3,8 0,79 0 7,7
20/12/16 4,6 4,3 0,0 0,84 4 10,3
19/12/16 8,7 3,6 0,0 0,79 3 9,4
18/12/16 8,8 4,2 0,0 0,90 2 6,7
17/12/16 7,8 3,2 0,0 0,91 1 6,0
16/12/16 8,8 3,4 0,8 0,84 0 4,4
15/12/16 7,4 5,2 0,0 0,94 2 7,3
14/12/16 11,0 4,0 0,0 0,88 1 10,0
13/12/16 8,0 5,5 1,5 0,88 0 17,0
12/12/16 8,2 5,9 0,0 0,90 1 22,7
11/12/16 9,9 13,8 3,3 0,83 0 24,3
10/12/16 8,8 8,4 0,5 0,89 0 22,7
09/12/16 12,2 8,2 0,0 0,81 5 28,1
08/12/16 10,4 9,9 0,0 0,66 4 23,8
07/12/16 10,0 9,7 0,0 0,77 3 14,3
06/12/16 6,8 3,1 0,0 0,84 2 9,4
05/12/16 5,6 2,4 0,0 0,70 1 10,8
04/12/16 4,4 4,1 0,5 0,65 0 10,4
03/12/16 6,8 2,9 0,0 0,80 1 13,9
02/12/16 10,4 9,1 1,8 0,86 0 17,2
01/12/16 7,8 5,7 0,0 0,87 10 26,9
30/11/16 6,3 6,1 0,0 0,71 9 33,5
29/11/16 4,1 3,2 0,0 0,64 8 38,8
28/11/16 5,3 6,8 0,0 0,59 7 39,7
27/11/16 10,0 5,5 0,0 0,72 6 44,5
26/11/16 5,1 3,9 0,0 0,81 5 29,0
25/11/16 8,8 9,5 0,0 0,57 4 37,4
24/11/16 10,0 14,5 0,0 0,73 3 31,7
23/11/16 12,2 7,9 0,0 0,83 2 16,5
22/11/16 14,0 10,2 0,0 0,67 1 16,3
21/11/16 14,2 8,8 5,6 0,81 0 1,8
20/11/16 12,8 25,4 6,6 0,66 0 8,5
19/11/16 8,3 9,5 0,0 0,78 1 5,6
18/11/16 8,8 14,2 13,7 0,81 0 2,0
17/11/16 11,4 16,5 10,9 0,83 0 2,5
16/11/16 14,0 8,0 10,9 0,85 0 6,7
15/11/16 12,2 8,2 3,6 0,95 0 0,6
14/11/16 6,3 6,9 3,3 0,92 0 5,9
13/11/16 6,0 3,6 2,0 0,92 0 9,8
12/11/16 5,7 4,7 1,8 0,84 0 10,2
11/11/16 7,2 8,9 0,0 0,70 1 10,5
10/11/16 8,0 5,4 10,2 0,89 0 4,5
09/11/16 5,5 4,1 8,4 0,90 0 4,4
08/11/16 8,0 7,1 0,5 0,73 0 7,8
07/11/16 6,5 7,0 1,3 0,88 0 4,5
06/11/16 8,0 8,5 4,3 0,88 0 9,6
05/11/16 10,4 6,2 1,5 0,73 0 14,4
04/11/16 11,0 6,8 1,3 0,75 0 19,4
03/11/16 11,9 6,0 0,5 0,78 0 24,1
02/11/16 12,0 5,1 3,3 0,72 0 25,5
01/11/16 14,8 8,4 0,0 0,83 4 31,8
31/10/16 17,5 2,8 0,0 0,66 3 29,6
30/10/16 16,4 4,0 0,0 0,67 2 26,0
29/10/16 16,3 6,0 0,0 0,69 1 22,0
28/10/16 14,3 6,4 0,5 0,85 0 17,0
27/10/16 14,6 7,1 0,0 0,82 6 25,9
26/10/16 13,8 4,6 0,0 0,75 5 23,9
25/10/16 10,8 3,2 0,0 0,85 4 25,3
24/10/16 10,2 5,0 0,0 0,85 3 17,0
23/10/16 10,8 4,7 0,0 0,76 2 14,1
22/10/16 12,4 6,8 0,0 0,69 1 19,0
21/10/16 12,4 4,4 0,5 0,75 0 29,1
20/10/16 13,5 10,3 1,0 0,81 0 14,9
19/10/16 12,4 9,0 14,0 0,75 0 11,0
18/10/16 13,2 10,0 4,8 0,86 0 21,6
17/10/16 18,1 7,1 0,0 0,70 2 27,9
16/10/16 21,7 7,7 0,0 0,57 1 44,3
15/10/16 16,1 8,3 7,6 0,72 0 45,5
14/10/16 14,6 5,8 4,6 0,62 0 56,6
13/10/16 13,6 8,6 0,0 0,60 10 74,8
12/10/16 11,3 7,9 0,0 0,70 9 70,0
11/10/16 14,9 6,0 0,0 0,55 8 78,3
10/10/16 15,8 9,4 0,0 0,51 7 86,6
09/10/16 15,9 5,7 0,0 0,50 6 78,6
08/10/16 16,4 6,8 0,0 0,53 5 57,9
07/10/16 14,8 6,6 0,0 0,69 4 45,0
06/10/16 14,3 10,2 0,0 0,53 3 37,1
05/10/16 15,7 9,8 0,0 0,47 2 41,0
04/10/16 17,3 6,5 0,0 0,63 1 31,0
03/10/16 18,9 6,5 5,6 0,65 0 55,5
02/10/16 16,2 10,0 3,8 0,72 0 81,6
01/10/16 19,9 6,9 1,5 0,65 0 90,8
30/09/16 20,4 8,1 0,0 0,47 1 112,3
29/09/16 19,0 11,1 1,8 0,62 0 134,4
28/09/16 24,4 9,8 0,0 0,47 2 143,8
27/09/16 23,8 7,0 0,0 0,41 1 123,8
26/09/16 20,6 4,2 0,5 0,57 0 110,3
25/09/16 25,5 8,0 0,0 0,50 8 123,3
24/09/16 26,0 8,7 0,0 0,41 7 105,3
23/09/16 22,4 5,9 0,0 0,48 6 84,2
22/09/16 23,5 4,7 0,0 0,53 5 66,7
21/09/16 22,9 4,2 0,0 0,50 4 74,7
20/09/16 21,4 5,1 0,0 0,47 3 40,2
19/09/16 20,5 4,2 0,0 0,55 2 59,5
18/09/16 20,1 8,5 0,0 0,64 1 88,2
17/09/16 22,6 6,3 1,5 0,55 0 100,5
16/09/16 22,4 9,4 0,0 0,57 1 123,6
15/09/16 31,1 8,4 7,4 0,41 0 152,6
14/09/16 33,7 4,8 0,0 0,32 10 166,0
13/09/16 33,4 5,8 0,0 0,35 9 169,8
12/09/16 28,7 4,3 0,0 0,41 8 154,9
11/09/16 22,6 4,3 0,0 0,66 7 146,4
10/09/16 27,6 8,1 0,0 0,38 6 148,0
09/09/16 24,9 5,5 0,0 0,47 5 110,0
08/09/16 29,5 8,0 0,0 0,41 4 116,1
07/09/16 28,3 4,9 0,0 0,34 3 76,2
06/09/16 24,9 5,2 0,0 0,62 2 80,1
05/09/16 22,9 3,8 0,0 0,50 1 88,7
04/09/16 21,2 10,6 2,5 0,56 0 112,0
03/09/16 25,3 8,4 0,8 0,53 0 119,1
02/09/16 23,4 7,5 1,5 0,52 0 128,2
01/09/16 25,5 7,6 0,0 0,40 3 148,7
31/08/16 26,9 5,1 0,0 0,39 2 144,7
30/08/16 25,3 5,9 0,0 0,39 1 159,9
29/08/16 23,4 7,3 1,0 0,55 0 175,2
28/08/16 25,1 7,6 0,0 0,50 6 185,8
27/08/16 29,5 7,7 0,0 0,56 5 160,6
26/08/16 29,2 7,5 0,0 0,56 4 131,8
25/08/16 34,3 5,8 0,0 0,39 3 147,6
24/08/16 33,7 5,8 0,0 0,35 2 135,9
23/08/16 29,9 4,9 0,0 0,43 1 129,3
22/08/16 24,2 9,5 1,3 0,47 0 163,1
21/08/16 20,3 12,2 5,8 0,66 0 183,7
20/08/16 25,0 11,3 0,0 0,39 9 212,5
19/08/16 25,1 9,8 0,0 0,56 8 190,7
18/08/16 26,4 7,7 0,0 0,36 7 182,9
17/08/16 25,8 9,7 0,0 0,33 6 168,3
16/08/16 23,8 9,2 0,0 0,46 5 104,0
15/08/16 24,0 7,9 0,0 0,44 4 94,0
14/08/16 24,6 7,4 0,0 0,50 3 46,4
13/08/16 23,3 8,6 0,0 0,58 2 51,6
12/08/16 23,2 8,5 0,0 0,58 1 73,9
11/08/16 15,5 12,2 6,9 0,81 0 82,2
10/08/16 17,2 8,3 17,0 0,53 0 103,4
09/08/16 18,2 5,9 7,1 0,47 0 123,6
08/08/16 22,4 9,4 0,0 0,43 4 102,3
07/08/16 24,7 9,8 0,0 0,61 3 93,3
06/08/16 23,7 7,9 0,0 0,42 2 47,7
05/08/16 23,4 6,2 0,0 0,47 1 19,9
04/08/16 22,3 10,5 1,0 0,63 0 34,5
03/08/16 19,5 9,0 11,7 0,89 0 1,5
02/08/16 19,1 7,0 13,5 0,79 0 2,2
01/08/16 21,0 5,8 8,4 0,55 0 24,3
31/07/16 22,5 4,9 2,3 0,46 0 45,0
30/07/16 22,8 7,7 0,5 0,68 0 68,5
29/07/16 23,2 9,0 6,1 0,63 0 81,8
28/07/16 25,4 7,6 1,5 0,54 0 110,0
27/07/16 24,6 8,1 0,0 0,60 5 80,5
26/07/16 25,4 5,2 0,0 0,47 4 82,6
25/07/16 24,3 6,7 0,0 0,58 3 153,9
24/07/16 28,2 4,9 0,0 0,45 2 175,3
23/07/16 27,7 6,4 0,0 0,51 1 211,1
22/07/16 27,0 6,9 5,6 0,54 0 194,4
21/07/16 28,9 5,7 0,0 0,49 4 208,3
20/07/16 36,4 11,1 0,0 0,33 3 201,3
19/07/16 33,5 5,7 0,0 0,33 2 135,3
18/07/16 29,1 7,2 0,0 0,41 1 94,9
17/07/16 24,6 4,3 3,8 0,56 0 97,7
16/07/16 25,6 6,5 0,0 0,59 3 133,9
15/07/16 22,9 5,3 0,0 0,42 2 183,5
14/07/16 21,6 8,0 0,0 0,39 1 194,0
13/07/16 18,5 7,1 1,5 0,49 0 196,5
12/07/16 24,2 9,9 0,8 0,46 0 210,2
11/07/16 23,9 12,2 0,0 0,46 6 202,8
10/07/16 31,3 11,3 0,0 0,34 5 182,1
09/07/16 26,9 7,8 0,0 0,48 4 130,7
08/07/16 22,2 8,5 0,0 0,54 3 123,6
07/07/16 23,5 7,0 0,0 0,47 2 101,7
06/07/16 22,7 5,8 0,0 0,41 1 79,3
05/07/16 20,0 9,4 0,5 0,56 0 59,4
04/07/16 26,4 4,5 0,0 0,43 2 42,1
03/07/16 21,6 8,1 0,0 0,46 1 23,5
02/07/16 19,4 10,1 3,8 0,44 0 12,7
01/07/16 20,2 7,9 5,6 0,75 0 3,1
30/06/16 19,1 9,4 5,3 0,78 0 3,0
29/06/16 22,9 10,5 9,4 0,47 0 27,3
28/06/16 25,4 7,2 2,3 0,45 0 12,8
27/06/16 18,9 7,7 6,6 0,63 0 31,1
26/06/16 19,9 6,8 9,9 0,57 0 4,5
25/06/16 19,9 6,8 3,3 0,63 0 32,8
24/06/16 24,0 4,9 0,5 0,42 0 54,6
23/06/16 32,2 6,4 5,6 0,51 0 47,7
22/06/16 28,7 7,3 0,5 0,53 0 37,7
21/06/16 20,7 5,7 5,6 0,80 0 30,6
20/06/16 18,0 8,4 13,0 0,73 0 13,8
19/06/16 20,7 4,4 0,8 0,50 0 10,7
18/06/16 18,2 7,1 3,8 0,69 0 4,6
17/06/16 22,0 5,1 7,1 0,52 0 4,3
16/06/16 23,5 6,0 1,0 0,48 0 34,3
15/06/16 20,3 6,8 7,9 0,60 0 42,4
14/06/16 21,6 8,5 3,3 0,56 0 80,5
13/06/16 19,6 5,9 8,1 0,70 0 105,4
12/06/16 24,0 7,2 22,6 0,51 0 168,0
11/06/16 23,1 6,4 0,0 0,55 8 206,3
10/06/16 23,8 6,0 0,0 0,38 7 228,6
09/06/16 23,2 8,5 0,0 0,32 6 219,7
08/06/16 24,2 9,1 0,0 0,42 5 185,9
07/06/16 29,6 10,2 0,0 0,31 4 165,7
06/06/16 28,7 7,8 0,0 0,39 3 93,8
05/06/16 30,2 8,1 0,0 0,43 2 68,9
04/06/16 26,8 4,3 0,0 0,54 1 14,9
03/06/16 21,5 5,7 2,0 0,65 0 18,5
02/06/16 20,7 10,8 0,0 0,76 1 52,0
01/06/16 22,9 6,3 8,9 0,72 0 68,7
31/05/16 21,4 6,0 0,0 0,56 1 91,7
30/05/16 16,3 8,6 69,3 0,92 0 88,4
29/05/16 20,2 7,8 15,0 0,71 0 103,0
28/05/16 24,9 7,5 0,0 0,47 5 92,5
27/05/16 23,1 9,2 0,0 0,48 4 78,5
26/05/16 24,5 7,5 0,0 0,45 3 93,0
25/05/16 21,4 4,4 0,0 0,54 2 82,8
24/05/16 17,1 7,3 0,0 0,58 1 71,5
23/05/16 14,4 5,9 19,6 0,80 0 86,3
22/05/16 19,2 6,4 18,3 0,74 0 103,8
21/05/16 27,6 9,6 0,0 0,40 2 113,3
20/05/16 19,8 9,2 0,0 0,62 1 80,3
19/05/16 22,3 6,9 3,3 0,42 0 90,1
18/05/16 21,8 8,9 0,5 0,43 0 151,8
17/05/16 19,9 6,4 0,0 0,45 2 188,5
16/05/16 15,7 5,4 0,0 0,48 1 216,2
15/05/16 13,3 6,6 0,5 0,48 0 222,5
14/05/16 14,3 9,0 0,5 0,45 0 264,2
13/05/16 26,6 14,1 0,0 0,26 10 306,9
12/05/16 29,1 10,7 0,0 0,29 9 297,0
11/05/16 29,5 8,3 0,0 0,34 8 286,3
10/05/16 24,4 5,8 0,0 0,51 7 274,2
09/05/16 29,6 8,4 0,0 0,25 6 276,7
08/05/16 29,8 7,2 0,0 0,19 5 223,6
07/05/16 30,0 9,5 0,0 0,21 4 201,3
06/05/16 28,0 9,6 0,0 0,29 3 157,8
05/05/16 23,6 7,7 0,0 0,24 2 121,5
04/05/16 20,4 6,3 0,0 0,31 1 86,5
03/05/16 16,9 6,5 1,8 0,35 0 72,9
02/05/16 21,0 7,5 0,0 0,26 3 67,8
01/05/16 17,1 8,2 0,0 0,34 2 39,2
30/04/16 14,2 9,8 0,0 0,49 1 17,2
29/04/16 12,2 12,5 2,5 0,64 0 6,4
28/04/16 11,0 12,0 4,1 0,54 0 24,9
27/04/16 10,0 7,8 7,1 0,63 0 37,5
26/04/16 10,4 8,9 7,1 0,58 0 73,0
25/04/16 10,4 12,2 5,1 0,63 0 96,4
24/04/16 11,1 11,7 1,5 0,43 0 123,1
23/04/16 12,8 9,8 0,5 0,39 0 136,9
22/04/16 15,8 9,4 0,0 0,48 5 135,7
21/04/16 20,6 10,7 0,0 0,33 4 129,8
20/04/16 17,5 8,9 0,0 0,36 3 81,5
19/04/16 16,4 10,4 0,0 0,44 2 85,1
18/04/16 15,0 11,1 0,0 0,40 1 62,4
17/04/16 13,4 7,9 0,5 0,53 0 58,1
16/04/16 12,8 10,2 0,5 0,58 0 59,4
15/04/16 14,7 11,2 18,8 0,65 0 51,1
14/04/16 22,1 7,7 0,0 0,33 1 78,3
13/04/16 19,4 7,1 3,3 0,45 0 65,3
12/04/16 20,0 6,8 0,5 0,39 0 56,5
11/04/16 23,5 8,1 1,8 0,35 0 52,3
10/04/16 18,2 7,1 2,0 0,49 0 52,7
09/04/16 19,1 10,5 0,8 0,34 0 45,1
08/04/16 15,4 4,0 0,5 0,53 0 14,6
07/04/16 11,7 11,4 2,8 0,55 0 25,8
06/04/16 12,6 14,5 4,3 0,64 0 42,8
05/04/16 15,2 5,8 1,0 0,60 0 49,8
04/04/16 18,4 11,7 1,3 0,46 0 55,1
03/04/16 24,4 8,6 2,5 0,41 0 57,3
02/04/16 15,6 6,6 0,0 0,54 3 44,8
01/04/16 17,0 7,1 0,0 0,40 2 33,0
31/03/16 12,7 11,3 0,0 0,56 1 41,3
30/03/16 13,8 16,1 2,3 0,50 0 12,7
29/03/16 12,8 15,3 2,3 0,54 0 19,4
28/03/16 13,8 18,9 3,3 0,46 0 34,7
27/03/16 15,2 17,5 7,1 0,44 0 37,5
26/03/16 17,1 15,0 0,5 0,56 0 51,9
25/03/16 10,1 9,5 6,1 0,71 0 37,3
24/03/16 10,8 10,3 0,5 0,66 0 41,6
23/03/16 11,4 9,9 0,0 0,64 2 36,9
22/03/16 12,7 7,6 0,0 0,66 1 41,7
21/03/16 10,6 5,0 1,3 0,65 0 48,3
20/03/16 11,4 8,0 0,0 0,59 13 65,3
19/03/16 8,9 8,2 0,0 0,65 12 71,3
18/03/16 7,4 5,3 0,0 0,78 11 76,4
17/03/16 12,9 9,4 0,0 0,45 10 82,5
16/03/16 9,4 10,8 0,0 0,49 9 73,9
15/03/16 8,4 9,7 0,0 0,71 8 70,5
14/03/16 11,4 9,5 0,0 0,38 7 82,2
13/03/16 11,1 10,6 0,0 0,55 6 70,6
12/03/16 12,3 6,8 0,0 0,51 5 61,0
11/03/16 10,9 8,1 0,0 0,63 4 54,2
10/03/16 11,5 7,8 0,0 0,50 3 47,0
09/03/16 10,9 12,5 0,0 0,42 2 33,9
08/03/16 8,0 7,6 0,0 0,68 1 14,0
07/03/16 9,1 5,0 0,5 0,65 0 7,8
06/03/16 8,6 5,8 0,0 0,71 1 4,8
05/03/16 7,7 2,9 0,5 0,75 0 14,8
04/03/16 6,3 9,6 14,2 0,84 0 31,8
03/03/16 9,9 8,1 1,3 0,53 0 47,8
02/03/16 8,8 12,3 10,4 0,61 0 49,7
01/03/16 7,8 11,9 6,1 0,74 0 53,0
29/02/16 8,2 10,9 0,0 0,44 4 59,2
28/02/16 7,9 15,0 0,0 0,45 3 40,6
27/02/16 7,8 10,4 0,0 0,44 2 26,4
26/02/16 7,2 3,5 0,0 0,59 1 25,0
25/02/16 5,9 7,8 0,3 0,67 0 9,2
24/02/16 7,2 6,8 0,5 0,68 0 4,4
23/02/16 7,6 7,6 7,9 0,72 0 6,6
22/02/16 11,9 14,6 14,7 0,79 0 11,4
21/02/16 12,9 19,1 0,8 0,79 0 24,6
20/02/16 11,3 13,1 9,7 0,76 0 15,5
19/02/16 9,4 9,9 2,8 0,55 0 18,0
18/02/16 5,8 8,5 0,0 0,67 3 18,7
17/02/16 5,8 5,6 0,0 0,67 2 17,1
16/02/16 6,4 4,6 0,0 0,53 1 17,9
15/02/16 7,1 12,3 2,8 0,61 0 12,3
14/02/16 3,5 7,9 10,4 0,90 0 13,2
13/02/16 5,5 6,5 0,5 0,75 0 7,5
12/02/16 8,0 6,1 0,8 0,65 0 4,6
11/02/16 8,7 7,8 0,0 0,70 1 15,5
10/02/16 7,8 10,6 7,6 0,76 0 16,1
09/02/16 8,9 17,1 11,4 0,68 0 18,5
08/02/16 10,4 21,8 14,0 0,64 0 20,9
07/02/16 11,5 13,8 2,0 0,64 0 21,0
06/02/16 11,7 11,6 0,0 0,71 2 16,3
05/02/16 11,9 9,6 0,0 0,81 1 45,2
04/02/16 12,0 15,8 4,5 0,01 0 61,0
01/02/16 12,7 16,9 1,8 0,01 0 63,7
31/01/16 12,0 9,4 4,8 0,01 0 52,2
30/01/16 10,0 16,2 22,1 0,01 0 78,6
29/01/16 10,3 15,8 0,0 0,01 1 66,5
28/01/16 10,8 10,0 3,8 0,01 0 51,6
27/01/16 12,3 16,1 6,3 0,01 0 41,5
26/01/16 12,3 14,5 1,3 0,01 0 49,3
25/01/16 15,2 10,2 0,0 0,25 1 33,8
24/01/16 9,4 8,8 2,8 0,54 0 14,0
23/01/16 8,2 8,2 0,0 0,30 1 23,8
22/01/16 4,9 7,6 6,6 0,30 0 13,4
21/01/16 2,7 4,2 0,0 0,61 1 23,0
20/01/16 3,3 5,0 0,5 0,48 0 19,6
19/01/16 1,4 5,0 0,0 0,59 2 17,6
18/01/16 0,1 1,9 0,0 0,52 1 13,8
17/01/16 3,0 5,4 3,3 0,42 0 14,1
16/01/16 4,9 9,0 1,0 0,25 0 11,7
15/01/16 4,0 10,5 1,8 0,35 0 15,6
14/01/16 6,0 13,1 7,6 0,42 0 20,7
13/01/16 6,6 7,8 7,1 0,51 0 24,1
12/01/16 7,6 12,2 6,1 0,50 0 20,2
11/01/16 6,8 8,9 5,1 0,53 0 18,7
10/01/16 10,0 11,4 1,0 0,64 0 18,7
09/01/16 8,5 9,5 0,0 0,72 2 7,9
08/01/16 8,4 9,8 0,0 0,74 1 9,3
07/01/16 7,7 12,2 12,2 0,75 0 4,8
06/01/16 7,5 3,9 2,0 0,82 0 5,8
05/01/16 8,6 6,4 0,0 0,81 1 6,0
04/01/16 7,9 7,3 5,1 0,88 0 8,7
03/01/16 8,4 8,7 8,9 0,78 0 12,9
02/01/16 8,2 6,2 4,8 0,84 0 17,5
01/01/16 6,9 7,8 0,0 0,85 1 25,0
31/12/15 10,6 11,4 2,0 0,68 0 34,7
30/12/15 10,4 9,6 0,0 0,76 5 40,9
29/12/15 11,0 6,8 0,0 0,81 4 46,5
28/12/15 12,0 6,0 0,0 0,71 3 42,1
27/12/15 13,2 12,0 0,0 0,79 2 36,2
26/12/15 14,5 12,0 0,0 0,79 1 27,6
25/12/15 13,2 11,5 0,8 0,83 0 24,1
24/12/15 13,5 14,8 1,0 0,73 0 22,0
23/12/15 13,0 16,3 1,5 0,69 0 21,7
22/12/15 13,9 17,7 2,3 0,74 0 28,0
21/12/15 12,2 17,8 2,3 0,75 0 27,0
20/12/15 13,6 9,0 0,0 0,79 4 25,8
19/12/15 14,1 8,5 0,0 0,86 3 20,7
18/12/15 13,2 7,7 0,0 0,81 2 14,1
17/12/15 15,6 8,8 0,0 0,79 1 16,5
16/12/15 12,7 8,5 4,8 0,91 0 2,3
15/12/15 9,9 4,8 0,0 0,90 2 9,1
14/12/15 9,2 5,9 0,0 0,87 1 13,7
13/12/15 11,2 13,6 6,1 0,84 0 12,9
12/12/15 11,4 16,1 0,5 0,82 0 23,3
11/12/15 8,8 12,4 9,9 0,84 0 28,0
10/12/15 8,3 10,9 0,0 0,75 2 40,2
09/12/15 9,8 7,9 0,0 0,74 1 21,6
08/12/15 12,4 9,5 3,8 0,79 0 24,6
07/12/15 13,9 6,8 0,8 0,79 0 29,5
06/12/15 12,3 15,5 0,0 0,75 2 26,9
05/12/15 8,8 15,7 0,0 0,67 1 26,6
04/12/15 10,8 11,9 5,3 0,75 0 16,4
03/12/15 12,3 8,3 0,0 0,74 2 15,9
02/12/15 12,8 9,0 0,0 0,71 1 11,1
01/12/15 12,8 8,1 4,1 0,82 0 5,9
30/11/15 13,3 16,5 17,5 0,67 0 8,0
29/11/15 12,8 17,4 7,6 0,78 0 7,5
28/11/15 8,2 15,9 5,1 0,72 0 9,7
27/11/15 6,4 9,8 0,0 0,87 2 10,4
26/11/15 9,3 2,2 0,0 0,75 1 7,0
25/11/15 6,8 6,6 6,9 0,87 0 9,8
24/11/15 5,6 14,9 8,4 0,82 0 6,3
23/11/15 6,6 5,9 0,0 0,76 1 26,6
22/11/15 5,5 5,3 0,5 0,80 0 1,9
21/11/15 5,7 10,4 2,8 0,79 0 10,7
20/11/15 9,1 7,0 0,8 0,72 0 4,5
19/11/15 13,6 15,7 10,9 0,70 0 13,5
18/11/15 14,9 18,2 0,0 0,66 1 30,6
17/11/15 15,6 16,8 10,4 0,70 0 20,8
16/11/15 13,5 12,2 1,0 0,77 0 14,8
15/11/15 15,7 15,5 9,4 0,78 0 20,7
14/11/15 11,0 13,5 7,6 0,74 0 19,8
13/11/15 13,9 10,4 2,3 0,57 0 29,6
12/11/15 15,8 6,9 0,0 0,75 1 17,7
11/11/15 14,3 8,1 3,8 0,77 0 13,5
10/11/15 15,2 11,3 0,0 0,73 1 11,5
09/11/15 17,2 12,1 1,8 0,69 0 17,8
08/11/15 16,8 7,6 0,5 0,80 0 21,5
07/11/15 19,0 10,7 5,8 0,85 0 22,5
06/11/15 17,8 8,7 1,8 0,79 0 27,0
05/11/15 15,9 5,8 2,8 0,85 0 31,0
04/11/15 17,1 9,6 0,0 0,72 3 37,7
03/11/15 17,2 3,9 0,0 0,66 2 32,9
02/11/15 16,0 3,9 0,0 0,68 1 29,0
01/11/15 17,0 2,8 0,5 0,71 0 30,5
31/10/15 17,1 4,5 0,0 0,65 4 37,6
30/10/15 16,1 5,3 0,0 0,73 3 35,0
29/10/15 16,4 6,2 0,0 0,71 2 33,6
28/10/15 14,4 3,9 0,0 0,82 1 34,1
27/10/15 19,5 4,3 0,5 0,64 0 30,8
26/10/15 17,4 4,9 0,0 0,68 1 24,8
25/10/15 15,1 3,4 0,5 0,61 0 23,1
24/10/15 15,7 4,7 0,0 0,71 2 22,0
23/10/15 15,6 5,5 0,0 0,58 1 18,6
22/10/15 14,6 7,2 2,3 0,81 0 13,0
21/10/15 13,0 7,7 1,8 0,80 0 11,8
20/10/15 13,3 8,7 1,0 0,79 0 9,5
19/10/15 12,8 4,3 0,5 0,89 0 3,9
18/10/15 11,2 3,9 0,0 0,76 1 9,1
17/10/15 11,4 3,4 0,5 0,86 0 13,3
16/10/15 8,2 3,3 5,1 0,94 0 23,6
15/10/15 7,2 6,5 4,8 0,92 0 32,7
14/10/15 7,3 5,6 7,1 0,84 0 40,1
13/10/15 6,4 12,6 0,0 0,77 4 43,5
12/10/15 11,8 6,0 0,0 0,61 3 43,6
11/10/15 13,2 8,6 0,0 0,56 2 29,5
10/10/15 14,7 8,7 0,0 0,70 1 23,2
09/10/15 17,6 4,8 0,5 0,62 0 23,5
08/10/15 16,5 5,4 1,8 0,65 0 28,0
07/10/15 17,8 9,0 0,5 0,82 0 46,3
06/10/15 18,6 4,9 11,7 0,89 0 60,9
05/10/15 17,2 6,1 1,0 0,74 0 80,6
04/10/15 19,6 5,5 0,0 0,60 10 110,0
03/10/15 20,2 3,8 0,0 0,54 9 115,9
02/10/15 18,9 6,6 0,0 0,47 8 129,6
01/10/15 17,7 9,9 0,0 0,49 7 129,4
30/09/15 18,7 8,8 0,0 0,46 6 117,6
29/09/15 18,8 11,6 0,0 0,49 5 96,1
28/09/15 17,6 9,8 0,0 0,57 4 69,5
27/09/15 19,6 9,7 0,0 0,48 3 51,6
26/09/15 18,3 7,8 0,0 0,51 2 27,6
25/09/15 18,1 5,5 0,0 0,58 1 23,6
24/09/15 16,7 9,9 1,5 0,78 0 29,8
23/09/15 15,3 5,0 17,3 0,86 0 26,5
22/09/15 17,7 6,6 14,2 0,75 0 27,9
21/09/15 19,8 9,0 3,3 0,57 0 34,6
20/09/15 20,8 5,2 0,0 0,49 1 57,3
19/09/15 18,9 8,3 0,5 0,65 0 43,3
18/09/15 19,4 10,0 2,3 0,67 0 38,1
17/09/15 16,6 12,9 10,9 0,81 0 33,7
16/09/15 19,8 9,3 7,6 0,77 0 48,8
15/09/15 17,9 15,6 0,5 0,52 0 67,2
14/09/15 20,5 12,5 3,8 0,68 0 72,0
13/09/15 21,1 7,7 4,1 0,62 0 80,0
12/09/15 21,9 6,7 10,9 0,61 0 82,9
11/09/15 23,1 4,7 0,0 0,44 4 94,5
10/09/15 21,3 8,1 0,0 0,47 3 66,5
09/09/15 21,2 10,3 0,0 0,50 2 56,0
08/09/15 19,9 5,7 0,0 0,61 1 29,1
07/09/15 18,2 4,5 0,5 0,70 0 17,8
06/09/15 17,8 6,5 0,5 0,54 0 25,1
05/09/15 17,6 6,2 9,4 0,62 0 3,2
04/09/15 16,9 9,0 13,7 0,70 0 16,4
03/09/15 17,7 6,8 2,3 0,63 0 43,4
02/09/15 20,8 3,6 8,1 0,53 0 58,0
01/09/15 21,1 5,4 0,8 0,52 0 38,3
31/08/15 30,8 7,1 10,9 0,53 0 35,2
30/08/15 28,5 7,8 6,6 0,68 0 31,8
29/08/15 27,4 6,0 0,0 0,42 2 27,3
28/08/15 23,0 6,3 0,0 0,52 1 17,9
27/08/15 18,7 10,4 9,9 0,79 0 37,0
26/08/15 28,0 9,8 4,3 0,54 0 74,9
25/08/15 21,4 10,9 16,0 0,51 0 103,3
24/08/15 24,6 9,9 5,3 0,59 0 125,8
23/08/15 29,1 8,0 30,0 0,33 0 131,8
22/08/15 30,3 5,7 0,0 0,31 4 121,4
21/08/15 29,2 5,3 0,0 0,44 3 101,2
20/08/15 28,6 7,5 0,0 0,38 2 76,2
19/08/15 25,0 6,8 0,0 0,46 1 38,9
18/08/15 19,0 7,0 4,3 0,67 0 19,8
17/08/15 16,0 4,0 12,2 0,85 0 53,4
16/08/15 19,4 8,4 1,0 0,61 0 77,2
15/08/15 22,0 4,1 4,3 0,70 0 87,8
14/08/15 27,7 9,4 20,8 0,59 0 109,4
13/08/15 32,1 14,4 7,4 0,46 0 158,3
12/08/15 28,0 9,5 0,0 0,47 8 170,9
11/08/15 27,3 6,9 0,0 0,51 7 171,2
10/08/15 30,2 4,3 0,0 0,40 6 184,4
09/08/15 26,2 4,6 0,0 0,51 5 161,3
08/08/15 28,5 7,0 0,0 0,38 4 214,7
07/08/15 31,2 6,0 0,0 0,46 3 209,9
06/08/15 30,4 7,8 0,0 0,42 2 200,9
05/08/15 30,6 6,5 0,0 0,32 1 187,0
04/08/15 23,5 7,1 3,8 0,49 0 157,7
03/08/15 33,0 10,2 0,0 0,32 4 151,3
02/08/15 29,3 5,5 0,0 0,33 3 108,8
01/08/15 25,2 5,3 0,0 0,37 2 77,8
31/07/15 23,6 7,3 0,0 0,38 1 55,5
30/07/15 19,6 6,1 2,8 0,58 0 34,0
29/07/15 19,3 11,1 1,5 0,50 0 69,5
28/07/15 20,2 11,7 0,0 0,49 1 79,3
27/07/15 20,4 13,4 3,8 0,60 0 86,7
26/07/15 23,7 8,9 3,3 0,43 0 121,1
25/07/15 19,0 9,6 12,7 0,69 0 110,6
24/07/15 26,5 7,1 0,0 0,41 4 110,2
23/07/15 25,3 5,3 0,0 0,38 3 80,3
22/07/15 24,9 6,9 0,0 0,45 2 105,0
21/07/15 27,4 8,7 0,0 0,49 1 111,1
20/07/15 25,6 5,6 2,3 0,75 0 82,4
19/07/15 23,8 6,7 5,3 0,51 0 84,2
18/07/15 25,8 7,8 1,3 0,45 0 92,0
17/07/15 29,3 11,3 0,5 0,49 0 99,3
16/07/15 28,0 8,2 0,5 0,50 0 99,6
15/07/15 21,6 7,1 2,3 0,80 0 99,9
14/07/15 20,2 6,7 14,2 0,85 0 114,4
13/07/15 19,8 7,1 4,3 0,74 0 100,5
12/07/15 21,6 9,5 0,8 0,56 0 133,0
11/07/15 31,0 7,2 0,0 0,27 2 151,8
10/07/15 27,6 5,5 0,0 0,32 1 146,2
09/07/15 20,4 6,1 1,0 0,43 0 186,2
08/07/15 19,3 10,4 16,0 0,59 0 232,0
07/07/15 26,3 9,8 0,0 0,45 14 277,0
06/07/15 28,5 7,6 0,0 0,35 13 301,5
05/07/15 30,6 8,5 0,0 0,43 12 300,9
04/07/15 35,7 6,1 0,0 0,27 11 285,6
03/07/15 33,3 9,8 0,0 0,44 10 261,1
02/07/15 33,5 6,7 0,0 0,46 9 223,8
01/07/15 37,8 6,8 0,0 0,30 8 212,4
30/06/15 31,8 5,9 0,0 0,30 7 175,4
29/06/15 26,8 6,8 0,0 0,41 6 161,2
28/06/15 26,4 7,4 0,0 0,44 5 132,0
27/06/15 24,9 5,4 0,0 0,42 4 102,6
26/06/15 28,0 5,5 0,0 0,35 3 81,9
25/06/15 26,9 6,0 0,0 0,38 2 53,9
24/06/15 24,9 6,8 0,0 0,40 1 32,6
23/06/15 16,5 5,7 2,5 0,65 0 9,7
22/06/15 16,2 6,8 21,6 0,69 0 44,5
21/06/15 21,4 10,0 1,5 0,52 0 94,7
20/06/15 18,1 5,4 2,8 0,52 0 128,4
19/06/15 16,4 4,7 1,0 0,66 0 153,3
18/06/15 19,2 7,1 4,6 0,50 0 195,7
17/06/15 26,0 9,1 0,0 0,41 5 229,4
16/06/15 22,5 11,3 0,0 0,34 4 243,0
15/06/15 22,5 11,3 0,0 0,34 3 255,7
14/06/15 24,6 8,9 0,0 0,45 2 241,9
13/06/15 25,2 10,2 0,0 0,38 1 250,5
12/06/15 31,6 5,9 0,5 0,33 0 245,4
11/06/15 28,2 9,2 0,0 0,28 5 245,3
10/06/15 24,4 12,9 0,0 0,31 4 162,2
09/06/15 18,3 11,8 0,0 0,44 3 135,6
08/06/15 20,4 14,1 0,0 0,41 2 132,1
07/06/15 22,1 10,9 0,0 0,37 1 91,3
06/06/15 22,6 8,0 0,5 0,28 0 106,4
05/06/15 36,5 13,9 23,6 0,29 0 94,0
04/06/15 26,2 6,5 0,0 0,35 2 55,8
03/06/15 20,4 9,4 0,0 0,44 1 26,2
02/06/15 18,8 15,7 1,8 0,64 0 37,9
01/06/15 19,3 8,0 0,0 0,41 1 73,6
31/05/15 17,5 12,3 12,7 0,65 0 79,1
30/05/15 18,9 10,3 2,0 0,37 0 104,8
29/05/15 18,3 12,0 3,3 0,45 0 136,9
28/05/15 19,8 9,0 0,0 0,38 3 148,9
27/05/15 22,6 7,6 0,0 0,38 2 144,1
26/05/15 18,9 8,1 0,0 0,38 1 134,4
25/05/15 18,4 7,6 0,5 0,46 0 111,6
24/05/15 24,6 6,9 0,0 0,24 1 95,2
23/05/15 19,2 10,5 0,8 0,51 0 61,9
22/05/15 22,8 6,6 0,0 0,40 2 64,7
21/05/15 20,6 5,7 0,0 0,38 1 41,8
20/05/15 17,5 9,3 2,0 0,42 0 63,1
19/05/15 17,2 16,9 3,3 0,54 0 89,1
18/05/15 17,6 12,2 1,3 0,55 0 119,2
17/05/15 20,2 7,6 0,0 0,34 1 128,7
16/05/15 17,0 7,5 1,5 0,54 0 161,1
15/05/15 18,7 11,3 0,0 0,41 6 187,5
14/05/15 19,8 7,4 0,0 0,37 5 189,7
13/05/15 21,1 10,9 0,0 0,37 4 184,9
12/05/15 19,6 7,3 0,0 0,41 3 149,6
11/05/15 29,2 8,9 0,0 0,30 2 129,0
10/05/15 24,2 7,5 0,0 0,40 1 77,6
09/05/15 18,6 13,3 1,0 0,44 0 49,5
08/05/15 23,4 4,8 0,0 0,36 1 18,6
07/05/15 16,4 10,1 1,3 0,59 0 25,3
06/05/15 17,3 14,9 2,8 0,45 0 55,6
05/05/15 23,4 17,0 13,7 0,41 0 58,7
04/05/15 23,6 9,2 1,5 0,44 0 54,5
03/05/15 17,4 7,9 4,6 0,46 0 66,7
02/05/15 19,5 6,0 0,0 0,35 2 88,5
01/05/15 17,3 8,4 0,0 0,34 1 69,9
30/04/15 16,0 9,8 2,0 0,33 0 58,9
29/04/15 16,3 11,1 1,5 0,40 0 93,7
28/04/15 13,4 9,0 0,8 0,32 0 96,9
27/04/15 15,2 13,0 0,0 0,37 1 98,5
26/04/15 17,2 6,6 4,3 0,65 0 110,8
25/04/15 16,8 9,0 3,3 0,68 0 147,3
24/04/15 24,3 8,6 0,0 0,34 13 181,4
23/04/15 18,4 6,8 0,0 0,46 12 178,4
22/04/15 15,9 11,2 0,0 0,52 11 185,5
21/04/15 21,2 11,0 0,0 0,33 10 194,5
20/04/15 21,6 9,7 0,0 0,29 9 194,0
19/04/15 18,8 9,6 0,0 0,36 8 192,3
18/04/15 17,7 11,8 0,0 0,32 7 187,6
17/04/15 15,6 11,7 0,0 0,43 6 188,6
16/04/15 18,6 10,1 0,0 0,32 5 164,0
15/04/15 25,9 8,4 0,0 0,33 4 162,8
14/04/15 23,2 9,3 0,0 0,34 3 139,8
13/04/15 16,0 10,5 0,0 0,40 2 114,0
12/04/15 18,7 12,7 0,0 0,37 1 100,5
11/04/15 14,6 11,3 2,3 0,58 0 78,7
10/04/15 24,9 6,2 0,0 0,25 6 91,5
09/04/15 21,4 5,0 0,0 0,39 5 61,3
08/04/15 15,9 6,3 0,0 0,56 4 54,5
07/04/15 15,1 5,9 0,0 0,49 3 33,8
06/04/15 14,2 3,9 0,0 0,54 2 36,7
05/04/15 13,9 7,6 0,0 0,39 1 15,7
04/04/15 10,5 11,7 2,5 0,52 0 7,1
03/04/15 12,0 6,4 0,0 0,46 1 10,7
02/04/15 10,1 10,2 7,9 0,45 0 4,6
01/04/15 10,7 10,4 0,0 0,47 1 22,8
31/03/15 12,0 16,0 14,2 0,49 0 15,3
30/03/15 10,9 11,9 2,3 0,46 0 16,0
29/03/15 11,8 17,1 20,8 0,77 0 21,2
28/03/15 11,8 13,3 3,3 0,74 0 30,1
27/03/15 10,9 6,7 0,0 0,56 1 36,4
26/03/15 8,1 10,8 4,3 0,70 0 31,2
25/03/15 7,9 4,4 11,7 0,85 0 30,0
24/03/15 13,1 6,6 1,0 0,50 0 32,7
23/03/15 12,7 5,6 0,0 0,53 2 27,9
22/03/15 9,2 10,1 0,0 0,57 1 37,1
21/03/15 10,4 13,1 1,3 0,65 0 41,1
20/03/15 7,2 5,4 0,0 0,84 5 47,1
19/03/15 10,8 5,2 0,0 0,76 4 51,1
18/03/15 9,8 6,2 0,0 0,79 3 58,5
17/03/15 18,9 6,6 0,0 0,38 2 67,5
16/03/15 15,3 5,1 0,0 0,47 1 60,4
15/03/15 9,4 8,2 0,5 0,65 0 61,3
14/03/15 7,6 9,3 0,0 0,65 11 72,4
13/03/15 10,6 8,9 0,0 0,49 10 89,4
12/03/15 14,6 6,7 0,0 0,41 9 102,3
11/03/15 12,2 7,3 0,0 0,43 8 95,2
10/03/15 12,8 8,1 0,0 0,53 7 87,2
09/03/15 13,7 6,3 0,0 0,65 6 80,0
08/03/15 18,4 9,3 0,0 0,37 5 67,0
07/03/15 15,1 12,2 0,0 0,39 4 53,3
06/03/15 10,1 7,1 0,0 0,60 3 14,8
05/03/15 10,5 4,6 0,0 0,59 2 23,2
04/03/15 7,7 7,8 0,0 0,69 1 28,6
03/03/15 8,0 12,1 8,9 0,77 0 18,4
02/03/15 8,7 11,6 1,0 0,54 0 28,4
01/03/15 12,0 13,3 5,6 0,55 0 22,0
28/02/15 10,8 13,5 0,0 0,53 2 18,4
27/02/15 8,8 6,4 0,0 0,58 1 7,1
26/02/15 9,8 9,6 5,8 0,85 0 1,2
25/02/15 7,6 8,6 3,3 0,78 0 2,0
24/02/15 9,1 14,5 1,3 0,67 0 11,1
23/02/15 10,3 13,7 5,3 0,60 0 12,1
22/02/15 7,7 13,4 1,8 0,67 0 17,3
21/02/15 7,2 8,8 4,3 0,75 0 19,3
20/02/15 6,6 9,3 13,7 0,80 0 24,2
19/02/15 7,0 10,4 0,0 0,73 15 43,0
18/02/15 5,6 5,9 0,0 0,82 14 49,2
17/02/15 9,5 6,1 0,0 0,65 13 48,5
16/02/15 9,2 6,2 0,0 0,69 12 45,0
15/02/15 8,9 7,4 0,0 0,65 11 41,3
14/02/15 10,6 6,5 0,0 0,70 10 35,7
13/02/15 12,0 10,2 0,0 0,55 9 41,4
12/02/15 7,3 4,2 0,0 0,74 8 30,8
11/02/15 6,5 5,4 0,0 0,75 7 35,7
10/02/15 7,4 4,9 0,0 0,83 6 36,1
09/02/15 7,2 3,5 0,0 0,82 5 38,4
08/02/15 7,5 12,9 0,0 0,56 4 37,6
07/02/15 6,1 6,5 0,0 0,74 3 24,9
06/02/15 3,2 13,9 0,0 0,62 2 20,7
05/02/15 1,6 10,2 0,0 0,71 1 11,6
04/02/15 6,3 8,7 0,3 0,70 0 8,0
03/02/15 5,6 4,5 0,0 0,81 1 4,0
02/02/15 4,1 5,8 4,3 0,86 0 2,1
01/02/15 4,6 7,5 1,5 0,89 0 5,9
31/01/15 5,2 7,6 2,5 0,78 0 6,6
30/01/15 3,1 7,3 0,0 0,87 1 10,7
29/01/15 6,3 13,2 1,3 0,69 0 12,2
28/01/15 6,3 19,0 8,4 0,47 0 17,9
27/01/15 6,9 3,9 0,0 0,52 1 15,7
26/01/15 7,7 5,6 1,3 0,53 0 15,7
25/01/15 4,6 6,7 0,0 0,60 1 16,5
24/01/15 5,7 8,8 2,8 0,60 0 14,2
23/01/15 -0,1 7,6 0,0 0,65 4 15,0
22/01/15 -0,1 7,5 0,0 0,65 3 16,5
21/01/15 2,0 4,0 0,0 0,65 2 22,4
20/01/15 3,0 4,8 0,0 0,64 1 9,3
19/01/15 2,4 3,4 2,5 0,67 0 6,5
18/01/15 3,6 8,9 9,4 0,68 0 7,2
17/01/15 5,8 8,4 0,0 0,63 1 19,3
16/01/15 8,4 12,0 0,5 0,62 0 29,9
15/01/15 9,8 19,2 5,6 0,64 0 25,4
14/01/15 6,0 13,7 2,8 0,67 0 24,0
13/01/15 10,5 18,4 8,6 0,71 0 24,3
12/01/15 10,0 17,1 1,0 0,70 0 24,1
11/01/15 7,2 10,5 0,0 0,66 1 15,6
10/01/15 13,4 17,8 3,6 0,64 0 18,7
09/01/15 13,3 20,1 13,0 0,68 0 16,8
08/01/15 8,2 12,0 24,4 0,87 0 10,0
07/01/15 6,8 9,8 0,0 0,78 1 9,9
06/01/15 4,0 8,3 1,0 0,77 0 10,4
05/01/15 2,7 7,5 0,0 0,86 1 10,1
04/01/15 5,6 4,1 0,5 0,82 0 7,1
03/01/15 3,2 8,2 6,6 0,81 0 8,3
02/01/15 9,3 15,3 2,3 0,61 0 17,3
01/01/15 4,4 13,8 0,0 0,75 1 8,5
31/12/14 6,1 4,9 1,0 0,81 0 3,0
30/12/14 4,5 3,7 9,4 0,82 0 1,6
29/12/14 4,6 6,4 6,1 0,84 0 1,8
28/12/14 -0,1 12,0 0,0 0,81 1 14,7
27/12/14 2,7 13,4 10,4 0,81 0 22,3
26/12/14 4,8 7,8 0,8 0,91 0 25,7
25/12/14 8,1 7,1 3,8 0,79 0 31,5
24/12/14 10,1 15,6 2,0 0,76 0 29,1
23/12/14 12,8 13,2 0,0 0,75 2 26,5
22/12/14 12,5 17,5 0,0 0,80 1 15,7
21/12/14 8,9 12,6 0,5 0,84 0 4,6
20/12/14 9,2 9,3 0,0 0,75 1 6,4
19/12/14 12,3 15,8 10,4 0,72 0 6,2
18/12/14 12,8 15,2 3,3 0,87 0 6,7
17/12/14 10,3 11,6 2,8 0,93 0 3,0
16/12/14 8,2 6,5 1,8 0,83 0 5,0
15/12/14 6,9 11,8 3,3 0,85 0 5,5
14/12/14 4,9 9,5 0,0 0,88 2 8,1
13/12/14 5,9 6,1 0,0 0,84 1 5,1
12/12/14 9,5 19,2 15,2 0,84 0 4,8
11/12/14 7,2 13,6 9,4 0,76 0 6,9
10/12/14 9,2 14,9 4,6 0,70 0 9,9
09/12/14 4,1 10,2 1,0 0,86 0 5,7
08/12/14 5,7 10,3 3,3 0,84 0 7,0
07/12/14 5,6 10,5 3,3 0,87 0 8,3
06/12/14 8,9 5,1 0,0 0,80 1 9,6
05/12/14 5,1 5,7 1,5 0,86 0 5,5
04/12/14 1,6 5,0 0,5 0,85 0 6,6
03/12/14 1,6 9,3 0,0 0,83 3 11,2
02/12/14 2,1 7,4 0,0 0,85 2 9,7
01/12/14 2,8 7,6 0,0 0,87 1 10,2
30/11/14 3,9 5,9 10,2 0,90 0 11,8
29/11/14 7,0 4,9 0,0 0,81 2 13,5
28/11/14 9,8 5,3 0,0 0,80 1 14,9
27/11/14 9,4 5,0 1,0 0,86 0 15,8
26/11/14 7,0 4,4 0,5 0,81 0 16,4
25/11/14 9,7 5,5 0,0 0,72 1 17,1
24/11/14 11,5 4,9 1,5 0,67 0 16,0
23/11/14 15,3 5,6 0,8 0,78 0 15,2
22/11/14 14,6 5,4 0,0 0,75 1 16,6
21/11/14 9,4 4,0 0,5 0,76 0 6,5
20/11/14 9,4 3,7 0,0 0,84 4 12,9
19/11/14 10,2 3,2 0,0 0,82 3 5,8
18/11/14 9,2 4,9 0,0 0,88 2 6,7
17/11/14 12,4 7,1 0,0 0,77 1 11,8
16/11/14 9,4 3,1 7,6 0,95 0 9,7
15/11/14 11,1 5,8 8,9 0,94 0 17,2
14/11/14 13,1 6,4 5,3 0,78 0 25,4
13/11/14 14,5 4,2 0,8 0,76 0 32,8
12/11/14 13,3 5,4 0,5 0,83 0 29,4
11/11/14 14,1 4,5 0,5 0,76 0 28,1
10/11/14 13,5 8,2 0,5 0,71 0 26,5
09/11/14 14,9 6,7 0,5 0,69 0 21,7
08/11/14 14,2 9,4 0,0 0,71 1 13,1
07/11/14 9,8 10,0 1,8 0,76 0 8,8
06/11/14 9,7 4,8 0,0 0,87 1 18,2
05/11/14 10,6 5,1 0,5 0,86 0 24,2
04/11/14 11,2 6,9 1,0 0,86 0 25,0
03/11/14 15,5 13,8 9,9 0,70 0 29,6
02/11/14 18,8 12,0 5,6 0,61 0 40,2
01/11/14 20,6 6,7 0,0 0,65 1 43,4
31/10/14 20,5 5,0 0,5 0,65 0 38,7
30/10/14 17,0 4,9 0,0 0,86 1 36,6
29/10/14 12,0 5,6 0,5 0,85 0 27,6
28/10/14 15,6 7,4 0,8 0,67 0 33,8
27/10/14 18,5 6,4 0,0 0,67 3 19,6
26/10/14 17,0 7,3 0,0 0,73 2 18,2
25/10/14 15,3 5,7 0,0 0,73 1 29,7
24/10/14 13,9 8,3 5,8 0,82 0 45,0
23/10/14 16,1 7,8 0,0 0,70 1 62,8
22/10/14 14,0 6,7 6,6 0,66 0 65,8
21/10/14 14,0 12,6 12,7 0,72 0 67,1
20/10/14 18,8 9,5 0,0 0,64 3 66,4
19/10/14 23,2 10,7 0,0 0,67 2 57,3
18/10/14 24,6 8,3 0,0 0,64 1 47,2
17/10/14 19,8 7,3 0,5 0,70 0 27,7
16/10/14 17,7 10,3 4,3 0,76 0 22,6
15/10/14 17,9 6,4 1,3 0,73 0 32,5
14/10/14 15,3 8,4 0,5 0,77 0 29,0
13/10/14 19,0 7,8 0,0 0,68 1 23,3
12/10/14 18,4 5,7 4,3 0,70 0 15,0
11/10/14 15,3 5,1 12,7 0,85 0 20,1
10/10/14 19,2 7,1 0,0 0,64 1 26,0
09/10/14 19,0 9,4 4,8 0,62 0 21,5
08/10/14 17,2 8,1 19,3 0,84 0 22,9
07/10/14 15,2 12,6 10,4 0,65 0 33,3
06/10/14 17,6 7,0 0,0 0,72 1 40,0
05/10/14 15,7 5,4 0,8 0,70 0 42,4
04/10/14 24,1 6,3 2,5 0,57 0 33,5
03/10/14 24,4 3,1 0,0 0,60 2 38,5
02/10/14 21,1 4,0 0,0 0,65 1 38,6
01/10/14 23,2 5,3 0,8 0,64 0 30,6
30/09/14 21,6 6,6 0,0 0,67 1 48,0
29/09/14 19,6 6,4 6,1 0,78 0 21,9
28/09/14 24,2 4,5 0,0 0,59 1 34,1
27/09/14 21,6 4,3 0,5 0,61 0 41,4
26/09/14 18,5 6,6 1,5 0,80 0 54,7
25/09/14 18,7 8,9 0,0 0,58 1 81,2
24/09/14 17,2 9,0 22,6 0,72 0 75,9
23/09/14 20,6 5,2 0,0 0,47 20 113,9
22/09/14 19,4 7,6 0,0 0,43 19 117,4
21/09/14 20,9 7,6 0,0 0,49 18 100,7
20/09/14 25,2 5,3 0,0 0,64 17 105,5
19/09/14 26,0 3,6 0,0 0,65 16 105,0
18/09/14 27,6 6,3 0,0 0,54 15 122,6
17/09/14 27,9 4,4 0,0 0,46 14 123,6
16/09/14 26,6 1,1 0,0 0,51 13 127,7
15/09/14 25,5 7,1 0,0 0,46 12 141,7
14/09/14 20,6 7,5 0,0 0,65 11 123,1
13/09/14 23,9 9,3 0,0 0,51 10 129,0
12/09/14 23,7 8,5 0,0 0,53 9 112,7
11/09/14 22,9 8,4 0,0 0,51 8 89,8
10/09/14 20,4 8,0 0,0 0,51 7 68,3
09/09/14 18,9 5,0 0,0 0,66 6 62,9
08/09/14 23,4 6,2 0,0 0,45 5 81,4
07/09/14 25,1 4,0 0,0 0,54 4 78,0
06/09/14 22,3 0,0 0,0 0,74 3 78,7
05/09/14 24,7 1,0 0,0 0,60 2 89,4
04/09/14 25,8 4,9 0,0 0,56 1 72,8
03/09/14 23,9 9,1 0,5 0,50 0 69,9
02/09/14 24,2 5,7 0,0 0,50 1 56,2
01/09/14 22,6 4,9 0,5 0,50 0 54,1
31/08/14 21,2 5,7 0,0 0,54 1 38,8
30/08/14 18,3 8,5 10,4 0,72 0 44,0
29/08/14 21,4 6,8 0,8 0,64 0 40,7
28/08/14 24,0 6,8 1,0 0,70 0 28,2
27/08/14 24,4 4,8 0,0 0,45 1 33,7
26/08/14 15,5 6,8 22,6 0,91 0 33,2
25/08/14 18,6 2,3 7,6 0,68 0 46,9
24/08/14 19,1 6,7 1,5 0,52 0 39,5
23/08/14 19,2 6,8 1,8 0,50 0 53,4
22/08/14 17,9 11,6 0,0 0,65 2 47,9
21/08/14 19,7 7,2 0,0 0,52 1 30,2
20/08/14 19,0 6,8 1,0 0,55 0 13,4
19/08/14 17,0 10,1 12,7 0,60 0 5,2
18/08/14 18,3 12,6 6,6 0,68 0 34,3
17/08/14 18,0 12,3 4,8 0,73 0 6,8
16/08/14 20,0 6,1 4,6 0,54 0 35,2
15/08/14 21,0 4,7 5,6 0,65 0 2,7
14/08/14 21,4 7,2 5,8 0,65 0 33,0
13/08/14 24,4 8,4 0,0 0,44 1 29,7
12/08/14 20,4 12,2 13,2 0,58 0 20,9
11/08/14 22,3 12,1 6,1 0,52 0 23,2
10/08/14 24,9 11,6 8,4 0,66 0 53,6
09/08/14 26,6 10,5 5,8 0,49 0 77,5
08/08/14 20,9 6,0 18,3 0,80 0 94,5
07/08/14 26,1 4,2 0,0 0,55 1 127,4
06/08/14 21,8 6,1 3,8 0,61 0 144,9
05/08/14 28,4 6,4 0,0 0,34 2 169,0
04/08/14 25,2 5,5 0,0 0,44 1 147,1
03/08/14 29,4 5,8 1,0 0,42 0 126,4
02/08/14 28,5 8,9 0,0 0,51 4 102,9
01/08/14 29,3 5,5 0,0 0,44 3 68,0
31/07/14 31,9 5,0 0,0 0,40 2 63,6
30/07/14 23,8 4,5 0,0 0,56 1 53,8
29/07/14 28,0 9,8 2,8 0,61 0 101,5
28/07/14 25,4 6,0 57,2 0,70 0 151,0
27/07/14 28,4 6,7 17,3 0,53 0 155,2
26/07/14 27,2 6,4 0,5 0,53 0 147,1
25/07/14 22,9 9,2 0,0 0,62 3 150,1
24/07/14 28,4 10,1 0,0 0,41 2 181,8
23/07/14 30,5 11,1 0,0 0,38 1 175,9
22/07/14 29,7 8,6 2,5 0,47 0 155,7
21/07/14 23,2 4,4 4,1 0,75 0 164,9
20/07/14 28,1 6,2 0,5 0,54 0 174,7
19/07/14 35,9 6,6 0,0 0,33 5 182,3
18/07/14 36,1 5,3 0,0 0,35 4 129,1
17/07/14 31,1 4,4 0,0 0,45 3 94,2
16/07/14 28,4 6,0 0,0 0,46 2 81,4
15/07/14 23,2 7,4 0,0 0,69 1 55,4
14/07/14 23,2 8,2 0,5 0,48 0 41,4
13/07/14 24,5 7,0 2,3 0,66 0 24,5
12/07/14 21,2 6,5 0,0 0,78 2 44,1
11/07/14 23,2 5,9 0,0 0,70 1 11,0
10/07/14 26,8 5,9 1,5 0,71 0 30,9
09/07/14 17,0 7,4 18,8 0,85 0 26,3
08/07/14 19,1 4,8 22,6 0,71 0 75,3
07/07/14 26,2 6,1 0,5 0,40 0 94,4
06/07/14 24,5 9,9 7,1 0,65 0 95,0
05/07/14 23,8 9,2 7,6 0,64 0 115,5
04/07/14 31,4 10,9 1,8 0,33 0 142,5
03/07/14 29,6 8,6 0,0 0,32 3 112,0
02/07/14 24,1 5,8 0,0 0,39 2 89,0
01/07/14 22,1 6,4 0,0 0,46 1 83,7
30/06/14 21,4 6,8 1,0 0,39 0 90,1
29/06/14 20,8 5,5 3,8 0,44 0 108,2
28/06/14 22,6 6,8 1,3 0,50 0 134,1
27/06/14 24,0 8,2 0,5 0,46 0 152,0
26/06/14 24,6 4,5 0,0 0,39 16 154,8
25/06/14 21,8 8,8 0,0 0,44 15 148,6
24/06/14 24,6 9,5 0,0 0,46 14 128,3
23/06/14 24,2 7,3 0,0 0,45 13 109,6
22/06/14 23,6 8,5 0,0 0,45 12 104,4
21/06/14 23,0 4,9 0,0 0,52 11 89,4
20/06/14 18,8 6,0 0,0 0,55 10 101,4
19/06/14 18,2 4,4 0,0 0,65 9 115,3
18/06/14 21,9 6,5 0,0 0,59 8 139,8
17/06/14 21,7 9,2 0,0 0,58 7 152,1
16/06/14 18,9 8,6 0,0 0,65 6 150,0
15/06/14 22,7 8,8 0,0 0,46 5 117,0
14/06/14 21,2 10,0 0,0 0,47 4 108,7
13/06/14 24,5 9,3 0,0 0,44 3 81,1
12/06/14 25,4 6,9 0,0 0,39 2 91,1
11/06/14 23,7 5,3 0,0 0,39 1 90,7
10/06/14 26,4 13,4 12,7 0,57 0 84,0
09/06/14 29,6 9,3 9,4 0,57 0 81,8
08/06/14 28,4 6,2 1,5 0,47 0 103,2
07/06/14 30,4 8,4 0,0 0,41 2 111,1
06/06/14 27,4 5,8 0,0 0,34 1 84,1
05/06/14 18,9 9,8 3,8 0,52 0 83,4
04/06/14 18,7 7,6 19,8 0,77 0 97,0
03/06/14 23,8 6,2 0,0 0,46 5 99,5
02/06/14 23,4 5,5 0,0 0,41 4 78,8
01/06/14 21,8 5,5 0,0 0,41 3 59,2
31/05/14 22,2 5,7 0,0 0,41 2 64,3
30/05/14 18,7 9,9 0,0 0,50 1 65,9
29/05/14 14,9 8,0 1,5 0,82 0 73,1
28/05/14 16,7 5,6 1,8 0,79 0 96,1
27/05/14 16,9 5,1 27,9 0,85 0 71,7
26/05/14 21,0 9,9 0,5 0,53 0 70,7
25/05/14 23,8 5,8 0,0 0,40 3 50,6
24/05/14 21,3 9,1 0,0 0,41 2 57,9
23/05/14 24,2 6,3 0,0 0,39 1 75,5
22/05/14 24,8 8,7 6,1 0,40 0 85,6
21/05/14 21,9 9,9 4,1 0,62 0 111,5
20/05/14 28,3 10,5 2,0 0,38 0 144,1
19/05/14 29,0 5,3 0,0 0,32 5 124,1
18/05/14 26,1 5,4 0,0 0,38 4 94,3
17/05/14 23,2 7,1 0,0 0,42 3 70,7
16/05/14 21,3 7,6 0,0 0,30 2 46,3
15/05/14 17,0 9,2 0,0 0,51 1 18,4
14/05/14 15,3 7,9 2,3 0,52 0 6,6
13/05/14 15,8 7,5 6,6 0,55 0 4,0
12/05/14 13,2 9,8 24,8 0,78 0 2,2
11/05/14 12,4 13,4 10,3 0,73 0 3,5
10/05/14 15,3 12,3 5,5 0,67 0 27,9
09/05/14 15,9 12,3 13,0 0,65 0 39,1
08/05/14 13,4 9,9 15,0 0,71 0 55,7
07/05/14 15,5 9,8 3,3 0,59 0 72,3
06/05/14 20,9 8,2 4,1 0,50 0 75,4
05/05/14 23,4 5,7 0,0 0,29 4 74,1
04/05/14 15,9 5,1 0,0 0,42 3 53,5
03/05/14 15,2 9,6 0,0 0,43 2 51,6
02/05/14 13,3 10,0 0,0 0,59 1 47,3
01/05/14 20,0 5,1 2,5 0,49 0 61,2
30/04/14 17,2 4,0 0,0 0,69 1 100,7
29/04/14 16,2 3,8 5,0 0,74 0 114,5
28/04/14 19,2 4,9 0,0 0,55 11 138,4
27/04/14 19,9 5,5 0,0 0,39 10 149,2
26/04/14 20,4 8,1 0,0 0,45 9 150,7
25/04/14 26,8 10,4 0,0 0,39 8 159,4
24/04/14 21,5 8,7 0,0 0,56 7 146,3
23/04/14 23,0 5,0 0,0 0,41 6 140,4
22/04/14 19,9 8,8 0,0 0,47 5 154,5
21/04/14 17,2 10,0 0,0 0,54 4 153,6
20/04/14 22,8 9,5 0,0 0,41 3 150,1
19/04/14 18,0 13,6 0,0 0,42 2 133,7
18/04/14 13,2 9,7 0,0 0,50 1 111,2
17/04/14 19,2 10,2 1,0 0,30 0 104,3
16/04/14 18,7 7,3 0,0 0,31 2 93,3
15/04/14 12,4 10,4 0,0 0,48 1 80,1
14/04/14 13,1 10,2 0,5 0,49 0 77,1
13/04/14 14,1 6,8 0,0 0,50 5 52,9
12/04/14 15,8 4,9 0,0 0,50 4 54,5
11/04/14 16,5 10,0 0,0 0,50 3 62,8
10/04/14 17,1 5,4 0,0 0,55 2 57,3
09/04/14 15,4 7,6 0,0 0,49 1 51,8
08/04/14 14,0 13,1 6,5 0,57 0 81,7
07/04/14 24,0 10,5 6,0 0,47 0 105,2
06/04/14 19,0 11,8 0,0 0,65 11 117,9
05/04/14 19,3 6,0 0,0 0,47 10 118,6
04/04/14 15,4 4,3 0,0 0,67 9 120,9
03/04/14 24,0 10,1 0,0 0,36 8 133,7
02/04/14 23,5 5,3 0,0 0,40 7 115,3
01/04/14 21,9 4,6 0,0 0,47 6 105,5
31/03/14 24,3 4,8 0,0 0,32 5 91,8
30/03/14 22,2 4,9 0,0 0,33 4 83,3
29/03/14 21,4 5,5 0,0 0,33 3 76,5
28/03/14 19,5 7,4 0,0 0,37 2 56,7
27/03/14 15,1 5,4 0,0 0,48 1 47,2
26/03/14 11,0 6,0 1,8 0,55 0 27,5
25/03/14 12,5 7,2 0,0 0,41 2 82,6
24/03/14 12,1 6,3 0,0 0,34 1 100,9
23/03/14 9,8 7,6 3,8 0,59 0 91,9
22/03/14 10,5 12,7 1,0 0,61 0 107,1
21/03/14 11,9 9,6 12,0 0,56 0 105,3
20/03/14 23,5 13,8 0,0 0,29 2 115,3
19/03/14 18,3 13,2 0,0 0,43 1 72,2
18/03/14 11,1 9,6 4,1 0,68 0 57,1
17/03/14 12,8 5,4 0,0 0,60 14 78,5
16/03/14 13,6 5,8 0,0 0,62 13 84,8
15/03/14 13,6 9,3 0,0 0,59 12 104,5
14/03/14 17,4 6,0 0,0 0,39 11 121,0
13/03/14 18,4 5,7 0,0 0,44 10 121,9
12/03/14 18,8 4,8 0,0 0,45 9 122,0
11/03/14 15,6 9,4 0,0 0,59 8 126,9
10/03/14 19,4 9,9 0,0 0,38 7 120,7
09/03/14 21,7 9,0 0,0 0,37 6 99,5
08/03/14 19,5 6,7 0,0 0,46 5 81,1
07/03/14 14,1 9,3 0,0 0,51 4 76,6
06/03/14 15,6 8,9 0,0 0,45 3 61,0
05/03/14 13,2 6,2 0,0 0,55 2 42,7
04/03/14 11,9 7,2 0,0 0,63 1 33,2
03/03/14 11,4 11,7 0,5 0,62 0 32,3
02/03/14 10,7 11,1 0,0 0,55 1 21,3
01/03/14 8,5 7,5 1,8 0,77 0 24,0
28/02/14 10,4 6,8 2,3 0,58 0 37,1
27/02/14 7,7 12,3 2,5 0,74 0 45,3
26/02/14 11,5 8,4 0,0 0,67 1 54,8
25/02/14 13,1 10,9 3,8 0,65 0 56,0
24/02/14 14,4 9,7 0,0 0,54 3 58,1
23/02/14 13,4 10,3 0,0 0,64 2 42,5
22/02/14 10,2 10,6 0,0 0,68 1 39,1
21/02/14 10,4 12,4 5,0 0,62 0 44,5
20/02/14 9,9 10,3 5,0 0,84 0 32,6
19/02/14 10,6 7,2 0,0 0,74 1 29,6
18/02/14 8,0 6,3 1,5 0,75 0 31,1
17/02/14 12,2 9,3 0,0 0,66 2 31,4
16/02/14 10,8 12,5 0,0 0,54 1 21,4
15/02/14 13,0 27,0 2,3 0,56 0 26,3
14/02/14 9,6 11,7 9,0 0,82 0 10,2
13/02/14 6,5 14,4 5,0 0,80 0 8,5
12/02/14 10,0 16,5 3,8 0,57 0 11,6
11/02/14 8,8 14,0 5,5 0,61 0 7,1
10/02/14 8,0 4,9 0,5 0,72 0 2,9
09/02/14 8,3 20,4 1,5 0,67 0 19,3
08/02/14 8,8 13,7 4,5 0,75 0 21,8
07/02/14 10,7 18,1 8,5 0,77 0 30,1
06/02/14 10,7 14,3 6,8 0,69 0 21,7
05/02/14 10,8 13,8 2,0 0,69 0 29,8
04/02/14 11,0 12,3 0,0 0,63 3 29,7
03/02/14 9,7 6,9 0,0 0,64 2 20,7
02/02/14 9,3 12,7 0,0 0,71 1 29,2
01/02/14 8,4 12,8 7,5 0,77 0 25,1
31/01/14 8,5 10,7 0,0 0,73 4 23,5
30/01/14 8,2 3,9 0,0 0,72 3 19,6
29/01/14 4,6 8,3 0,0 0,72 2 17,3
28/01/14 6,9 13,2 0,0 0,74 1 11,2
27/01/14 6,3 11,2 0,8 0,84 0 6,9
26/01/14 6,8 11,0 8,0 0,80 0 6,0
25/01/14 6,3 14,4 7,0 0,77 0 6,7
24/01/14 6,4 4,4 0,5 0,87 0 7,7
23/01/14 6,0 7,4 7,0 0,87 0 10,8
22/01/14 6,0 7,1 0,0 0,74 1 7,6
21/01/14 6,8 6,4 0,8 0,91 0 3,2
20/01/14 7,0 5,1 2,0 0,88 0 2,7
19/01/14 8,4 4,9 0,0 0,81 2 4,0
18/01/14 9,4 6,8 0,0 0,78 1 11,6
17/01/14 9,8 10,2 9,8 0,77 0 11,8
16/01/14 9,4 7,8 3,8 0,88 0 15,8
15/01/14 6,3 8,5 4,5 0,89 0 20,8
14/01/14 6,6 4,8 4,3 0,90 0 20,4
13/01/14 10,5 11,1 0,0 0,75 1 20,9
12/01/14 7,6 6,0 0,5 0,77 0 25,4
11/01/14 8,1 9,6 0,5 0,77 0 22,5
10/01/14 9,4 8,9 0,0 0,75 1 23,6
09/01/14 12,2 15,9 4,5 0,72 0 23,6
08/01/14 10,9 10,8 3,8 0,80 0 20,1
07/01/14 12,6 15,3 0,0 0,72 1 18,3
06/01/14 14,6 15,7 2,0 0,76 0 17,5
05/01/14 8,4 10,5 0,0 0,79 1 12,2
04/01/14 10,3 11,6 1,3 0,79 0 15,6
03/01/14 12,2 15,9 7,5 0,72 0 16,7
02/01/14 10,6 11,5 1,8 0,74 0 16,3
01/01/14 9,4 12,3 1,0 0,78 0 12,5
31/12/13 9,6 10,4 1,3 0,60 0 12,8
30/12/13 7,3 13,7 0,5 0,78 0 6,2
29/12/13 7,9 8,9 1,5 0,82 0 3,4
28/12/13 9,2 7,3 14,3 0,84 0 17,5
27/12/13 9,4 15,5 6,5 0,79 0 19,2
26/12/13 7,6 5,9 0,5 0,86 0 16,6
25/12/13 8,6 10,3 7,5 0,79 0 22,1
24/12/13 11,7 20,7 12,5 0,73 0 20,0
23/12/13 11,9 19,1 0,0 0,72 1 22,2
22/12/13 10,7 16,7 4,3 0,80 0 14,4
21/12/13 8,5 14,2 2,8 0,76 0 32,0
20/12/13 8,6 9,6 0,0 0,74 1 44,9
19/12/13 9,5 10,5 9,3 0,80 0 40,0
18/12/13 9,7 11,4 0,0 0,77 3 43,3
17/12/13 10,4 5,6 0,0 0,73 2 38,5
16/12/13 13,2 13,3 0,0 0,55 1 35,6
15/12/13 9,0 14,7 1,0 0,70 0 19,9
14/12/13 8,5 11,4 3,3 0,83 0 15,4
13/12/13 6,1 6,5 0,0 0,84 1 19,0
12/12/13 4,8 8,2 0,5 0,82 0 16,1
11/12/13 7,9 4,6 0,8 0,81 0 13,5
10/12/13 10,3 4,7 0,0 0,71 2 13,7
09/12/13 10,2 10,0 0,0 0,86 1 11,4
08/12/13 9,9 10,9 0,5 0,82 0 7,3
07/12/13 8,1 6,9 2,8 0,80 0 7,5
06/12/13 5,0 7,8 2,0 0,67 0 10,0
05/12/13 8,8 17,1 4,0 0,68 0 13,9
04/12/13 7,9 8,3 1,0 0,88 0 7,7
03/12/13 2,4 2,7 0,0 0,90 3 10,8
02/12/13 9,1 4,9 0,0 0,69 2 12,4
01/12/13 9,8 3,2 0,0 0,78 1 9,2
30/11/13 10,2 6,6 1,5 0,73 0 13,1
29/11/13 8,7 9,2 6,5 0,83 0 17,3
28/11/13 9,9 7,1 0,0 0,87 1 21,1
27/11/13 8,6 6,2 0,5 0,79 0 21,1
26/11/13 7,6 5,1 0,8 0,87 0 21,0
25/11/13 8,4 7,1 0,0 0,72 1 20,6
24/11/13 8,4 9,1 0,5 0,74 0 16,9
23/11/13 7,4 7,5 0,0 0,74 3 16,8
22/11/13 6,2 9,5 0,0 0,82 2 12,4
21/11/13 5,4 8,2 0,0 0,81 1 8,6
20/11/13 5,4 11,2 2,8 0,71 0 10,7
19/11/13 7,8 5,6 1,0 0,86 0 7,8
18/11/13 6,5 7,4 0,0 0,85 1 10,6
17/11/13 6,6 3,5 0,5 0,92 0 7,5
16/11/13 5,0 3,1 0,0 0,92 1 13,3
15/11/13 11,1 6,0 0,5 0,81 0 11,8
14/11/13 8,0 7,0 4,8 0,88 0 9,7
13/11/13 12,0 3,9 0,8 0,68 0 8,8
12/11/13 8,6 8,0 2,0 0,75 0 7,6
11/11/13 9,6 8,6 0,8 0,74 0 5,3
10/11/13 9,9 5,9 4,3 0,73 0 1,9
09/11/13 11,1 11,4 3,8 0,72 0 4,2
08/11/13 11,2 8,9 8,3 0,89 0 0,9
07/11/13 14,3 13,2 8,0 0,86 0 2,0
06/11/13 13,9 13,0 4,8 0,82 0 14,0
05/11/13 9,6 9,1 7,8 0,82 0 23,5
04/11/13 13,2 12,6 24,3 0,84 0 35,8
03/11/13 11,7 16,0 3,3 0,70 0 40,4
02/11/13 12,4 8,2 11,0 0,86 0 34,9
01/11/13 14,2 11,8 0,0 0,73 3 36,8
31/10/13 14,1 11,2 0,0 0,67 2 47,6
30/10/13 13,8 8,4 0,0 0,56 1 40,9
29/10/13 14,4 14,0 2,5 0,61 0 42,5
28/10/13 17,1 22,0 8,5 0,61 0 44,7
27/10/13 16,0 17,2 4,0 0,66 0 44,2
26/10/13 20,6 12,7 0,0 0,64 1 42,1
25/10/13 18,9 7,4 1,0 0,81 0 19,0
24/10/13 16,9 5,5 0,5 0,75 0 12,9
23/10/13 18,6 12,4 3,3 0,72 0 16,7
22/10/13 23,6 10,0 13,0 0,61 0 26,4
21/10/13 18,5 8,1 0,5 0,78 0 20,3
20/10/13 19,2 9,4 4,0 0,75 0 16,5
19/10/13 17,6 7,1 2,0 0,76 0 16,2
18/10/13 14,5 3,9 0,5 0,87 0 11,3
17/10/13 16,4 8,9 0,8 0,71 0 9,6
16/10/13 11,1 6,9 1,0 0,92 0 1,5
15/10/13 11,7 7,8 5,3 0,87 0 0,9
14/10/13 11,8 7,6 9,3 0,87 0 0,9
13/10/13 8,9 12,6 39,5 0,91 0 7,4
12/10/13 12,4 5,7 4,5 0,72 0 13,8
11/10/13 8,8 5,4 9,0 0,88 0 15,3
10/10/13 13,2 6,4 4,5 0,63 0 22,4
09/10/13 16,1 6,2 2,8 0,66 0 22,7
08/10/13 18,6 5,1 0,0 0,70 4 22,8
07/10/13 19,2 3,3 0,0 0,66 3 32,7
06/10/13 18,6 2,4 0,0 0,68 2 41,9
05/10/13 19,6 3,4 0,0 0,74 1 50,7
04/10/13 21,3 11,4 4,3 0,72 0 72,8
03/10/13 19,4 5,7 7,5 0,46 0 86,5
02/10/13 18,8 7,6 0,0 0,47 13 106,2
01/10/13 18,6 7,1 0,0 0,50 12 107,4
30/09/13 18,1 6,7 0,0 0,53 11 97,8
29/09/13 19,9 7,9 0,0 0,48 10 98,6
28/09/13 19,5 7,3 0,0 0,48 9 86,3
27/09/13 19,0 6,0 0,0 0,57 8 74,4
26/09/13 18,9 9,6 0,0 0,53 7 70,9
25/09/13 20,6 4,0 0,0 0,66 6 59,9
24/09/13 22,6 6,8 0,0 0,60 5 52,3
23/09/13 21,1 4,4 0,0 0,65 4 36,4
22/09/13 20,5 5,7 0,0 0,77 3 27,7
21/09/13 18,6 5,7 0,0 0,64 2 20,4
20/09/13 17,0 8,3 0,0 0,70 1 10,6
19/09/13 15,2 10,8 2,8 0,63 0 6,9
18/09/13 14,3 4,8 3,3 0,77 0 1,8
17/09/13 13,7 8,4 4,3 0,62 0 5,0
16/09/13 15,3 12,5 4,5 0,54 0 10,0
15/09/13 17,2 10,1 3,8 0,57 0 8,5
14/09/13 17,8 11,2 11,3 0,76 0 3,6
13/09/13 18,4 8,8 2,8 0,70 0 5,6
12/09/13 19,3 5,3 6,0 0,69 0 14,9
11/09/13 19,4 9,5 3,3 0,61 0 54,2
10/09/13 15,8 12,2 27,8 0,72 0 89,3
09/09/13 18,5 9,8 26,3 0,57 0 111,2
08/09/13 21,1 5,2 6,0 0,54 0 117,9
07/09/13 21,2 5,5 0,5 0,55 0 131,9
06/09/13 27,0 8,1 0,0 0,42 6 136,4
05/09/13 34,4 5,5 0,0 0,34 5 118,0
04/09/13 29,8 4,5 0,0 0,47 4 98,1
03/09/13 24,3 4,0 0,0 0,64 3 100,3
02/09/13 22,6 8,2 0,0 0,60 2 124,1
01/09/13 18,6 5,1 0,0 0,50 1 143,6
31/08/13 22,1 5,5 0,5 0,45 0 170,0
30/08/13 23,6 8,2 0,0 0,57 6 167,8
29/08/13 25,6 5,9 0,0 0,40 5 146,3
28/08/13 25,9 8,1 0,0 0,38 4 148,7
27/08/13 26,0 8,7 0,0 0,34 3 125,6
26/08/13 24,5 10,4 0,0 0,40 2 111,1
25/08/13 21,7 5,4 0,0 0,72 1 85,8
24/08/13 21,9 4,8 1,3 0,67 0 81,1
23/08/13 29,1 5,7 0,0 0,42 4 107,0
22/08/13 23,5 4,2 0,0 0,53 3 108,0
21/08/13 27,2 5,9 0,0 0,41 2 145,8
20/08/13 22,9 5,0 0,0 0,50 1 135,0
19/08/13 22,7 6,6 1,5 0,45 0 130,1
18/08/13 24,4 9,5 5,0 0,55 0 120,1
17/08/13 26,2 8,4 0,0 0,50 1 111,6
16/08/13 28,8 10,6 0,5 0,40 0 82,1
15/08/13 23,6 7,3 0,5 0,64 0 46,1
14/08/13 23,6 4,6 1,3 0,50 0 62,9
13/08/13 21,0 6,3 2,0 0,48 0 84,1
12/08/13 21,3 6,7 0,0 0,51 1 57,2
11/08/13 22,5 10,0 2,8 0,56 0 69,0
10/08/13 20,2 5,4 0,0 0,44 2 59,0
09/08/13 24,4 7,7 0,0 0,46 1 72,7
08/08/13 23,6 6,4 0,5 0,47 0 106,7
07/08/13 17,9 11,7 15,3 0,77 0 162,8
06/08/13 23,6 6,8 0,0 0,56 1 216,2
05/08/13 31,5 7,8 2,0 0,38 0 220,1
04/08/13 29,8 5,5 0,0 0,37 4 201,8
03/08/13 25,4 11,4 0,0 0,45 3 205,1
02/08/13 37,0 9,0 0,0 0,36 2 130,2
01/08/13 35,2 7,6 0,0 0,35 1 90,3
31/07/13 24,8 10,5 1,8 0,61 0 46,1
30/07/13 21,0 10,7 3,3 0,64 0 42,8
29/07/13 25,7 9,9 0,0 0,49 1 71,6
28/07/13 26,1 8,0 31,5 0,50 0 83,0
27/07/13 26,3 12,7 9,8 0,66 0 123,0
26/07/13 29,6 6,3 4,8 0,55 0 163,8
25/07/13 31,2 7,6 2,8 0,42 0 191,7
24/07/13 28,9 7,7 0,5 0,39 0 217,3
23/07/13 33,6 5,2 0,0 0,32 20 245,5
22/07/13 34,2 5,7 0,0 0,36 19 244,1
21/07/13 34,7 5,1 0,0 0,31 18 235,2
20/07/13 24,0 7,5 0,0 0,56 17 223,8
19/07/13 27,7 11,4 0,0 0,46 16 219,7
18/07/13 30,6 8,8 0,0 0,41 15 192,0
17/07/13 29,4 7,4 0,0 0,40 14 154,0
16/07/13 28,0 6,8 0,0 0,39 13 135,6
15/07/13 28,0 5,7 0,0 0,34 12 131,7
14/07/13 24,7 5,8 0,0 0,54 11 148,4
13/07/13 24,6 5,9 0,0 0,48 10 175,9
12/07/13 20,2 4,9 0,0 0,63 9 198,8
11/07/13 20,9 7,8 0,0 0,51 8 224,9
10/07/13 22,9 10,0 0,0 0,49 7 220,1
09/07/13 27,3 8,6 0,0 0,26 6 212,4
08/07/13 29,0 9,4 0,0 0,40 5 165,3
07/07/13 29,0 8,5 0,0 0,37 4 119,2
06/07/13 27,8 8,7 0,0 0,45 3 87,4
05/07/13 24,9 5,7 0,0 0,58 2 75,3
04/07/13 22,9 10,0 0,0 0,61 1 59,2
03/07/13 17,7 5,6 3,8 0,85 0 38,2
02/07/13 23,7 6,3 9,3 0,45 0 43,3
01/07/13 20,1 6,9 0,0 0,63 2 38,5
30/06/13 24,1 8,9 0,0 0,54 1 45,3
29/06/13 19,2 7,4 2,3 0,52 0 27,6
28/06/13 16,9 6,1 6,0 0,74 0 21,8
27/06/13 16,5 4,9 9,3 0,58 0 22,3
26/06/13 18,3 4,9 3,5 0,54 0 24,5
25/06/13 19,0 7,9 0,0 0,43 1 20,7
24/06/13 15,1 6,9 3,0 0,80 0 2,4
23/06/13 17,4 12,0 8,5 0,74 0 36,0
22/06/13 20,4 13,3 1,5 0,66 0 76,1
21/06/13 21,6 11,8 9,8 0,74 0 99,3
20/06/13 27,3 7,3 1,8 0,60 0 146,0
19/06/13 27,0 11,1 1,1 0,57 0 176,0
18/06/13 33,4 5,0 0,0 0,38 1 160,0
17/06/13 26,0 9,4 0,4 0,47 0 127,2
16/06/13 20,8 9,8 0,0 0,40 1 114,2
15/06/13 20,8 13,6 0,8 0,38 0 102,6
14/06/13 21,6 8,2 0,0 0,44 1 87,5
13/06/13 19,3 9,9 2,0 0,62 0 107,4
12/06/13 23,7 10,4 1,3 0,58 0 167,7
11/06/13 24,7 5,4 0,0 0,42 12 212,3
10/06/13 19,2 7,9 0,0 0,48 11 227,8
09/06/13 20,0 10,4 0,0 0,48 10 233,7
08/06/13 24,2 11,1 0,0 0,46 9 226,3
07/06/13 27,7 11,1 0,0 0,32 8 207,7
06/06/13 28,0 9,1 0,0 0,34 7 160,9
05/06/13 25,9 8,3 0,0 0,35 6 156,2
04/06/13 22,8 8,4 0,0 0,46 5 128,6
03/06/13 16,9 9,6 0,0 0,49 4 93,1
02/06/13 18,8 8,1 0,0 0,47 3 114,8
01/06/13 16,3 7,6 0,0 0,64 2 108,7
31/05/13 22,0 14,6 0,0 0,46 1 84,1
30/05/13 17,9 5,6 0,5 0,59 0 61,4
29/05/13 13,6 7,0 8,9 0,81 0 68,3
28/05/13 24,6 9,9 0,0 0,32 2 69,0
27/05/13 20,5 5,0 0,0 0,44 1 49,0
26/05/13 13,0 5,8 7,1 0,58 0 27,8
25/05/13 14,9 6,3 1,0 0,51 0 28,1
24/05/13 13,8 9,7 0,0 0,51 1 37,0
23/05/13 9,9 5,4 3,8 0,59 0 27,8
22/05/13 12,7 8,0 0,0 0,61 1 31,1
21/05/13 11,9 4,8 9,4 0,88 0 25,6
20/05/13 13,0 4,5 0,0 0,80 3 63,2
19/05/13 18,9 10,0 0,0 0,58 2 59,5
18/05/13 13,2 5,0 0,0 0,73 1 40,2
17/05/13 10,3 3,3 17,0 0,88 0 35,4
16/05/13 10,9 6,8 19,8 0,71 0 36,8
15/05/13 19,0 12,5 0,5 0,36 0 55,5
14/05/13 13,0 10,9 1,3 0,62 0 53,5
13/05/13 13,6 9,0 4,8 0,59 0 81,9
12/05/13 13,9 11,1 3,3 0,56 0 126,5
11/05/13 15,0 12,3 2,3 0,55 0 153,7
10/05/13 15,6 13,4 0,0 0,57 2 172,2
09/05/13 17,8 10,5 0,0 0,37 1 172,9
08/05/13 21,9 10,8 0,5 0,49 0 164,5
07/05/13 24,2 11,4 0,0 0,38 5 161,7
06/05/13 23,9 7,2 0,0 0,40 4 150,5
05/05/13 22,3 7,3 0,0 0,34 3 147,2
04/05/13 18,3 9,4 0,0 0,44 2 141,4
03/05/13 20,4 6,9 0,0 0,41 1 137,6
02/05/13 18,6 10,3 0,5 0,52 0 134,7
01/05/13 19,7 11,2 0,0 0,37 2 98,0
30/04/13 15,7 11,5 0,0 0,43 1 95,4
29/04/13 13,3 11,5 1,0 0,40 0 102,1
28/04/13 16,0 7,7 0,0 0,31 2 101,9
27/04/13 12,2 10,7 0,0 0,42 1 118,2
26/04/13 15,9 10,1 8,4 0,68 0 118,5
25/04/13 25,9 7,7 0,0 0,40 6 142,7
24/04/13 22,6 10,5 0,0 0,46 5 120,5
23/04/13 17,4 10,3 0,0 0,54 4 128,2
22/04/13 17,2 7,8 0,0 0,38 3 108,4
21/04/13 16,2 6,5 0,0 0,37 2 117,8
20/04/13 13,6 11,3 0,0 0,37 1 101,8
19/04/13 11,7 9,7 1,0 0,64 0 117,8
18/04/13 17,8 16,0 0,0 0,39 1 132,8
17/04/13 22,5 10,9 2,3 0,44 0 108,7
16/04/13 18,5 12,8 0,0 0,46 1 93,1
15/04/13 17,6 5,7 2,3 0,60 0 71,7
14/04/13 24,5 11,0 0,0 0,42 1 68,2
13/04/13 16,4 11,1 0,3 0,43 0 40,6
12/04/13 14,6 12,7 3,6 0,61 0 37,2
11/04/13 12,6 11,7 10,4 0,71 0 47,5
10/04/13 10,0 5,9 1,0 0,69 0 54,9
09/04/13 9,9 5,9 2,3 0,55 0 63,4
08/04/13 10,8 7,7 0,0 0,37 19 92,3
07/04/13 11,5 6,9 0,0 0,36 18 102,3
06/04/13 9,6 10,3 0,0 0,38 17 107,2
05/04/13 6,5 12,3 0,0 0,55 16 97,2
04/04/13 6,4 10,7 0,0 0,53 15 94,1
03/04/13 8,2 10,1 0,0 0,40 14 87,2
02/04/13 9,4 14,1 0,0 0,29 13 81,2
01/04/13 8,8 11,8 0,0 0,33 12 67,8
31/03/13 5,6 7,0 0,0 0,51 11 63,8
30/03/13 5,4 9,6 0,0 0,50 10 70,4
29/03/13 3,3 6,0 0,0 0,60 9 74,2
28/03/13 5,5 9,1 0,0 0,50 8 75,9
27/03/13 7,4 8,1 0,0 0,33 7 73,6
26/03/13 6,4 11,2 0,0 0,31 6 66,5
25/03/13 5,2 11,7 0,0 0,33 5 50,6
24/03/13 2,9 12,2 0,0 0,27 4 35,8
23/03/13 1,2 10,2 0,0 0,53 3 34,5
22/03/13 6,0 8,9 0,0 0,58 2 27,1
21/03/13 6,7 5,4 0,0 0,53 1 34,7
20/03/13 2,7 7,8 3,8 0,78 0 35,2
19/03/13 6,8 4,9 1,5 0,79 0 45,0
18/03/13 11,4 9,8 0,8 0,50 0 47,9
17/03/13 10,7 10,5 2,0 0,55 0 50,3
16/03/13 8,2 12,3 0,0 0,42 3 52,6
15/03/13 3,4 12,0 0,0 0,72 2 36,1
14/03/13 4,3 11,0 0,0 0,45 1 29,8
13/03/13 5,4 6,0 1,0 0,63 0 26,1
12/03/13 0,7 15,4 0,0 0,52 2 32,8
11/03/13 -0,6 13,4 0,0 0,66 1 33,7
10/03/13 3,7 10,0 1,3 0,74 0 53,1
09/03/13 9,4 8,5 13,7 0,85 0 61,7
08/03/13 16,3 5,8 1,0 0,66 0 62,6
07/03/13 15,7 4,9 0,5 0,50 0 58,3
06/03/13 18,5 4,2 0,0 0,36 9 63,4
05/03/13 19,0 7,7 0,0 0,30 8 52,8
04/03/13 13,7 5,4 0,0 0,43 7 30,3
03/03/13 6,4 3,2 0,0 0,69 6 23,2
02/03/13 4,4 5,3 0,0 0,66 5 20,3
01/03/13 5,1 8,3 0,0 0,67 4 16,3
28/02/13 3,3 5,0 0,0 0,76 3 30,6
27/02/13 3,2 9,1 0,0 0,85 2 42,4
26/02/13 5,7 9,2 0,0 0,79 1 54,3
25/02/13 2,8 9,0 1,3 0,87 0 69,1
24/02/13 1,0 9,9 1,5 0,80 0 84,2
23/02/13 0,8 15,7 0,0 0,01 4 96,8
22/02/13 0,2 11,9 0,0 0,01 3 88,4
21/02/13 2,2 10,6 0,0 0,01 2 79,2
20/02/13 4,0 11,5 0,0 0,01 1 73,9
19/02/13 6,4 7,7 0,5 0,01 0 54,4
18/02/13 9,2 4,3 0,0 0,01 4 49,4
17/02/13 9,6 5,4 0,0 0,01 3 48,5
16/02/13 8,0 3,0 0,0 0,01 2 43,9
15/02/13 8,2 5,0 0,0 0,01 1 50,8
14/02/13 0,6 11,2 3,3 0,01 0 46,1
13/02/13 3,1 3,7 0,0 0,01 3 42,1
12/02/13 0,9 7,8 0,0 0,01 2 35,5
11/02/13 1,0 7,0 0,0 0,01 1 24,4
10/02/13 3,2 9,4 0,8 0,01 0 14,3
09/02/13 2,6 5,4 1,5 0,01 0 11,7
08/02/13 4,9 6,7 1,9 0,57 0 10,2
07/02/13 4,8 7,1 3,9 0,79 0 9,0
06/02/13 5,9 11,7 6,2 0,71 0 9,8
05/02/13 6,8 15,7 4,2 0,71 0 12,2
04/02/13 10,0 8,1 0,5 0,61 0 7,7
03/02/13 7,4 13,3 1,4 0,70 0 4,1
02/02/13 6,2 12,0 2,3 0,63 0 12,8
01/02/13 7,8 9,6 12,6 0,77 0 1,6
31/01/13 10,1 18,0 5,1 0,66 0 8,3
30/01/13 13,5 17,2 16,5 0,68 0 11,2
29/01/13 12,5 16,4 34,6 0,85 0 10,8
28/01/13 7,5 16,6 1,0 0,75 0 17,9
27/01/13 6,0 14,9 8,9 0,84 0 11,8
26/01/13 0,7 12,2 0,5 0,79 0 11,4
25/01/13 -0,8 8,0 0,0 0,76 4 11,0
24/01/13 -0,1 7,5 0,0 0,68 3 10,2
23/01/13 -2,1 5,4 0,0 0,83 2 7,9
22/01/13 0,8 3,6 0,0 0,79 1 6,4
21/01/13 0,8 6,6 0,5 0,87 0 6,5
20/01/13 -1,3 9,9 6,6 0,76 0 5,3
19/01/13 -1,3 7,7 0,0 0,72 4 10,9
18/01/13 0,7 4,9 0,0 0,75 3 12,7
17/01/13 -4,5 3,8 0,0 0,85 2 15,5
16/01/13 -2,7 4,5 0,0 0,77 1 15,1
15/01/13 -0,5 7,9 5,6 0,78 0 15,3
14/01/13 -1,1 5,8 0,0 0,61 3 17,6
13/01/13 1,0 9,2 0,0 0,58 2 24,5
12/01/13 3,7 5,1 0,0 0,33 1 30,0
11/01/13 5,5 8,4 1,5 0,76 0 32,4
10/01/13 8,0 4,1 0,8 0,82 0 34,9
09/01/13 7,0 9,4 4,3 0,40 0 38,9
08/01/13 8,4 8,4 0,0 0,44 3 46,6
07/01/13 8,6 10,4 0,0 0,50 2 43,2
06/01/13 9,7 6,5 0,0 0,55 1 22,7
05/01/13 7,6 5,4 0,5 0,62 0 14,6
04/01/13 9,1 6,8 2,3 0,68 0 12,9
03/01/13 9,9 13,3 1,0 0,68 0 22,5
02/01/13 8,2 13,0 0,0 0,72 1 21,0
01/01/13 8,3 14,8 10,4 0,71 0 15,2
31/12/12 10,3 19,1 4,8 0,72 0 18,8
30/12/12 9,2 20,9 1,8 0,71 0 19,1
29/12/12 11,8 15,1 0,5 0,71 0 12,1
28/12/12 8,4 11,2 1,3 0,83 0 2,1
27/12/12 9,8 18,4 10,9 0,78 0 3,3
26/12/12 9,3 18,0 5,6 0,76 0 4,0
25/12/12 10,8 22,0 10,4 0,78 0 4,2
24/12/12 12,3 16,9 3,3 0,80 0 5,5
23/12/12 12,6 14,8 14,7 0,90 0 2,8
22/12/12 9,3 10,4 18,8 0,95 0 1,8
21/12/12 8,0 6,1 0,5 0,95 0 2,0
20/12/12 3,6 10,1 8,6 0,87 0 2,1
19/12/12 6,0 5,8 0,0 0,94 1 2,4
18/12/12 5,7 6,5 0,5 0,94 0 2,8
17/12/12 7,1 7,6 4,6 0,94 0 6,3
16/12/12 7,7 11,9 1,5 0,91 0 9,1
15/12/12 9,9 15,8 3,3 0,85 0 10,9
14/12/12 8,9 16,2 8,9 0,89 0 9,4
13/12/12 1,6 5,8 0,0 0,74 3 12,8
12/12/12 2,8 10,4 0,0 0,76 2 7,9
11/12/12 2,6 6,8 0,0 0,78 1 5,1
10/12/12 5,4 13,0 2,8 0,83 0 3,9
09/12/12 7,3 13,7 4,3 0,81 0 4,6
08/12/12 1,7 9,4 0,0 0,86 1 4,7
07/12/12 1,4 15,5 9,4 0,87 0 2,8
06/12/12 3,0 11,5 0,5 0,89 0 1,9
05/12/12 3,2 7,6 2,8 0,95 0 5,8
04/12/12 6,1 11,5 7,6 0,86 0 11,9
03/12/12 6,2 11,2 5,1 0,94 0 14,4
02/12/12 4,9 7,2 8,6 0,89 0 14,4
01/12/12 4,7 11,5 7,4 0,86 0 21,5
30/11/12 7,9 9,0 0,5 0,71 0 20,6
29/11/12 7,1 9,4 0,0 0,72 1 16,0
28/11/12 8,9 6,8 0,5 0,80 0 9,7
27/11/12 9,0 7,9 2,3 0,80 0 17,8
26/11/12 12,3 10,1 0,0 0,77 1 17,0
25/11/12 12,8 24,5 2,8 0,64 0 27,9
24/11/12 8,8 5,0 3,1 0,94 0 16,2
23/11/12 8,3 13,0 2,8 0,84 0 17,2
22/11/12 12,2 12,2 0,0 0,73 1 17,3
21/11/12 10,4 16,9 1,3 0,79 0 12,8
20/11/12 12,3 12,2 0,0 0,84 2 11,9
19/11/12 9,8 5,4 0,0 0,93 1 11,3
18/11/12 10,1 3,4 5,3 0,89 0 9,7
17/11/12 8,4 5,8 0,0 0,89 4 15,6
16/11/12 6,1 4,2 0,0 0,83 3 17,1
15/11/12 7,3 3,7 0,0 0,79 2 14,7
14/11/12 12,6 4,8 0,0 0,64 1 12,1
13/11/12 10,2 7,3 1,3 0,89 0 11,3
12/11/12 7,7 8,3 0,0 0,87 2 12,3
11/11/12 11,5 7,1 0,0 0,80 1 9,0
10/11/12 11,4 7,5 3,3 0,90 0 5,2
09/11/12 11,6 5,3 2,0 0,75 0 6,0
08/11/12 11,1 8,8 0,0 0,82 1 5,2
07/11/12 10,3 7,6 2,8 0,82 0 1,7
06/11/12 10,9 9,6 2,3 0,68 0 4,0
05/11/12 9,2 8,0 1,5 0,83 0 15,2
04/11/12 9,2 10,8 6,1 0,82 0 15,1
03/11/12 9,3 10,8 4,3 0,82 0 15,9
02/11/12 11,2 13,8 1,8 0,65 0 28,3
01/11/12 10,6 10,8 2,8 0,78 0 35,3
31/10/12 14,0 9,5 0,0 0,55 1 43,7
30/10/12 9,8 7,7 2,5 0,90 0 34,6
29/10/12 9,0 10,5 4,6 0,70 0 41,7
28/10/12 10,8 7,8 0,0 0,59 1 45,0
27/10/12 8,6 10,8 0,5 0,57 0 44,8
26/10/12 9,6 11,2 0,0 0,61 6 45,2
25/10/12 12,6 7,2 0,0 0,78 5 37,3
24/10/12 14,6 8,3 0,0 0,84 4 48,1
23/10/12 19,2 4,9 0,0 0,73 3 51,9
22/10/12 22,7 5,0 0,0 0,67 2 35,8
21/10/12 17,2 9,5 0,0 0,87 1 41,2
20/10/12 16,9 5,0 1,0 0,82 0 49,1
19/10/12 22,2 7,7 0,0 0,60 2 55,0
18/10/12 19,2 8,0 0,0 0,74 1 39,5
17/10/12 16,0 8,3 7,1 0,83 0 38,3
16/10/12 15,4 12,0 0,8 0,63 0 43,9
15/10/12 14,1 9,5 1,0 0,55 0 35,5
14/10/12 12,5 8,2 0,0 0,69 1 31,4
13/10/12 11,5 8,8 11,9 0,85 0 30,0
12/10/12 14,7 13,0 8,4 0,72 0 44,2
11/10/12 16,1 4,8 0,0 0,58 4 32,8
10/10/12 15,1 4,7 0,0 0,56 3 35,8
09/10/12 15,2 5,8 0,0 0,57 2 16,4
08/10/12 15,4 4,6 0,0 0,64 1 18,2
07/10/12 16,6 5,8 0,5 0,48 0 20,5
06/10/12 14,8 7,6 7,6 0,78 0 30,3
05/10/12 16,5 16,3 8,4 0,79 0 53,0
04/10/12 15,1 7,3 15,0 0,64 0 61,3
03/10/12 15,6 10,6 13,7 0,79 0 75,6
02/10/12 18,0 7,9 1,0 0,72 0 82,1
01/10/12 19,7 9,8 0,0 0,57 2 86,1
30/09/12 18,9 9,5 0,0 0,51 1 54,7
29/09/12 16,6 5,9 0,5 0,57 0 44,6
28/09/12 17,9 9,2 0,0 0,61 1 24,9
27/09/12 17,9 7,0 0,5 0,68 0 9,2
26/09/12 17,2 8,9 0,8 0,68 0 17,9
25/09/12 17,2 11,0 7,6 0,70 0 24,6
24/09/12 20,2 18,4 14,2 0,77 0 27,0
23/09/12 13,9 9,2 8,9 0,64 0 23,8
22/09/12 17,2 5,7 1,5 0,48 0 39,3
21/09/12 17,1 3,6 0,0 0,52 2 54,6
20/09/12 17,3 7,5 0,0 0,54 1 59,1
19/09/12 16,6 8,0 2,3 0,52 0 63,0
18/09/12 17,9 8,8 2,3 0,54 0 52,8
17/09/12 21,1 8,0 0,0 0,67 4 59,9
16/09/12 22,9 7,8 0,0 0,56 3 45,7
15/09/12 19,5 7,1 0,0 0,62 2 49,2
14/09/12 18,2 10,0 0,0 0,73 1 95,5
13/09/12 18,4 7,5 10,9 0,59 0 112,1
12/09/12 17,8 5,4 1,0 0,48 0 125,3
11/09/12 18,0 7,3 4,3 0,63 0 132,4
10/09/12 25,0 9,1 0,5 0,59 0 145,0
09/09/12 30,8 8,0 0,0 0,32 9 147,2
08/09/12 29,1 4,7 0,0 0,35 8 118,5
07/09/12 24,9 6,2 0,0 0,55 7 106,0
06/09/12 21,7 4,7 0,0 0,47 6 102,9
05/09/12 21,0 7,2 0,0 0,49 5 89,0
04/09/12 26,4 4,7 0,0 0,48 4 93,8
03/09/12 24,5 6,7 0,0 0,50 3 122,0
02/09/12 21,8 6,4 0,0 0,61 2 119,7
01/09/12 22,3 4,8 0,0 0,40 1 127,7
31/08/12 18,4 9,0 3,6 0,55 0 97,8
30/08/12 22,8 9,2 0,5 0,53 0 124,0
29/08/12 25,9 11,9 0,0 0,42 2 102,0
28/08/12 23,8 8,4 0,0 0,61 1 76,9
27/08/12 24,8 6,9 0,5 0,49 0 105,4
26/08/12 19,1 9,9 30,2 0,72 0 100,8
25/08/12 23,1 13,4 0,0 0,54 1 114,6
24/08/12 26,6 9,9 1,8 0,42 0 149,9
23/08/12 24,8 6,5 0,0 0,46 15 211,0
22/08/12 23,3 9,0 0,0 0,48 14 228,0
21/08/12 26,9 4,1 0,0 0,54 13 228,4
20/08/12 27,9 5,0 0,0 0,55 12 251,4
19/08/12 35,6 7,6 0,0 0,42 11 251,0
18/08/12 37,3 7,4 0,0 0,30 10 214,4
17/08/12 31,2 7,0 0,0 0,37 9 178,6
16/08/12 26,4 7,3 0,0 0,44 8 164,4
15/08/12 32,0 6,9 0,0 0,43 7 156,3
14/08/12 27,2 5,4 0,0 0,55 6 138,7
13/08/12 26,9 4,4 0,0 0,50 5 129,6
12/08/12 27,6 6,6 0,0 0,36 4 134,2
11/08/12 23,7 9,0 0,0 0,49 3 102,1
10/08/12 23,3 6,8 0,0 0,46 2 102,0
09/08/12 24,1 7,2 0,0 0,52 1 113,8
08/08/12 21,0 6,8 1,0 0,72 0 116,2
07/08/12 20,4 9,6 0,0 0,54 1 134,7
06/08/12 21,4 12,8 2,8 0,62 0 165,5
05/08/12 26,9 7,7 0,0 0,49 3 167,5
04/08/12 25,8 9,6 0,0 0,47 2 127,3
03/08/12 25,0 7,8 0,0 0,51 1 92,6
02/08/12 23,5 10,6 0,5 0,56 0 67,4
01/08/12 30,4 8,2 0,0 0,43 2 65,5
31/07/12 19,3 7,3 0,0 0,65 1 76,2
30/07/12 20,0 10,8 5,3 0,50 0 106,0
29/07/12 22,3 9,6 3,3 0,42 0 152,6
28/07/12 26,1 4,7 8,9 0,56 0 175,2
27/07/12 30,1 5,4 0,0 0,50 8 197,9
26/07/12 30,4 8,4 0,0 0,44 7 188,2
25/07/12 30,4 6,3 0,0 0,38 6 156,6
24/07/12 30,9 6,6 0,0 0,32 5 111,6
23/07/12 29,4 6,2 0,0 0,35 4 100,2
22/07/12 24,6 5,6 0,0 0,44 3 36,6
21/07/12 19,6 6,8 0,0 0,54 2 45,9
20/07/12 20,6 4,7 0,0 0,55 1 52,6
19/07/12 20,1 10,2 6,1 0,63 0 35,6
18/07/12 21,6 13,4 0,5 0,57 0 41,4
17/07/12 20,3 9,5 10,9 0,70 0 4,5
16/07/12 17,2 11,6 7,9 0,70 0 16,3
15/07/12 19,6 5,6 0,0 0,54 1 12,7
14/07/12 16,4 8,4 8,1 0,85 0 1,6
13/07/12 21,1 8,9 12,7 0,74 0 3,9
12/07/12 20,4 7,9 5,1 0,49 0 6,4
11/07/12 18,1 10,4 9,2 0,68 0 33,5
10/07/12 19,3 6,8 1,8 0,72 0 65,8
09/07/12 19,9 8,8 1,8 0,69 0 106,1
08/07/12 22,0 11,6 13,5 0,63 0 130,9
07/07/12 26,9 8,9 4,6 0,41 0 164,5
06/07/12 26,0 8,8 0,5 0,51 0 171,5
05/07/12 30,0 7,4 0,5 0,48 0 187,8
04/07/12 30,8 7,2 0,0 0,40 4 185,2
03/07/12 25,4 7,0 0,0 0,48 3 176,1
02/07/12 25,8 5,5 0,0 0,38 2 163,6
01/07/12 19,9 11,0 0,0 0,50 1 155,3
30/06/12 27,1 10,9 1,0 0,42 0 140,8
29/06/12 25,1 8,9 0,0 0,54 5 88,5
28/06/12 31,9 6,8 0,0 0,53 4 85,9
27/06/12 23,1 6,3 0,0 0,66 3 79,8
26/06/12 24,6 4,5 0,0 0,45 2 41,6
25/06/12 18,6 7,6 0,0 0,63 1 60,0
24/06/12 16,0 13,8 8,4 0,64 0 66,5
23/06/12 20,4 10,4 0,0 0,51 1 48,0
22/06/12 18,8 13,8 1,0 0,58 0 75,0
21/06/12 25,7 7,6 17,5 0,63 0 56,1
20/06/12 23,0 9,6 0,0 0,58 2 51,9
19/06/12 21,3 5,8 0,0 0,54 1 61,0
18/06/12 19,0 6,2 20,6 0,69 0 57,0
17/06/12 21,6 11,3 0,0 0,53 1 47,5
16/06/12 20,1 11,6 1,5 0,57 0 30,9
15/06/12 17,8 7,5 12,2 0,59 0 47,5
14/06/12 20,1 6,8 0,0 0,40 2 76,4
13/06/12 15,8 5,0 0,0 0,57 1 102,7
12/06/12 16,9 7,3 8,1 0,77 0 57,4
11/06/12 21,6 8,8 3,3 0,56 0 104,0
10/06/12 22,8 7,4 0,0 0,41 3 113,4
09/06/12 18,2 13,8 0,0 0,46 2 71,9
08/06/12 20,4 15,3 0,0 0,47 1 56,2
07/06/12 23,0 6,7 6,1 0,57 0 42,4
06/06/12 20,2 9,6 13,2 0,61 0 51,4
05/06/12 18,9 6,6 0,0 0,43 1 46,5
04/06/12 10,7 14,1 21,6 0,80 0 47,3
03/06/12 13,2 7,9 19,5 0,60 0 61,7
02/06/12 19,4 7,9 0,0 0,42 2 86,0
01/06/12 17,4 6,3 0,0 0,66 1 111,5
31/05/12 20,2 7,8 2,8 0,63 0 151,6
30/05/12 24,3 5,0 0,0 0,48 7 215,5
29/05/12 22,1 6,6 0,0 0,61 6 239,5
28/05/12 26,4 5,7 0,0 0,35 5 243,6
27/05/12 29,0 8,8 0,0 0,33 4 242,5
26/05/12 27,0 8,6 0,0 0,30 3 216,1
25/05/12 27,1 12,2 0,0 0,27 2 150,5
24/05/12 29,5 9,7 0,0 0,49 1 110,4
23/05/12 28,8 5,4 1,0 0,56 0 92,6
22/05/12 29,8 5,5 0,0 0,45 1 91,6
21/05/12 25,4 9,1 0,8 0,63 0 100,3
20/05/12 24,6 7,2 44,9 0,59 0 71,3
19/05/12 23,4 7,4 0,0 0,42 4 100,5
18/05/12 20,4 10,0 0,0 0,50 3 87,0
17/05/12 17,6 6,6 0,0 0,37 2 76,6
16/05/12 13,5 7,8 0,0 0,45 1 86,4
15/05/12 11,2 8,1 17,8 0,66 0 60,3
14/05/12 19,6 10,4 0,0 0,34 3 75,2
13/05/12 17,8 4,9 0,0 0,39 2 59,0
12/05/12 14,0 9,1 0,0 0,50 1 59,8
11/05/12 18,8 9,4 0,5 0,65 0 57,5
10/05/12 23,1 13,6 21,3 0,71 0 50,7
09/05/12 20,8 8,4 18,3 0,72 0 54,8
08/05/12 19,9 8,9 0,0 0,61 3 58,5
07/05/12 18,1 6,0 0,0 0,44 2 36,8
06/05/12 12,4 10,7 0,0 0,57 1 21,9
05/05/12 10,1 9,5 1,5 0,76 0 62,0
04/05/12 14,8 7,9 0,0 0,71 2 97,5
03/05/12 14,7 6,5 0,0 0,79 1 57,0
02/05/12 15,9 5,2 15,0 0,84 0 70,3
01/05/12 22,2 10,0 2,3 0,54 0 63,8
30/04/12 24,4 12,6 0,0 0,33 2 53,5
29/04/12 22,5 13,1 0,0 0,49 1 37,3
28/04/12 16,4 13,8 5,8 0,77 0 19,7
27/04/12 16,1 12,5 0,0 0,61 1 18,8
26/04/12 16,1 15,0 6,1 0,59 0 7,5
25/04/12 13,0 13,0 2,0 0,64 0 7,0
24/04/12 13,4 4,9 2,5 0,62 0 20,8
23/04/12 14,0 10,3 0,8 0,52 0 33,7
22/04/12 12,9 11,9 6,9 0,57 0 23,0
21/04/12 12,5 11,1 3,3 0,59 0 38,2
20/04/12 14,4 10,1 2,0 0,60 0 51,6
19/04/12 14,8 10,9 1,0 0,51 0 57,3
18/04/12 13,7 12,8 4,6 0,54 0 48,5
17/04/12 11,3 15,4 2,8 0,43 0 59,5
16/04/12 11,0 9,5 0,0 0,45 3 42,3
15/04/12 9,9 12,2 0,0 0,55 2 36,1
14/04/12 13,3 8,2 0,0 0,51 1 13,2
13/04/12 11,8 4,3 2,8 0,69 0 14,5
12/04/12 12,5 7,5 0,0 0,61 1 22,1
11/04/12 12,2 8,6 5,3 0,66 0 26,6
10/04/12 10,8 9,8 11,7 0,80 0 34,6
09/04/12 11,2 9,8 14,2 0,82 0 44,6
08/04/12 10,8 10,6 0,0 0,54 1 57,2
07/04/12 8,2 10,0 1,8 0,51 0 57,2
06/04/12 12,3 5,6 0,0 0,30 2 60,8
05/04/12 10,0 10,3 0,0 0,64 1 63,0
04/04/12 11,4 9,7 1,0 0,61 0 56,6
03/04/12 16,6 5,9 0,0 0,41 24 81,4
02/04/12 14,9 5,1 0,0 0,52 23 87,2
01/04/12 11,5 5,2 0,0 0,51 22 98,0
31/03/12 10,0 13,1 0,0 0,55 21 111,6
30/03/12 9,8 7,9 0,0 0,81 20 121,7
29/03/12 12,7 9,9 0,0 0,62 19 135,8
28/03/12 20,0 7,5 0,0 0,43 18 141,4
27/03/12 19,3 8,0 0,0 0,44 17 140,6
26/03/12 18,8 9,2 0,0 0,46 16 135,5
25/03/12 18,9 9,3 0,0 0,37 15 124,8
24/03/12 19,7 8,2 0,0 0,50 14 104,7
23/03/12 21,3 6,6 0,0 0,47 13 92,8
22/03/12 20,8 7,6 0,0 0,46 12 83,1
21/03/12 17,4 7,3 0,0 0,45 11 69,6
20/03/12 14,8 6,9 0,0 0,49 10 67,7
19/03/12 12,5 4,1 0,0 0,46 9 59,1
18/03/12 11,9 7,8 0,0 0,64 8 55,0
17/03/12 12,8 9,0 0,0 0,66 7 51,8
16/03/12 16,8 6,0 0,0 0,67 6 47,5
15/03/12 20,0 6,0 0,0 0,46 5 41,8
14/03/12 10,8 5,0 0,0 0,68 4 32,8
13/03/12 10,3 5,0 0,0 0,73 3 32,4
12/03/12 13,5 7,0 0,0 0,74 2 23,3
11/03/12 15,2 4,0 0,0 0,59 1 20,7
10/03/12 11,6 7,0 0,5 0,85 0 14,1
09/03/12 11,6 9,0 0,0 0,71 2 13,2
08/03/12 9,6 6,0 0,0 0,67 1 15,8
07/03/12 6,4 12,0 13,2 0,76 0 16,6
06/03/12 9,4 6,0 0,0 0,71 1 16,3
05/03/12 8,8 10,0 4,3 0,86 0 13,9
04/03/12 12,4 6,0 3,3 0,75 0 15,0
03/03/12 13,4 7,0 0,0 0,72 7 23,4
02/03/12 11,9 8,0 0,0 0,79 6 19,8
01/03/12 9,2 4,0 0,0 0,94 5 18,2
29/02/12 10,8 5,0 0,0 0,92 4 18,6
28/02/12 10,0 6,0 0,0 0,96 3 20,3
27/02/12 9,0 8,0 0,0 0,81 2 31,3
26/02/12 9,6 6,0 0,0 0,76 1 33,3
25/02/12 9,7 5,0 0,8 0,66 0 37,3
24/02/12 11,0 7,0 0,0 0,89 1 34,2
23/02/12 12,0 11,0 1,0 0,88 0 31,2
22/02/12 9,5 14,0 0,0 0,62 3 32,6
21/02/12 9,7 10,0 0,0 0,73 2 20,5
20/02/12 6,8 9,0 0,0 0,53 1 11,5
19/02/12 5,6 8,0 4,3 0,78 0 3,7
18/02/12 9,6 12,0 6,6 0,83 0 3,7
17/02/12 9,3 6,0 0,5 0,85 0 3,5
16/02/12 7,8 6,0 0,5 0,88 0 6,5

CumulusUtils Version 4.6.3 - generated at 27/10/2021 00:01 - © Hans Rottier
Science background here. Prediction: https://www.yourweather.co.uk/